<?xml version="1.0" encoding="UTF-8" standalone="no" ?><gpx xmlns="http://www.topografix.com/GPX/1/1" xmlns:gpxx="http://www.garmin.com/xmlschemas/GpxExtensions/v3" xmlns:wptx1="http://www.garmin.com/xmlschemas/WaypointExtension/v1" xmlns:gpxtpx="http://www.garmin.com/xmlschemas/TrackPointExtension/v1" creator="GuideVTT.com" version="1.1" xmlns:xsi="http://www.w3.org/2001/XMLSchema-instance" xsi:schemaLocation="http://www.topografix.com/GPX/1/1 http://www.topografix.com/GPX/1/1/gpx.xsd http://www.garmin.com/xmlschemas/GpxExtensions/v3 http://www8.garmin.com/xmlschemas/GpxExtensionsv3.xsd http://www.garmin.com/xmlschemas/WaypointExtension/v1 http://www8.garmin.com/xmlschemas/WaypointExtensionv1.xsd http://www.garmin.com/xmlschemas/TrackPointExtension/v1 http://www.garmin.com/xmlschemas/TrackPointExtensionv1.xsd">
<metadata><link href="http://www.garmin.com"><text>Garmin International</text></link><time>2013-06-22T15:13:50Z</time></metadata>
<trk><name>rp2026-06.gpx</name><extensions><gpxx:TrackExtension><gpxx:DisplayColor>Cyan</gpxx:DisplayColor></gpxx:TrackExtension></extensions><trkseg>
<trkpt lat="46.20743" lon="7.4409"><ele>1508.2</ele><time>2026-5-4T16:28:6Z</time></trkpt>
<trkpt lat="46.20763" lon="7.44091"><ele>1507</ele><time>2026-5-4T16:28:9Z</time></trkpt>
<trkpt lat="46.20779" lon="7.44096"><ele>1506</ele><time>2026-5-4T16:28:12Z</time></trkpt>
<trkpt lat="46.20785" lon="7.44097"><ele>1505.6</ele><time>2026-5-4T16:28:15Z</time></trkpt>
<trkpt lat="46.20803" lon="7.44097"><ele>1504.8</ele><time>2026-5-4T16:28:18Z</time></trkpt>
<trkpt lat="46.2081" lon="7.44095"><ele>1504.4</ele><time>2026-5-4T16:28:21Z</time></trkpt>
<trkpt lat="46.20814" lon="7.44088"><ele>1503.8</ele><time>2026-5-4T16:28:24Z</time></trkpt>
<trkpt lat="46.2082" lon="7.44083"><ele>1503.2</ele><time>2026-5-4T16:28:27Z</time></trkpt>
<trkpt lat="46.20833" lon="7.44075"><ele>1502</ele><time>2026-5-4T16:28:30Z</time></trkpt>
<trkpt lat="46.20845" lon="7.44067"><ele>1501</ele><time>2026-5-4T16:28:33Z</time></trkpt>
<trkpt lat="46.20851" lon="7.44062"><ele>1500.4</ele><time>2026-5-4T16:28:36Z</time></trkpt>
<trkpt lat="46.20857" lon="7.44058"><ele>1499.8</ele><time>2026-5-4T16:28:39Z</time></trkpt>
<trkpt lat="46.2087" lon="7.4405"><ele>1498.8</ele><time>2026-5-4T16:28:42Z</time></trkpt>
<trkpt lat="46.20888" lon="7.44037"><ele>1497.4</ele><time>2026-5-4T16:28:45Z</time></trkpt>
<trkpt lat="46.20894" lon="7.44036"><ele>1496.8</ele><time>2026-5-4T16:28:48Z</time></trkpt>
<trkpt lat="46.20901" lon="7.44037"><ele>1496.2</ele><time>2026-5-4T16:28:51Z</time></trkpt>
<trkpt lat="46.20907" lon="7.44039"><ele>1495.8</ele><time>2026-5-4T16:28:54Z</time></trkpt>
<trkpt lat="46.20913" lon="7.44043"><ele>1495.2</ele><time>2026-5-4T16:28:57Z</time></trkpt>
<trkpt lat="46.20926" lon="7.44051"><ele>1493.8</ele><time>2026-5-4T16:29:0Z</time></trkpt>
<trkpt lat="46.20934" lon="7.44052"><ele>1493.2</ele><time>2026-5-4T16:29:3Z</time></trkpt>
<trkpt lat="46.20941" lon="7.44051"><ele>1492.4</ele><time>2026-5-4T16:29:6Z</time></trkpt>
<trkpt lat="46.20955" lon="7.44045"><ele>1491</ele><time>2026-5-4T16:29:9Z</time></trkpt>
<trkpt lat="46.20968" lon="7.44034"><ele>1489.4</ele><time>2026-5-4T16:29:12Z</time></trkpt>
<trkpt lat="46.2098" lon="7.44022"><ele>1487.8</ele><time>2026-5-4T16:29:15Z</time></trkpt>
<trkpt lat="46.20992" lon="7.44009"><ele>1486.2</ele><time>2026-5-4T16:29:18Z</time></trkpt>
<trkpt lat="46.21005" lon="7.43997"><ele>1485</ele><time>2026-5-4T16:29:21Z</time></trkpt>
<trkpt lat="46.21017" lon="7.43985"><ele>1484</ele><time>2026-5-4T16:29:24Z</time></trkpt>
<trkpt lat="46.21023" lon="7.43978"><ele>1483.2</ele><time>2026-5-4T16:29:27Z</time></trkpt>
<trkpt lat="46.21028" lon="7.4397"><ele>1482.6</ele><time>2026-5-4T16:29:30Z</time></trkpt>
<trkpt lat="46.21038" lon="7.43953"><ele>1481.4</ele><time>2026-5-4T16:29:33Z</time></trkpt>
<trkpt lat="46.21048" lon="7.43935"><ele>1480</ele><time>2026-5-4T16:29:36Z</time></trkpt>
<trkpt lat="46.21059" lon="7.43918"><ele>1478.2</ele><time>2026-5-4T16:29:39Z</time></trkpt>
<trkpt lat="46.21066" lon="7.43912"><ele>1477.6</ele><time>2026-5-4T16:29:42Z</time></trkpt>
<trkpt lat="46.21073" lon="7.43906"><ele>1477.2</ele><time>2026-5-4T16:29:45Z</time></trkpt>
<trkpt lat="46.21093" lon="7.43893"><ele>1476</ele><time>2026-5-4T16:29:48Z</time></trkpt>
<trkpt lat="46.21108" lon="7.43883"><ele>1475</ele><time>2026-5-4T16:29:51Z</time></trkpt>
<trkpt lat="46.21121" lon="7.43872"><ele>1473.8</ele><time>2026-5-4T16:29:54Z</time></trkpt>
<trkpt lat="46.21133" lon="7.43858"><ele>1472.6</ele><time>2026-5-4T16:29:57Z</time></trkpt>
<trkpt lat="46.2114" lon="7.4385"><ele>1471.8</ele><time>2026-5-4T16:30:0Z</time></trkpt>
<trkpt lat="46.21145" lon="7.43842"><ele>1471</ele><time>2026-5-4T16:30:3Z</time></trkpt>
<trkpt lat="46.21155" lon="7.43825"><ele>1470</ele><time>2026-5-4T16:30:6Z</time></trkpt>
<trkpt lat="46.21171" lon="7.438"><ele>1469</ele><time>2026-5-4T16:30:9Z</time></trkpt>
<trkpt lat="46.21176" lon="7.43791"><ele>1468.4</ele><time>2026-5-4T16:30:12Z</time></trkpt>
<trkpt lat="46.21185" lon="7.43771"><ele>1467.2</ele><time>2026-5-4T16:30:15Z</time></trkpt>
<trkpt lat="46.21196" lon="7.43754"><ele>1465.4</ele><time>2026-5-4T16:30:18Z</time></trkpt>
<trkpt lat="46.21202" lon="7.43747"><ele>1464.6</ele><time>2026-5-4T16:30:21Z</time></trkpt>
<trkpt lat="46.21208" lon="7.43741"><ele>1463.8</ele><time>2026-5-4T16:30:24Z</time></trkpt>
<trkpt lat="46.21218" lon="7.43733"><ele>1462.2</ele><time>2026-5-4T16:30:27Z</time></trkpt>
<trkpt lat="46.21221" lon="7.43727"><ele>1461.6</ele><time>2026-5-4T16:30:30Z</time></trkpt>
<trkpt lat="46.21222" lon="7.43722"><ele>1461</ele><time>2026-5-4T16:30:33Z</time></trkpt>
<trkpt lat="46.2122" lon="7.43715"><ele>1460</ele><time>2026-5-4T16:30:36Z</time></trkpt>
<trkpt lat="46.21217" lon="7.43714"><ele>1459.6</ele><time>2026-5-4T16:30:39Z</time></trkpt>
<trkpt lat="46.21211" lon="7.43719"><ele>1459</ele><time>2026-5-4T16:30:42Z</time></trkpt>
<trkpt lat="46.21207" lon="7.43724"><ele>1458.6</ele><time>2026-5-4T16:30:45Z</time></trkpt>
<trkpt lat="46.21197" lon="7.43733"><ele>1457.8</ele><time>2026-5-4T16:30:48Z</time></trkpt>
<trkpt lat="46.21191" lon="7.43736"><ele>1457.4</ele><time>2026-5-4T16:30:51Z</time></trkpt>
<trkpt lat="46.21177" lon="7.43742"><ele>1456.4</ele><time>2026-5-4T16:30:54Z</time></trkpt>
<trkpt lat="46.21163" lon="7.43746"><ele>1454.8</ele><time>2026-5-4T16:30:57Z</time></trkpt>
<trkpt lat="46.21157" lon="7.43748"><ele>1454.2</ele><time>2026-5-4T16:31:0Z</time></trkpt>
<trkpt lat="46.2115" lon="7.43752"><ele>1453.6</ele><time>2026-5-4T16:31:3Z</time></trkpt>
<trkpt lat="46.2113" lon="7.43764"><ele>1452.2</ele><time>2026-5-4T16:31:6Z</time></trkpt>
<trkpt lat="46.21116" lon="7.43773"><ele>1450.8</ele><time>2026-5-4T16:31:9Z</time></trkpt>
<trkpt lat="46.21102" lon="7.43782"><ele>1449.4</ele><time>2026-5-4T16:31:12Z</time></trkpt>
<trkpt lat="46.21087" lon="7.43791"><ele>1448</ele><time>2026-5-4T16:31:15Z</time></trkpt>
<trkpt lat="46.21073" lon="7.43801"><ele>1446.4</ele><time>2026-5-4T16:31:18Z</time></trkpt>
<trkpt lat="46.21059" lon="7.4381"><ele>1445.2</ele><time>2026-5-4T16:31:21Z</time></trkpt>
<trkpt lat="46.21043" lon="7.43818"><ele>1444</ele><time>2026-5-4T16:31:24Z</time></trkpt>
<trkpt lat="46.21026" lon="7.43824"><ele>1442.8</ele><time>2026-5-4T16:31:27Z</time></trkpt>
<trkpt lat="46.21006" lon="7.43826"><ele>1440.6</ele><time>2026-5-4T16:31:30Z</time></trkpt>
<trkpt lat="46.20996" lon="7.43825"><ele>1439.6</ele><time>2026-5-4T16:31:33Z</time></trkpt>
<trkpt lat="46.20985" lon="7.43822"><ele>1438.4</ele><time>2026-5-4T16:31:36Z</time></trkpt>
<trkpt lat="46.20964" lon="7.43815"><ele>1436.6</ele><time>2026-5-4T16:31:39Z</time></trkpt>
<trkpt lat="46.20942" lon="7.43803"><ele>1435.2</ele><time>2026-5-4T16:31:42Z</time></trkpt>
<trkpt lat="46.20921" lon="7.43792"><ele>1433.2</ele><time>2026-5-4T16:31:45Z</time></trkpt>
<trkpt lat="46.20911" lon="7.43789"><ele>1432</ele><time>2026-5-4T16:31:48Z</time></trkpt>
<trkpt lat="46.20889" lon="7.43788"><ele>1430.4</ele><time>2026-5-4T16:31:51Z</time></trkpt>
<trkpt lat="46.20867" lon="7.43789"><ele>1429.2</ele><time>2026-5-4T16:31:54Z</time></trkpt>
<trkpt lat="46.20857" lon="7.43785"><ele>1428.6</ele><time>2026-5-4T16:31:57Z</time></trkpt>
<trkpt lat="46.20849" lon="7.43775"><ele>1427.6</ele><time>2026-5-4T16:32:0Z</time></trkpt>
<trkpt lat="46.20844" lon="7.43762"><ele>1427</ele><time>2026-5-4T16:32:3Z</time></trkpt>
<trkpt lat="46.20841" lon="7.43748"><ele>1426</ele><time>2026-5-4T16:32:6Z</time></trkpt>
<trkpt lat="46.20837" lon="7.43733"><ele>1424.8</ele><time>2026-5-4T16:32:9Z</time></trkpt>
<trkpt lat="46.20832" lon="7.43719"><ele>1423.8</ele><time>2026-5-4T16:32:12Z</time></trkpt>
<trkpt lat="46.20826" lon="7.43708"><ele>1422.8</ele><time>2026-5-4T16:32:15Z</time></trkpt>
<trkpt lat="46.2082" lon="7.43697"><ele>1422</ele><time>2026-5-4T16:32:18Z</time></trkpt>
<trkpt lat="46.20812" lon="7.43689"><ele>1421</ele><time>2026-5-4T16:32:21Z</time></trkpt>
<trkpt lat="46.20803" lon="7.43683"><ele>1420.2</ele><time>2026-5-4T16:32:24Z</time></trkpt>
<trkpt lat="46.20793" lon="7.43679"><ele>1419.4</ele><time>2026-5-4T16:32:27Z</time></trkpt>
<trkpt lat="46.20783" lon="7.43675"><ele>1418.8</ele><time>2026-5-4T16:32:30Z</time></trkpt>
<trkpt lat="46.20773" lon="7.43669"><ele>1418.2</ele><time>2026-5-4T16:32:33Z</time></trkpt>
<trkpt lat="46.20763" lon="7.43662"><ele>1417.2</ele><time>2026-5-4T16:32:36Z</time></trkpt>
<trkpt lat="46.20754" lon="7.43654"><ele>1415.8</ele><time>2026-5-4T16:32:39Z</time></trkpt>
<trkpt lat="46.20746" lon="7.43644"><ele>1414.8</ele><time>2026-5-4T16:32:42Z</time></trkpt>
<trkpt lat="46.20738" lon="7.43631"><ele>1413.8</ele><time>2026-5-4T16:32:45Z</time></trkpt>
<trkpt lat="46.20732" lon="7.43618"><ele>1412.8</ele><time>2026-5-4T16:32:48Z</time></trkpt>
<trkpt lat="46.20725" lon="7.43605"><ele>1411.8</ele><time>2026-5-4T16:32:51Z</time></trkpt>
<trkpt lat="46.20717" lon="7.43592"><ele>1411.2</ele><time>2026-5-4T16:32:54Z</time></trkpt>
<trkpt lat="46.20699" lon="7.4357"><ele>1409.6</ele><time>2026-5-4T16:32:57Z</time></trkpt>
<trkpt lat="46.20681" lon="7.43549"><ele>1408</ele><time>2026-5-4T16:33:0Z</time></trkpt>
<trkpt lat="46.20672" lon="7.43537"><ele>1406.6</ele><time>2026-5-4T16:33:3Z</time></trkpt>
<trkpt lat="46.20663" lon="7.43526"><ele>1405.2</ele><time>2026-5-4T16:33:6Z</time></trkpt>
<trkpt lat="46.20653" lon="7.43514"><ele>1404</ele><time>2026-5-4T16:33:9Z</time></trkpt>
<trkpt lat="46.20644" lon="7.43503"><ele>1403</ele><time>2026-5-4T16:33:12Z</time></trkpt>
<trkpt lat="46.20626" lon="7.43477"><ele>1401</ele><time>2026-5-4T16:33:15Z</time></trkpt>
<trkpt lat="46.20618" lon="7.43463"><ele>1400</ele><time>2026-5-4T16:33:18Z</time></trkpt>
<trkpt lat="46.20612" lon="7.43449"><ele>1399.2</ele><time>2026-5-4T16:33:21Z</time></trkpt>
<trkpt lat="46.20607" lon="7.43437"><ele>1398</ele><time>2026-5-4T16:33:24Z</time></trkpt>
<trkpt lat="46.206" lon="7.43426"><ele>1396.8</ele><time>2026-5-4T16:33:27Z</time></trkpt>
<trkpt lat="46.20593" lon="7.43416"><ele>1395.8</ele><time>2026-5-4T16:33:30Z</time></trkpt>
<trkpt lat="46.20584" lon="7.43408"><ele>1394.8</ele><time>2026-5-4T16:33:33Z</time></trkpt>
<trkpt lat="46.20575" lon="7.43401"><ele>1394</ele><time>2026-5-4T16:33:36Z</time></trkpt>
<trkpt lat="46.20565" lon="7.43396"><ele>1393</ele><time>2026-5-4T16:33:39Z</time></trkpt>
<trkpt lat="46.20554" lon="7.43392"><ele>1392.4</ele><time>2026-5-4T16:33:42Z</time></trkpt>
<trkpt lat="46.20532" lon="7.43384"><ele>1390.8</ele><time>2026-5-4T16:33:45Z</time></trkpt>
<trkpt lat="46.20522" lon="7.43378"><ele>1389.6</ele><time>2026-5-4T16:33:48Z</time></trkpt>
<trkpt lat="46.20511" lon="7.4337"><ele>1388.6</ele><time>2026-5-4T16:33:51Z</time></trkpt>
<trkpt lat="46.20493" lon="7.43351"><ele>1386.4</ele><time>2026-5-4T16:33:54Z</time></trkpt>
<trkpt lat="46.20484" lon="7.43339"><ele>1385.2</ele><time>2026-5-4T16:33:57Z</time></trkpt>
<trkpt lat="46.20467" lon="7.43315"><ele>1383.4</ele><time>2026-5-4T16:34:0Z</time></trkpt>
<trkpt lat="46.20458" lon="7.43302"><ele>1382.2</ele><time>2026-5-4T16:34:3Z</time></trkpt>
<trkpt lat="46.20449" lon="7.43289"><ele>1380.8</ele><time>2026-5-4T16:34:6Z</time></trkpt>
<trkpt lat="46.20439" lon="7.4328"><ele>1380</ele><time>2026-5-4T16:34:9Z</time></trkpt>
<trkpt lat="46.20428" lon="7.43273"><ele>1378.8</ele><time>2026-5-4T16:34:12Z</time></trkpt>
<trkpt lat="46.20418" lon="7.43269"><ele>1378</ele><time>2026-5-4T16:34:15Z</time></trkpt>
<trkpt lat="46.20408" lon="7.43266"><ele>1377.2</ele><time>2026-5-4T16:34:18Z</time></trkpt>
<trkpt lat="46.20401" lon="7.43261"><ele>1376.4</ele><time>2026-5-4T16:34:21Z</time></trkpt>
<trkpt lat="46.20398" lon="7.43254"><ele>1375.4</ele><time>2026-5-4T16:34:24Z</time></trkpt>
<trkpt lat="46.20398" lon="7.43246"><ele>1374.6</ele><time>2026-5-4T16:34:27Z</time></trkpt>
<trkpt lat="46.20402" lon="7.43241"><ele>1373.8</ele><time>2026-5-4T16:34:30Z</time></trkpt>
<trkpt lat="46.20414" lon="7.4324"><ele>1372.6</ele><time>2026-5-4T16:34:33Z</time></trkpt>
<trkpt lat="46.20425" lon="7.43249"><ele>1371.6</ele><time>2026-5-4T16:34:36Z</time></trkpt>
<trkpt lat="46.20432" lon="7.43253"><ele>1371.2</ele><time>2026-5-4T16:34:39Z</time></trkpt>
<trkpt lat="46.20439" lon="7.43258"><ele>1370.6</ele><time>2026-5-4T16:34:42Z</time></trkpt>
<trkpt lat="46.20447" lon="7.43261"><ele>1369.8</ele><time>2026-5-4T16:34:45Z</time></trkpt>
<trkpt lat="46.20464" lon="7.4327"><ele>1368.4</ele><time>2026-5-4T16:34:48Z</time></trkpt>
<trkpt lat="46.20483" lon="7.43279"><ele>1367.2</ele><time>2026-5-4T16:34:51Z</time></trkpt>
<trkpt lat="46.20494" lon="7.43282"><ele>1366.2</ele><time>2026-5-4T16:34:54Z</time></trkpt>
<trkpt lat="46.20505" lon="7.43282"><ele>1365.2</ele><time>2026-5-4T16:34:57Z</time></trkpt>
<trkpt lat="46.20517" lon="7.43281"><ele>1364</ele><time>2026-5-4T16:35:0Z</time></trkpt>
<trkpt lat="46.20528" lon="7.43279"><ele>1362.8</ele><time>2026-5-4T16:35:3Z</time></trkpt>
<trkpt lat="46.20539" lon="7.43279"><ele>1361.6</ele><time>2026-5-4T16:35:6Z</time></trkpt>
<trkpt lat="46.20549" lon="7.43279"><ele>1360.4</ele><time>2026-5-4T16:35:9Z</time></trkpt>
<trkpt lat="46.20557" lon="7.43281"><ele>1358.8</ele><time>2026-5-4T16:35:12Z</time></trkpt>
<trkpt lat="46.20564" lon="7.43283"><ele>1357.6</ele><time>2026-5-4T16:35:15Z</time></trkpt>
<trkpt lat="46.2057" lon="7.43284"><ele>1356.4</ele><time>2026-5-4T16:35:18Z</time></trkpt>
<trkpt lat="46.20587" lon="7.43288"><ele>1354.4</ele><time>2026-5-4T16:35:21Z</time></trkpt>
<trkpt lat="46.20601" lon="7.43292"><ele>1353.2</ele><time>2026-5-4T16:35:24Z</time></trkpt>
<trkpt lat="46.20619" lon="7.43294"><ele>1351.4</ele><time>2026-5-4T16:35:27Z</time></trkpt>
<trkpt lat="46.20639" lon="7.43292"><ele>1349.8</ele><time>2026-5-4T16:35:30Z</time></trkpt>
<trkpt lat="46.20659" lon="7.43288"><ele>1348.4</ele><time>2026-5-4T16:35:33Z</time></trkpt>
<trkpt lat="46.2067" lon="7.43286"><ele>1347.4</ele><time>2026-5-4T16:35:36Z</time></trkpt>
<trkpt lat="46.20682" lon="7.43285"><ele>1346.2</ele><time>2026-5-4T16:35:39Z</time></trkpt>
<trkpt lat="46.20694" lon="7.43285"><ele>1344.8</ele><time>2026-5-4T16:35:42Z</time></trkpt>
<trkpt lat="46.20706" lon="7.43288"><ele>1343.6</ele><time>2026-5-4T16:35:45Z</time></trkpt>
<trkpt lat="46.20718" lon="7.43292"><ele>1342.6</ele><time>2026-5-4T16:35:48Z</time></trkpt>
<trkpt lat="46.2073" lon="7.43299"><ele>1341</ele><time>2026-5-4T16:35:51Z</time></trkpt>
<trkpt lat="46.20741" lon="7.43307"><ele>1339.8</ele><time>2026-5-4T16:35:54Z</time></trkpt>
<trkpt lat="46.20751" lon="7.43317"><ele>1338.2</ele><time>2026-5-4T16:35:57Z</time></trkpt>
<trkpt lat="46.20762" lon="7.43329"><ele>1336.6</ele><time>2026-5-4T16:36:0Z</time></trkpt>
<trkpt lat="46.2078" lon="7.43356"><ele>1334.6</ele><time>2026-5-4T16:36:3Z</time></trkpt>
<trkpt lat="46.20789" lon="7.43368"><ele>1333.4</ele><time>2026-5-4T16:36:6Z</time></trkpt>
<trkpt lat="46.20798" lon="7.43378"><ele>1332.4</ele><time>2026-5-4T16:36:9Z</time></trkpt>
<trkpt lat="46.20807" lon="7.43384"><ele>1330</ele><time>2026-5-4T16:36:12Z</time></trkpt>
<trkpt lat="46.20815" lon="7.43388"><ele>1328.8</ele><time>2026-5-4T16:36:15Z</time></trkpt>
<trkpt lat="46.20823" lon="7.43389"><ele>1327.6</ele><time>2026-5-4T16:36:18Z</time></trkpt>
<trkpt lat="46.20838" lon="7.43391"><ele>1325.8</ele><time>2026-5-4T16:36:21Z</time></trkpt>
<trkpt lat="46.20852" lon="7.43396"><ele>1324.4</ele><time>2026-5-4T16:36:24Z</time></trkpt>
<trkpt lat="46.20858" lon="7.43401"><ele>1323.8</ele><time>2026-5-4T16:36:27Z</time></trkpt>
<trkpt lat="46.20865" lon="7.43407"><ele>1323.2</ele><time>2026-5-4T16:36:30Z</time></trkpt>
<trkpt lat="46.20879" lon="7.43416"><ele>1321.2</ele><time>2026-5-4T16:36:33Z</time></trkpt>
<trkpt lat="46.20885" lon="7.43419"><ele>1320.4</ele><time>2026-5-4T16:36:36Z</time></trkpt>
<trkpt lat="46.20891" lon="7.43419"><ele>1319.4</ele><time>2026-5-4T16:36:39Z</time></trkpt>
<trkpt lat="46.20895" lon="7.43417"><ele>1319</ele><time>2026-5-4T16:36:42Z</time></trkpt>
<trkpt lat="46.20898" lon="7.43415"><ele>1318.4</ele><time>2026-5-4T16:36:45Z</time></trkpt>
<trkpt lat="46.20898" lon="7.43412"><ele>1317.8</ele><time>2026-5-4T16:36:48Z</time></trkpt>
<trkpt lat="46.20895" lon="7.4341"><ele>1317.2</ele><time>2026-5-4T16:36:51Z</time></trkpt>
<trkpt lat="46.20892" lon="7.43409"><ele>1316.8</ele><time>2026-5-4T16:36:54Z</time></trkpt>
<trkpt lat="46.20885" lon="7.43404"><ele>1315.8</ele><time>2026-5-4T16:36:57Z</time></trkpt>
<trkpt lat="46.20878" lon="7.43396"><ele>1314.6</ele><time>2026-5-4T16:37:0Z</time></trkpt>
<trkpt lat="46.20875" lon="7.43394"><ele>1314.4</ele><time>2026-5-4T16:37:3Z</time></trkpt>
<trkpt lat="46.20862" lon="7.43382"><ele>1314.2</ele><time>2026-5-4T16:37:6Z</time></trkpt>
<trkpt lat="46.20844" lon="7.43368"><ele>1314.6</ele><time>2026-5-4T16:37:9Z</time></trkpt>
<trkpt lat="46.2083" lon="7.43362"><ele>1314.6</ele><time>2026-5-4T16:37:12Z</time></trkpt>
<trkpt lat="46.20818" lon="7.43354"><ele>1315</ele><time>2026-5-4T16:37:15Z</time></trkpt>
<trkpt lat="46.20811" lon="7.4334"><ele>1315.4</ele><time>2026-5-4T16:37:18Z</time></trkpt>
<trkpt lat="46.20807" lon="7.43328"><ele>1315.6</ele><time>2026-5-4T16:37:21Z</time></trkpt>
<trkpt lat="46.20803" lon="7.43316"><ele>1316.2</ele><time>2026-5-4T16:37:24Z</time></trkpt>
<trkpt lat="46.20796" lon="7.43304"><ele>1316.4</ele><time>2026-5-4T16:37:27Z</time></trkpt>
<trkpt lat="46.20794" lon="7.433"><ele>1316.6</ele><time>2026-5-4T16:37:30Z</time></trkpt>
<trkpt lat="46.20791" lon="7.43296"><ele>1316.8</ele><time>2026-5-4T16:37:33Z</time></trkpt>
<trkpt lat="46.20787" lon="7.43291"><ele>1317.2</ele><time>2026-5-4T16:37:36Z</time></trkpt>
<trkpt lat="46.20778" lon="7.43275"><ele>1317.8</ele><time>2026-5-4T16:37:39Z</time></trkpt>
<trkpt lat="46.20777" lon="7.43272"><ele>1317.8</ele><time>2026-5-4T16:37:42Z</time></trkpt>
<trkpt lat="46.20775" lon="7.4327"><ele>1317.8</ele><time>2026-5-4T16:37:45Z</time></trkpt>
<trkpt lat="46.20774" lon="7.43267"><ele>1317.8</ele><time>2026-5-4T16:37:48Z</time></trkpt>
<trkpt lat="46.20769" lon="7.4326"><ele>1317.8</ele><time>2026-5-4T16:37:51Z</time></trkpt>
<trkpt lat="46.20766" lon="7.43256"><ele>1318</ele><time>2026-5-4T16:37:54Z</time></trkpt>
<trkpt lat="46.20756" lon="7.43243"><ele>1317.8</ele><time>2026-5-4T16:37:57Z</time></trkpt>
<trkpt lat="46.20741" lon="7.43221"><ele>1316.8</ele><time>2026-5-4T16:38:0Z</time></trkpt>
<trkpt lat="46.20738" lon="7.43218"><ele>1316.6</ele><time>2026-5-4T16:38:3Z</time></trkpt>
<trkpt lat="46.20727" lon="7.43211"><ele>1316.2</ele><time>2026-5-4T16:38:6Z</time></trkpt>
<trkpt lat="46.20723" lon="7.43212"><ele>1316</ele><time>2026-5-4T16:38:9Z</time></trkpt>
<trkpt lat="46.20715" lon="7.43215"><ele>1315.6</ele><time>2026-5-4T16:38:12Z</time></trkpt>
<trkpt lat="46.20712" lon="7.43215"><ele>1315.6</ele><time>2026-5-4T16:38:15Z</time></trkpt>
<trkpt lat="46.20699" lon="7.43213"><ele>1314.4</ele><time>2026-5-4T16:38:18Z</time></trkpt>
<trkpt lat="46.20686" lon="7.43207"><ele>1313.4</ele><time>2026-5-4T16:38:21Z</time></trkpt>
<trkpt lat="46.20682" lon="7.43205"><ele>1313</ele><time>2026-5-4T16:38:24Z</time></trkpt>
<trkpt lat="46.2068" lon="7.43204"><ele>1312.8</ele><time>2026-5-4T16:38:27Z</time></trkpt>
<trkpt lat="46.20676" lon="7.43203"><ele>1312.6</ele><time>2026-5-4T16:38:30Z</time></trkpt>
<trkpt lat="46.20672" lon="7.43202"><ele>1312.4</ele><time>2026-5-4T16:38:33Z</time></trkpt>
<trkpt lat="46.2067" lon="7.43202"><ele>1312.2</ele><time>2026-5-4T16:38:36Z</time></trkpt>
<trkpt lat="46.20663" lon="7.43199"><ele>1311.6</ele><time>2026-5-4T16:38:39Z</time></trkpt>
<trkpt lat="46.20658" lon="7.43192"><ele>1311.2</ele><time>2026-5-4T16:38:42Z</time></trkpt>
<trkpt lat="46.20657" lon="7.43191"><ele>1311</ele><time>2026-5-4T16:38:45Z</time></trkpt>
<trkpt lat="46.20652" lon="7.43187"><ele>1310.6</ele><time>2026-5-4T16:38:48Z</time></trkpt>
<trkpt lat="46.20648" lon="7.43183"><ele>1310</ele><time>2026-5-4T16:38:51Z</time></trkpt>
<trkpt lat="46.20648" lon="7.43182"><ele>1310</ele><time>2026-5-4T16:38:54Z</time></trkpt>
<trkpt lat="46.2064" lon="7.43177"><ele>1309.6</ele><time>2026-5-4T16:38:57Z</time></trkpt>
<trkpt lat="46.20634" lon="7.43172"><ele>1309.2</ele><time>2026-5-4T16:39:0Z</time></trkpt>
<trkpt lat="46.20633" lon="7.43171"><ele>1309</ele><time>2026-5-4T16:39:3Z</time></trkpt>
<trkpt lat="46.20632" lon="7.43171"><ele>1309</ele><time>2026-5-4T16:39:6Z</time></trkpt>
<trkpt lat="46.20627" lon="7.43166"><ele>1308.6</ele><time>2026-5-4T16:39:9Z</time></trkpt>
<trkpt lat="46.20627" lon="7.43165"><ele>1308.6</ele><time>2026-5-4T16:39:12Z</time></trkpt>
<trkpt lat="46.20623" lon="7.43163"><ele>1308.4</ele><time>2026-5-4T16:39:15Z</time></trkpt>
<trkpt lat="46.2062" lon="7.43161"><ele>1308.4</ele><time>2026-5-4T16:39:18Z</time></trkpt>
<trkpt lat="46.20619" lon="7.43159"><ele>1308.4</ele><time>2026-5-4T16:39:21Z</time></trkpt>
<trkpt lat="46.20614" lon="7.43152"><ele>1308.4</ele><time>2026-5-4T16:39:24Z</time></trkpt>
<trkpt lat="46.20607" lon="7.43146"><ele>1308.2</ele><time>2026-5-4T16:39:27Z</time></trkpt>
<trkpt lat="46.20606" lon="7.43146"><ele>1308.2</ele><time>2026-5-4T16:39:30Z</time></trkpt>
<trkpt lat="46.20603" lon="7.43143"><ele>1308</ele><time>2026-5-4T16:39:33Z</time></trkpt>
<trkpt lat="46.20601" lon="7.4314"><ele>1307.6</ele><time>2026-5-4T16:39:36Z</time></trkpt>
<trkpt lat="46.20594" lon="7.43134"><ele>1306.8</ele><time>2026-5-4T16:39:39Z</time></trkpt>
<trkpt lat="46.20583" lon="7.43127"><ele>1305.6</ele><time>2026-5-4T16:39:42Z</time></trkpt>
<trkpt lat="46.20581" lon="7.43126"><ele>1305.2</ele><time>2026-5-4T16:39:45Z</time></trkpt>
<trkpt lat="46.20577" lon="7.43122"><ele>1304.4</ele><time>2026-5-4T16:39:48Z</time></trkpt>
<trkpt lat="46.20569" lon="7.43117"><ele>1303.4</ele><time>2026-5-4T16:39:51Z</time></trkpt>
<trkpt lat="46.20568" lon="7.43116"><ele>1303.2</ele><time>2026-5-4T16:39:54Z</time></trkpt>
<trkpt lat="46.20563" lon="7.43113"><ele>1302.4</ele><time>2026-5-4T16:39:57Z</time></trkpt>
<trkpt lat="46.20558" lon="7.43109"><ele>1302</ele><time>2026-5-4T16:40:0Z</time></trkpt>
<trkpt lat="46.20551" lon="7.43101"><ele>1301.8</ele><time>2026-5-4T16:40:3Z</time></trkpt>
<trkpt lat="46.20541" lon="7.43093"><ele>1301.2</ele><time>2026-5-4T16:40:6Z</time></trkpt>
<trkpt lat="46.20538" lon="7.43091"><ele>1301</ele><time>2026-5-4T16:40:9Z</time></trkpt>
<trkpt lat="46.20532" lon="7.43087"><ele>1300.6</ele><time>2026-5-4T16:40:12Z</time></trkpt>
<trkpt lat="46.20528" lon="7.43082"><ele>1300.2</ele><time>2026-5-4T16:40:15Z</time></trkpt>
<trkpt lat="46.20523" lon="7.43077"><ele>1299.6</ele><time>2026-5-4T16:40:18Z</time></trkpt>
<trkpt lat="46.20513" lon="7.43066"><ele>1298.8</ele><time>2026-5-4T16:40:21Z</time></trkpt>
<trkpt lat="46.20505" lon="7.43055"><ele>1298.6</ele><time>2026-5-4T16:40:24Z</time></trkpt>
<trkpt lat="46.20501" lon="7.43046"><ele>1299</ele><time>2026-5-4T16:40:27Z</time></trkpt>
<trkpt lat="46.20489" lon="7.43029"><ele>1299.6</ele><time>2026-5-4T16:40:30Z</time></trkpt>
<trkpt lat="46.2047" lon="7.43013"><ele>1299</ele><time>2026-5-4T16:40:33Z</time></trkpt>
<trkpt lat="46.20466" lon="7.43011"><ele>1298.8</ele><time>2026-5-4T16:40:36Z</time></trkpt>
<trkpt lat="46.20444" lon="7.4299"><ele>1298</ele><time>2026-5-4T16:40:39Z</time></trkpt>
<trkpt lat="46.20436" lon="7.42978"><ele>1297.4</ele><time>2026-5-4T16:40:42Z</time></trkpt>
<trkpt lat="46.20431" lon="7.42973"><ele>1297.4</ele><time>2026-5-4T16:40:45Z</time></trkpt>
<trkpt lat="46.20421" lon="7.42961"><ele>1297.8</ele><time>2026-5-4T16:40:48Z</time></trkpt>
<trkpt lat="46.20403" lon="7.42938"><ele>1297.4</ele><time>2026-5-4T16:40:51Z</time></trkpt>
<trkpt lat="46.20381" lon="7.42915"><ele>1297.6</ele><time>2026-5-4T16:40:54Z</time></trkpt>
<trkpt lat="46.20369" lon="7.42902"><ele>1296</ele><time>2026-5-4T16:40:57Z</time></trkpt>
<trkpt lat="46.20358" lon="7.4289"><ele>1294.6</ele><time>2026-5-4T16:41:0Z</time></trkpt>
<trkpt lat="46.20346" lon="7.42876"><ele>1292.8</ele><time>2026-5-4T16:41:3Z</time></trkpt>
<trkpt lat="46.20341" lon="7.42867"><ele>1292</ele><time>2026-5-4T16:41:6Z</time></trkpt>
<trkpt lat="46.20337" lon="7.42859"><ele>1290.8</ele><time>2026-5-4T16:41:9Z</time></trkpt>
<trkpt lat="46.20333" lon="7.42852"><ele>1290.4</ele><time>2026-5-4T16:41:12Z</time></trkpt>
<trkpt lat="46.20331" lon="7.42845"><ele>1289.6</ele><time>2026-5-4T16:41:15Z</time></trkpt>
<trkpt lat="46.20326" lon="7.42831"><ele>1289</ele><time>2026-5-4T16:41:18Z</time></trkpt>
<trkpt lat="46.2032" lon="7.42827"><ele>1289</ele><time>2026-5-4T16:41:21Z</time></trkpt>
<trkpt lat="46.20311" lon="7.42819"><ele>1288.4</ele><time>2026-5-4T16:41:24Z</time></trkpt>
<trkpt lat="46.20302" lon="7.4281"><ele>1288</ele><time>2026-5-4T16:41:27Z</time></trkpt>
<trkpt lat="46.20293" lon="7.42805"><ele>1289.2</ele><time>2026-5-4T16:41:30Z</time></trkpt>
<trkpt lat="46.20288" lon="7.42798"><ele>1288.8</ele><time>2026-5-4T16:41:33Z</time></trkpt>
<trkpt lat="46.20282" lon="7.42791"><ele>1287.8</ele><time>2026-5-4T16:41:36Z</time></trkpt>
<trkpt lat="46.20279" lon="7.42786"><ele>1287.2</ele><time>2026-5-4T16:41:39Z</time></trkpt>
<trkpt lat="46.20272" lon="7.42777"><ele>1286</ele><time>2026-5-4T16:41:42Z</time></trkpt>
<trkpt lat="46.20264" lon="7.4277"><ele>1284.6</ele><time>2026-5-4T16:41:45Z</time></trkpt>
<trkpt lat="46.20256" lon="7.42763"><ele>1283</ele><time>2026-5-4T16:41:48Z</time></trkpt>
<trkpt lat="46.2025" lon="7.42758"><ele>1282</ele><time>2026-5-4T16:41:51Z</time></trkpt>
<trkpt lat="46.20247" lon="7.42756"><ele>1281.6</ele><time>2026-5-4T16:41:54Z</time></trkpt>
<trkpt lat="46.20243" lon="7.42752"><ele>1280.8</ele><time>2026-5-4T16:41:57Z</time></trkpt>
<trkpt lat="46.20239" lon="7.42748"><ele>1280</ele><time>2026-5-4T16:42:0Z</time></trkpt>
<trkpt lat="46.20234" lon="7.42746"><ele>1279.6</ele><time>2026-5-4T16:42:3Z</time></trkpt>
<trkpt lat="46.20227" lon="7.42744"><ele>1279</ele><time>2026-5-4T16:42:6Z</time></trkpt>
<trkpt lat="46.20222" lon="7.42744"><ele>1278.6</ele><time>2026-5-4T16:42:9Z</time></trkpt>
<trkpt lat="46.20206" lon="7.42743"><ele>1277.4</ele><time>2026-5-4T16:42:12Z</time></trkpt>
<trkpt lat="46.20201" lon="7.42741"><ele>1277</ele><time>2026-5-4T16:42:15Z</time></trkpt>
<trkpt lat="46.20195" lon="7.42739"><ele>1276.4</ele><time>2026-5-4T16:42:18Z</time></trkpt>
<trkpt lat="46.20183" lon="7.42737"><ele>1274.6</ele><time>2026-5-4T16:42:21Z</time></trkpt>
<trkpt lat="46.20171" lon="7.42732"><ele>1273.6</ele><time>2026-5-4T16:42:24Z</time></trkpt>
<trkpt lat="46.20165" lon="7.42731"><ele>1273.2</ele><time>2026-5-4T16:42:27Z</time></trkpt>
<trkpt lat="46.20158" lon="7.4273"><ele>1272.6</ele><time>2026-5-4T16:42:30Z</time></trkpt>
<trkpt lat="46.20148" lon="7.4273"><ele>1272.2</ele><time>2026-5-4T16:42:33Z</time></trkpt>
<trkpt lat="46.20136" lon="7.42724"><ele>1273.2</ele><time>2026-5-4T16:42:36Z</time></trkpt>
<trkpt lat="46.2013" lon="7.42722"><ele>1274.2</ele><time>2026-5-4T16:42:39Z</time></trkpt>
<trkpt lat="46.20127" lon="7.42722"><ele>1274.6</ele><time>2026-5-4T16:42:42Z</time></trkpt>
<trkpt lat="46.20121" lon="7.42722"><ele>1275.6</ele><time>2026-5-4T16:42:45Z</time></trkpt>
<trkpt lat="46.20119" lon="7.42722"><ele>1275.8</ele><time>2026-5-4T16:42:48Z</time></trkpt>
<trkpt lat="46.2011" lon="7.42723"><ele>1276.8</ele><time>2026-5-4T16:42:51Z</time></trkpt>
<trkpt lat="46.20103" lon="7.42724"><ele>1277.4</ele><time>2026-5-4T16:42:54Z</time></trkpt>
<trkpt lat="46.201" lon="7.42725"><ele>1277.8</ele><time>2026-5-4T16:42:57Z</time></trkpt>
<trkpt lat="46.20099" lon="7.42726"><ele>1278</ele><time>2026-5-4T16:43:0Z</time></trkpt>
<trkpt lat="46.20095" lon="7.42727"><ele>1278.8</ele><time>2026-5-4T16:43:3Z</time></trkpt>
<trkpt lat="46.20091" lon="7.42729"><ele>1279.4</ele><time>2026-5-4T16:43:6Z</time></trkpt>
<trkpt lat="46.20088" lon="7.42731"><ele>1280</ele><time>2026-5-4T16:43:9Z</time></trkpt>
<trkpt lat="46.2008" lon="7.42736"><ele>1280.4</ele><time>2026-5-4T16:43:12Z</time></trkpt>
<trkpt lat="46.20069" lon="7.42743"><ele>1280</ele><time>2026-5-4T16:43:15Z</time></trkpt>
<trkpt lat="46.20058" lon="7.42745"><ele>1278.6</ele><time>2026-5-4T16:43:18Z</time></trkpt>
<trkpt lat="46.20057" lon="7.42745"><ele>1278.2</ele><time>2026-5-4T16:43:21Z</time></trkpt>
<trkpt lat="46.20054" lon="7.42746"><ele>1277.6</ele><time>2026-5-4T16:43:24Z</time></trkpt>
<trkpt lat="46.20054" lon="7.42747"><ele>1277</ele><time>2026-5-4T16:43:27Z</time></trkpt>
<trkpt lat="46.20053" lon="7.42748"><ele>1277</ele><time>2026-5-4T16:43:30Z</time></trkpt>
<trkpt lat="46.20051" lon="7.42748"><ele>1276.6</ele><time>2026-5-4T16:43:33Z</time></trkpt>
<trkpt lat="46.2005" lon="7.42749"><ele>1276.2</ele><time>2026-5-4T16:43:36Z</time></trkpt>
<trkpt lat="46.20048" lon="7.42749"><ele>1275.6</ele><time>2026-5-4T16:43:39Z</time></trkpt>
<trkpt lat="46.20045" lon="7.42754"><ele>1274.6</ele><time>2026-5-4T16:43:42Z</time></trkpt>
<trkpt lat="46.20045" lon="7.42756"><ele>1274.4</ele><time>2026-5-4T16:43:45Z</time></trkpt>
<trkpt lat="46.20042" lon="7.42761"><ele>1274</ele><time>2026-5-4T16:43:48Z</time></trkpt>
<trkpt lat="46.20035" lon="7.42764"><ele>1273.8</ele><time>2026-5-4T16:43:51Z</time></trkpt>
<trkpt lat="46.20033" lon="7.42767"><ele>1274.2</ele><time>2026-5-4T16:43:54Z</time></trkpt>
<trkpt lat="46.20031" lon="7.4277"><ele>1275</ele><time>2026-5-4T16:43:57Z</time></trkpt>
<trkpt lat="46.2003" lon="7.42771"><ele>1275.4</ele><time>2026-5-4T16:44:0Z</time></trkpt>
<trkpt lat="46.20028" lon="7.42774"><ele>1276</ele><time>2026-5-4T16:44:3Z</time></trkpt>
<trkpt lat="46.20027" lon="7.42774"><ele>1276</ele><time>2026-5-4T16:44:6Z</time></trkpt>
<trkpt lat="46.20027" lon="7.42774"><ele>1276</ele><time>2026-5-4T16:44:9Z</time></trkpt>
<trkpt lat="46.20023" lon="7.42775"><ele>1276</ele><time>2026-5-4T16:44:12Z</time></trkpt>
<trkpt lat="46.20022" lon="7.42777"><ele>1276</ele><time>2026-5-4T16:44:15Z</time></trkpt>
<trkpt lat="46.20022" lon="7.42777"><ele>1278</ele><time>2026-5-4T16:44:18Z</time></trkpt>
<trkpt lat="46.2002" lon="7.42777"><ele>1278.6</ele><time>2026-5-4T16:44:21Z</time></trkpt>
<trkpt lat="46.20017" lon="7.42776"><ele>1279.2</ele><time>2026-5-4T16:44:24Z</time></trkpt>
<trkpt lat="46.20016" lon="7.42775"><ele>1279.4</ele><time>2026-5-4T16:44:27Z</time></trkpt>
<trkpt lat="46.20014" lon="7.42773"><ele>1279.8</ele><time>2026-5-4T16:44:30Z</time></trkpt>
<trkpt lat="46.20012" lon="7.42772"><ele>1280.2</ele><time>2026-5-4T16:44:33Z</time></trkpt>
<trkpt lat="46.20011" lon="7.42772"><ele>1280.8</ele><time>2026-5-4T16:44:36Z</time></trkpt>
<trkpt lat="46.20009" lon="7.42771"><ele>1281.4</ele><time>2026-5-4T16:44:39Z</time></trkpt>
<trkpt lat="46.20008" lon="7.42771"><ele>1281.8</ele><time>2026-5-4T16:44:42Z</time></trkpt>
<trkpt lat="46.20007" lon="7.4277"><ele>1282</ele><time>2026-5-4T16:44:45Z</time></trkpt>
<trkpt lat="46.20007" lon="7.42769"><ele>1282.4</ele><time>2026-5-4T16:44:48Z</time></trkpt>
<trkpt lat="46.20006" lon="7.42768"><ele>1282.8</ele><time>2026-5-4T16:44:51Z</time></trkpt>
<trkpt lat="46.20003" lon="7.42767"><ele>1283.4</ele><time>2026-5-4T16:44:54Z</time></trkpt>
<trkpt lat="46.20002" lon="7.42765"><ele>1284</ele><time>2026-5-4T16:44:57Z</time></trkpt>
<trkpt lat="46.2" lon="7.42761"><ele>1284.6</ele><time>2026-5-4T16:45:0Z</time></trkpt>
<trkpt lat="46.2" lon="7.42759"><ele>1284.6</ele><time>2026-5-4T16:45:3Z</time></trkpt>
<trkpt lat="46.19997" lon="7.42757"><ele>1285.4</ele><time>2026-5-4T16:45:6Z</time></trkpt>
<trkpt lat="46.19996" lon="7.42756"><ele>1285.6</ele><time>2026-5-4T16:45:9Z</time></trkpt>
<trkpt lat="46.19993" lon="7.42755"><ele>1286.2</ele><time>2026-5-4T16:45:12Z</time></trkpt>
<trkpt lat="46.19991" lon="7.42754"><ele>1286.6</ele><time>2026-5-4T16:45:15Z</time></trkpt>
<trkpt lat="46.19989" lon="7.42752"><ele>1287</ele><time>2026-5-4T16:45:18Z</time></trkpt>
<trkpt lat="46.19985" lon="7.4275"><ele>1287.8</ele><time>2026-5-4T16:45:21Z</time></trkpt>
<trkpt lat="46.19983" lon="7.4275"><ele>1288</ele><time>2026-5-4T16:45:24Z</time></trkpt>
<trkpt lat="46.1998" lon="7.42748"><ele>1288.8</ele><time>2026-5-4T16:45:27Z</time></trkpt>
<trkpt lat="46.19979" lon="7.42747"><ele>1289</ele><time>2026-5-4T16:45:30Z</time></trkpt>
<trkpt lat="46.19976" lon="7.42745"><ele>1289.8</ele><time>2026-5-4T16:45:33Z</time></trkpt>
<trkpt lat="46.19975" lon="7.42745"><ele>1289.8</ele><time>2026-5-4T16:45:36Z</time></trkpt>
<trkpt lat="46.19971" lon="7.42746"><ele>1290.8</ele><time>2026-5-4T16:45:39Z</time></trkpt>
<trkpt lat="46.19971" lon="7.42746"><ele>1291.2</ele><time>2026-5-4T16:45:42Z</time></trkpt>
<trkpt lat="46.1997" lon="7.42745"><ele>1291.4</ele><time>2026-5-4T16:45:45Z</time></trkpt>
<trkpt lat="46.19967" lon="7.42742"><ele>1291.4</ele><time>2026-5-4T16:45:48Z</time></trkpt>
<trkpt lat="46.19962" lon="7.42732"><ele>1291.6</ele><time>2026-5-4T16:45:51Z</time></trkpt>
<trkpt lat="46.1996" lon="7.42728"><ele>1292</ele><time>2026-5-4T16:45:54Z</time></trkpt>
<trkpt lat="46.19958" lon="7.42724"><ele>1292.2</ele><time>2026-5-4T16:45:57Z</time></trkpt>
<trkpt lat="46.19951" lon="7.42715"><ele>1292.4</ele><time>2026-5-4T16:46:0Z</time></trkpt>
<trkpt lat="46.19941" lon="7.42701"><ele>1292.4</ele><time>2026-5-4T16:46:3Z</time></trkpt>
<trkpt lat="46.1993" lon="7.4269"><ele>1292.8</ele><time>2026-5-4T16:46:6Z</time></trkpt>
<trkpt lat="46.19929" lon="7.4269"><ele>1293</ele><time>2026-5-4T16:46:9Z</time></trkpt>
<trkpt lat="46.19925" lon="7.42687"><ele>1293.6</ele><time>2026-5-4T16:46:12Z</time></trkpt>
<trkpt lat="46.19915" lon="7.42681"><ele>1293.6</ele><time>2026-5-4T16:46:15Z</time></trkpt>
<trkpt lat="46.19907" lon="7.42672"><ele>1293.4</ele><time>2026-5-4T16:46:18Z</time></trkpt>
<trkpt lat="46.199" lon="7.42663"><ele>1292.4</ele><time>2026-5-4T16:46:21Z</time></trkpt>
<trkpt lat="46.19897" lon="7.42661"><ele>1292</ele><time>2026-5-4T16:46:24Z</time></trkpt>
<trkpt lat="46.19894" lon="7.42659"><ele>1291.8</ele><time>2026-5-4T16:46:27Z</time></trkpt>
<trkpt lat="46.19888" lon="7.42656"><ele>1291.2</ele><time>2026-5-4T16:46:30Z</time></trkpt>
<trkpt lat="46.19883" lon="7.42652"><ele>1290.8</ele><time>2026-5-4T16:46:33Z</time></trkpt>
<trkpt lat="46.1988" lon="7.42651"><ele>1290.6</ele><time>2026-5-4T16:46:36Z</time></trkpt>
<trkpt lat="46.19876" lon="7.42651"><ele>1290.2</ele><time>2026-5-4T16:46:39Z</time></trkpt>
<trkpt lat="46.19871" lon="7.42653"><ele>1289.8</ele><time>2026-5-4T16:46:42Z</time></trkpt>
<trkpt lat="46.1987" lon="7.42656"><ele>1289.6</ele><time>2026-5-4T16:46:45Z</time></trkpt>
<trkpt lat="46.19862" lon="7.42671"><ele>1288.8</ele><time>2026-5-4T16:46:48Z</time></trkpt>
<trkpt lat="46.19858" lon="7.42682"><ele>1288.6</ele><time>2026-5-4T16:46:51Z</time></trkpt>
<trkpt lat="46.19856" lon="7.42691"><ele>1288</ele><time>2026-5-4T16:46:54Z</time></trkpt>
<trkpt lat="46.19855" lon="7.42697"><ele>1287.6</ele><time>2026-5-4T16:46:57Z</time></trkpt>
<trkpt lat="46.19855" lon="7.42703"><ele>1287.2</ele><time>2026-5-4T16:47:0Z</time></trkpt>
<trkpt lat="46.19854" lon="7.42715"><ele>1286</ele><time>2026-5-4T16:47:3Z</time></trkpt>
<trkpt lat="46.19854" lon="7.42723"><ele>1285.2</ele><time>2026-5-4T16:47:6Z</time></trkpt>
<trkpt lat="46.19855" lon="7.42728"><ele>1284.8</ele><time>2026-5-4T16:47:9Z</time></trkpt>
<trkpt lat="46.19856" lon="7.4274"><ele>1283.8</ele><time>2026-5-4T16:47:12Z</time></trkpt>
<trkpt lat="46.19856" lon="7.42745"><ele>1283.2</ele><time>2026-5-4T16:47:15Z</time></trkpt>
<trkpt lat="46.19853" lon="7.42753"><ele>1281.4</ele><time>2026-5-4T16:47:18Z</time></trkpt>
<trkpt lat="46.19847" lon="7.42758"><ele>1279.6</ele><time>2026-5-4T16:47:21Z</time></trkpt>
<trkpt lat="46.19837" lon="7.42761"><ele>1277.4</ele><time>2026-5-4T16:47:24Z</time></trkpt>
<trkpt lat="46.19833" lon="7.42764"><ele>1275.8</ele><time>2026-5-4T16:47:27Z</time></trkpt>
<trkpt lat="46.19828" lon="7.42766"><ele>1274.8</ele><time>2026-5-4T16:47:30Z</time></trkpt>
<trkpt lat="46.19824" lon="7.42769"><ele>1274</ele><time>2026-5-4T16:47:33Z</time></trkpt>
<trkpt lat="46.19815" lon="7.42772"><ele>1274</ele><time>2026-5-4T16:47:36Z</time></trkpt>
<trkpt lat="46.19809" lon="7.42773"><ele>1273.6</ele><time>2026-5-4T16:47:39Z</time></trkpt>
<trkpt lat="46.19798" lon="7.42777"><ele>1272.8</ele><time>2026-5-4T16:47:42Z</time></trkpt>
<trkpt lat="46.19793" lon="7.42779"><ele>1272</ele><time>2026-5-4T16:47:45Z</time></trkpt>
<trkpt lat="46.19789" lon="7.4278"><ele>1271.2</ele><time>2026-5-4T16:47:48Z</time></trkpt>
<trkpt lat="46.19779" lon="7.42783"><ele>1269.6</ele><time>2026-5-4T16:47:51Z</time></trkpt>
<trkpt lat="46.19775" lon="7.42786"><ele>1269.2</ele><time>2026-5-4T16:47:54Z</time></trkpt>
<trkpt lat="46.19766" lon="7.42782"><ele>1270</ele><time>2026-5-4T16:47:57Z</time></trkpt>
<trkpt lat="46.19759" lon="7.4278"><ele>1270.6</ele><time>2026-5-4T16:48:0Z</time></trkpt>
<trkpt lat="46.19754" lon="7.4278"><ele>1271</ele><time>2026-5-4T16:48:3Z</time></trkpt>
<trkpt lat="46.19746" lon="7.42779"><ele>1271.6</ele><time>2026-5-4T16:48:6Z</time></trkpt>
<trkpt lat="46.19744" lon="7.42779"><ele>1271.8</ele><time>2026-5-4T16:48:9Z</time></trkpt>
<trkpt lat="46.19737" lon="7.42775"><ele>1272.8</ele><time>2026-5-4T16:48:12Z</time></trkpt>
<trkpt lat="46.19735" lon="7.42775"><ele>1273</ele><time>2026-5-4T16:48:15Z</time></trkpt>
<trkpt lat="46.19728" lon="7.42771"><ele>1274</ele><time>2026-5-4T16:48:18Z</time></trkpt>
<trkpt lat="46.19725" lon="7.42769"><ele>1274.4</ele><time>2026-5-4T16:48:21Z</time></trkpt>
<trkpt lat="46.1972" lon="7.42764"><ele>1275</ele><time>2026-5-4T16:48:24Z</time></trkpt>
<trkpt lat="46.19716" lon="7.4276"><ele>1275.4</ele><time>2026-5-4T16:48:27Z</time></trkpt>
<trkpt lat="46.19711" lon="7.42756"><ele>1276</ele><time>2026-5-4T16:48:30Z</time></trkpt>
<trkpt lat="46.19707" lon="7.4275"><ele>1276.8</ele><time>2026-5-4T16:48:33Z</time></trkpt>
<trkpt lat="46.19706" lon="7.42748"><ele>1277</ele><time>2026-5-4T16:48:36Z</time></trkpt>
<trkpt lat="46.19706" lon="7.42746"><ele>1277</ele><time>2026-5-4T16:48:39Z</time></trkpt>
<trkpt lat="46.19704" lon="7.42741"><ele>1277.2</ele><time>2026-5-4T16:48:42Z</time></trkpt>
<trkpt lat="46.19704" lon="7.42741"><ele>1277.2</ele><time>2026-5-4T16:48:45Z</time></trkpt>
<trkpt lat="46.19703" lon="7.42739"><ele>1277.6</ele><time>2026-5-4T16:48:48Z</time></trkpt>
<trkpt lat="46.19702" lon="7.4274"><ele>1277.6</ele><time>2026-5-4T16:48:51Z</time></trkpt>
<trkpt lat="46.19703" lon="7.42743"><ele>1277.8</ele><time>2026-5-4T16:48:54Z</time></trkpt>
<trkpt lat="46.19699" lon="7.42749"><ele>1277.8</ele><time>2026-5-4T16:48:57Z</time></trkpt>
<trkpt lat="46.19697" lon="7.4275"><ele>1278</ele><time>2026-5-4T16:49:0Z</time></trkpt>
<trkpt lat="46.19691" lon="7.42752"><ele>1278.2</ele><time>2026-5-4T16:49:3Z</time></trkpt>
<trkpt lat="46.19689" lon="7.42753"><ele>1278.2</ele><time>2026-5-4T16:49:6Z</time></trkpt>
<trkpt lat="46.19679" lon="7.42755"><ele>1279.2</ele><time>2026-5-4T16:49:9Z</time></trkpt>
<trkpt lat="46.19671" lon="7.42754"><ele>1280.2</ele><time>2026-5-4T16:49:12Z</time></trkpt>
<trkpt lat="46.19668" lon="7.42752"><ele>1280.6</ele><time>2026-5-4T16:49:15Z</time></trkpt>
<trkpt lat="46.19661" lon="7.42749"><ele>1281.4</ele><time>2026-5-4T16:49:18Z</time></trkpt>
<trkpt lat="46.19655" lon="7.42747"><ele>1282.2</ele><time>2026-5-4T16:49:21Z</time></trkpt>
<trkpt lat="46.19651" lon="7.42745"><ele>1282.4</ele><time>2026-5-4T16:49:24Z</time></trkpt>
<trkpt lat="46.19644" lon="7.42743"><ele>1283.2</ele><time>2026-5-4T16:49:27Z</time></trkpt>
<trkpt lat="46.19641" lon="7.42743"><ele>1283.6</ele><time>2026-5-4T16:49:30Z</time></trkpt>
<trkpt lat="46.19633" lon="7.4274"><ele>1284.2</ele><time>2026-5-4T16:49:33Z</time></trkpt>
<trkpt lat="46.19628" lon="7.42739"><ele>1284.6</ele><time>2026-5-4T16:49:36Z</time></trkpt>
<trkpt lat="46.19621" lon="7.42737"><ele>1285.2</ele><time>2026-5-4T16:49:39Z</time></trkpt>
<trkpt lat="46.19615" lon="7.42735"><ele>1285.8</ele><time>2026-5-4T16:49:42Z</time></trkpt>
<trkpt lat="46.19607" lon="7.42731"><ele>1286.4</ele><time>2026-5-4T16:49:45Z</time></trkpt>
<trkpt lat="46.19603" lon="7.42729"><ele>1286.8</ele><time>2026-5-4T16:49:48Z</time></trkpt>
<trkpt lat="46.19593" lon="7.42726"><ele>1287.8</ele><time>2026-5-4T16:49:51Z</time></trkpt>
<trkpt lat="46.19589" lon="7.42725"><ele>1288.2</ele><time>2026-5-4T16:49:54Z</time></trkpt>
<trkpt lat="46.19581" lon="7.4272"><ele>1289</ele><time>2026-5-4T16:49:57Z</time></trkpt>
<trkpt lat="46.19575" lon="7.42718"><ele>1289.6</ele><time>2026-5-4T16:50:0Z</time></trkpt>
<trkpt lat="46.19568" lon="7.42718"><ele>1290</ele><time>2026-5-4T16:50:3Z</time></trkpt>
<trkpt lat="46.19561" lon="7.42718"><ele>1290.6</ele><time>2026-5-4T16:50:6Z</time></trkpt>
<trkpt lat="46.19555" lon="7.42719"><ele>1291.2</ele><time>2026-5-4T16:50:9Z</time></trkpt>
<trkpt lat="46.19546" lon="7.4272"><ele>1292.2</ele><time>2026-5-4T16:50:12Z</time></trkpt>
<trkpt lat="46.19534" lon="7.42723"><ele>1293.4</ele><time>2026-5-4T16:50:15Z</time></trkpt>
<trkpt lat="46.19522" lon="7.42727"><ele>1294.4</ele><time>2026-5-4T16:50:18Z</time></trkpt>
<trkpt lat="46.19518" lon="7.42729"><ele>1294.6</ele><time>2026-5-4T16:50:21Z</time></trkpt>
<trkpt lat="46.19508" lon="7.42737"><ele>1295.4</ele><time>2026-5-4T16:50:24Z</time></trkpt>
<trkpt lat="46.19506" lon="7.42739"><ele>1295.6</ele><time>2026-5-4T16:50:27Z</time></trkpt>
<trkpt lat="46.195" lon="7.42751"><ele>1296.4</ele><time>2026-5-4T16:50:30Z</time></trkpt>
<trkpt lat="46.19497" lon="7.42757"><ele>1296.8</ele><time>2026-5-4T16:50:33Z</time></trkpt>
<trkpt lat="46.19492" lon="7.42772"><ele>1297.6</ele><time>2026-5-4T16:50:36Z</time></trkpt>
<trkpt lat="46.19491" lon="7.42775"><ele>1297.6</ele><time>2026-5-4T16:50:39Z</time></trkpt>
<trkpt lat="46.19485" lon="7.42799"><ele>1298.6</ele><time>2026-5-4T16:50:42Z</time></trkpt>
<trkpt lat="46.19484" lon="7.42803"><ele>1298.6</ele><time>2026-5-4T16:50:45Z</time></trkpt>
<trkpt lat="46.19477" lon="7.42827"><ele>1299.8</ele><time>2026-5-4T16:50:48Z</time></trkpt>
<trkpt lat="46.19475" lon="7.42833"><ele>1300.2</ele><time>2026-5-4T16:50:51Z</time></trkpt>
<trkpt lat="46.19473" lon="7.4284"><ele>1300.8</ele><time>2026-5-4T16:50:54Z</time></trkpt>
<trkpt lat="46.19467" lon="7.42851"><ele>1301.8</ele><time>2026-5-4T16:50:57Z</time></trkpt>
<trkpt lat="46.19458" lon="7.42868"><ele>1303</ele><time>2026-5-4T16:51:0Z</time></trkpt>
<trkpt lat="46.19456" lon="7.4287"><ele>1303</ele><time>2026-5-4T16:51:3Z</time></trkpt>
<trkpt lat="46.19451" lon="7.42877"><ele>1303.6</ele><time>2026-5-4T16:51:6Z</time></trkpt>
<trkpt lat="46.19447" lon="7.42883"><ele>1304</ele><time>2026-5-4T16:51:9Z</time></trkpt>
<trkpt lat="46.19444" lon="7.42886"><ele>1304.4</ele><time>2026-5-4T16:51:12Z</time></trkpt>
<trkpt lat="46.19437" lon="7.42896"><ele>1305.2</ele><time>2026-5-4T16:51:15Z</time></trkpt>
<trkpt lat="46.19437" lon="7.42899"><ele>1305.4</ele><time>2026-5-4T16:51:18Z</time></trkpt>
<trkpt lat="46.19442" lon="7.42911"><ele>1305.8</ele><time>2026-5-4T16:51:21Z</time></trkpt>
<trkpt lat="46.19445" lon="7.42912"><ele>1306</ele><time>2026-5-4T16:51:24Z</time></trkpt>
<trkpt lat="46.19446" lon="7.42912"><ele>1306.2</ele><time>2026-5-4T16:51:27Z</time></trkpt>
<trkpt lat="46.19449" lon="7.4291"><ele>1306.4</ele><time>2026-5-4T16:51:30Z</time></trkpt>
<trkpt lat="46.19458" lon="7.429"><ele>1307.2</ele><time>2026-5-4T16:51:33Z</time></trkpt>
<trkpt lat="46.19459" lon="7.42899"><ele>1307.2</ele><time>2026-5-4T16:51:36Z</time></trkpt>
<trkpt lat="46.19469" lon="7.42888"><ele>1308.4</ele><time>2026-5-4T16:51:39Z</time></trkpt>
<trkpt lat="46.1947" lon="7.42886"><ele>1308.8</ele><time>2026-5-4T16:51:42Z</time></trkpt>
<trkpt lat="46.19476" lon="7.4288"><ele>1309.6</ele><time>2026-5-4T16:51:45Z</time></trkpt>
<trkpt lat="46.19479" lon="7.42875"><ele>1310</ele><time>2026-5-4T16:51:48Z</time></trkpt>
<trkpt lat="46.19486" lon="7.42869"><ele>1310.6</ele><time>2026-5-4T16:51:51Z</time></trkpt>
<trkpt lat="46.19494" lon="7.42861"><ele>1311.2</ele><time>2026-5-4T16:51:54Z</time></trkpt>
<trkpt lat="46.19498" lon="7.42857"><ele>1311.8</ele><time>2026-5-4T16:51:57Z</time></trkpt>
<trkpt lat="46.19505" lon="7.42849"><ele>1312.8</ele><time>2026-5-4T16:52:0Z</time></trkpt>
<trkpt lat="46.19506" lon="7.42848"><ele>1313</ele><time>2026-5-4T16:52:3Z</time></trkpt>
<trkpt lat="46.19517" lon="7.42833"><ele>1313.8</ele><time>2026-5-4T16:52:6Z</time></trkpt>
<trkpt lat="46.19517" lon="7.42832"><ele>1314</ele><time>2026-5-4T16:52:9Z</time></trkpt>
<trkpt lat="46.19522" lon="7.42819"><ele>1314.8</ele><time>2026-5-4T16:52:12Z</time></trkpt>
<trkpt lat="46.19523" lon="7.42814"><ele>1315.2</ele><time>2026-5-4T16:52:15Z</time></trkpt>
<trkpt lat="46.19526" lon="7.42797"><ele>1316</ele><time>2026-5-4T16:52:18Z</time></trkpt>
<trkpt lat="46.19534" lon="7.42788"><ele>1316.8</ele><time>2026-5-4T16:52:21Z</time></trkpt>
<trkpt lat="46.19537" lon="7.42789"><ele>1317</ele><time>2026-5-4T16:52:24Z</time></trkpt>
<trkpt lat="46.19541" lon="7.42795"><ele>1317.2</ele><time>2026-5-4T16:52:27Z</time></trkpt>
<trkpt lat="46.19542" lon="7.428"><ele>1317.4</ele><time>2026-5-4T16:52:30Z</time></trkpt>
<trkpt lat="46.19541" lon="7.42806"><ele>1317.8</ele><time>2026-5-4T16:52:33Z</time></trkpt>
<trkpt lat="46.19538" lon="7.42812"><ele>1318</ele><time>2026-5-4T16:52:36Z</time></trkpt>
<trkpt lat="46.19534" lon="7.42819"><ele>1318.2</ele><time>2026-5-4T16:52:39Z</time></trkpt>
<trkpt lat="46.19528" lon="7.4283"><ele>1319</ele><time>2026-5-4T16:52:42Z</time></trkpt>
<trkpt lat="46.19527" lon="7.42832"><ele>1319</ele><time>2026-5-4T16:52:45Z</time></trkpt>
<trkpt lat="46.1952" lon="7.42849"><ele>1320.2</ele><time>2026-5-4T16:52:48Z</time></trkpt>
<trkpt lat="46.19515" lon="7.42863"><ele>1321.2</ele><time>2026-5-4T16:52:51Z</time></trkpt>
<trkpt lat="46.19514" lon="7.42865"><ele>1321.4</ele><time>2026-5-4T16:52:54Z</time></trkpt>
<trkpt lat="46.1951" lon="7.42879"><ele>1322.4</ele><time>2026-5-4T16:52:57Z</time></trkpt>
<trkpt lat="46.19509" lon="7.42882"><ele>1322.6</ele><time>2026-5-4T16:53:0Z</time></trkpt>
<trkpt lat="46.19506" lon="7.42894"><ele>1323.4</ele><time>2026-5-4T16:53:3Z</time></trkpt>
<trkpt lat="46.19505" lon="7.42896"><ele>1323.8</ele><time>2026-5-4T16:53:6Z</time></trkpt>
<trkpt lat="46.19503" lon="7.42907"><ele>1324.6</ele><time>2026-5-4T16:53:9Z</time></trkpt>
<trkpt lat="46.19499" lon="7.4292"><ele>1325.6</ele><time>2026-5-4T16:53:12Z</time></trkpt>
<trkpt lat="46.19498" lon="7.42923"><ele>1325.8</ele><time>2026-5-4T16:53:15Z</time></trkpt>
<trkpt lat="46.19496" lon="7.42928"><ele>1326.2</ele><time>2026-5-4T16:53:18Z</time></trkpt>
<trkpt lat="46.19495" lon="7.42929"><ele>1326.4</ele><time>2026-5-4T16:53:21Z</time></trkpt>
<trkpt lat="46.19493" lon="7.42937"><ele>1326.8</ele><time>2026-5-4T16:53:24Z</time></trkpt>
<trkpt lat="46.19492" lon="7.42942"><ele>1327.2</ele><time>2026-5-4T16:53:27Z</time></trkpt>
<trkpt lat="46.19488" lon="7.4295"><ele>1328</ele><time>2026-5-4T16:53:30Z</time></trkpt>
<trkpt lat="46.19486" lon="7.42955"><ele>1328.2</ele><time>2026-5-4T16:53:33Z</time></trkpt>
<trkpt lat="46.19483" lon="7.42964"><ele>1329</ele><time>2026-5-4T16:53:36Z</time></trkpt>
<trkpt lat="46.19482" lon="7.42966"><ele>1329.2</ele><time>2026-5-4T16:53:39Z</time></trkpt>
<trkpt lat="46.19477" lon="7.42977"><ele>1330.2</ele><time>2026-5-4T16:53:42Z</time></trkpt>
<trkpt lat="46.19473" lon="7.42985"><ele>1331.2</ele><time>2026-5-4T16:53:45Z</time></trkpt>
<trkpt lat="46.19471" lon="7.42988"><ele>1331.6</ele><time>2026-5-4T16:53:48Z</time></trkpt>
<trkpt lat="46.19468" lon="7.42996"><ele>1332.2</ele><time>2026-5-4T16:53:51Z</time></trkpt>
<trkpt lat="46.19467" lon="7.43"><ele>1332.4</ele><time>2026-5-4T16:53:54Z</time></trkpt>
<trkpt lat="46.19466" lon="7.43009"><ele>1332.8</ele><time>2026-5-4T16:53:57Z</time></trkpt>
<trkpt lat="46.19464" lon="7.43016"><ele>1333.4</ele><time>2026-5-4T16:54:0Z</time></trkpt>
<trkpt lat="46.19464" lon="7.43021"><ele>1333.6</ele><time>2026-5-4T16:54:3Z</time></trkpt>
<trkpt lat="46.19463" lon="7.43031"><ele>1334.4</ele><time>2026-5-4T16:54:6Z</time></trkpt>
<trkpt lat="46.19463" lon="7.43032"><ele>1334.4</ele><time>2026-5-4T16:54:9Z</time></trkpt>
<trkpt lat="46.19463" lon="7.43042"><ele>1335.2</ele><time>2026-5-4T16:54:12Z</time></trkpt>
<trkpt lat="46.19466" lon="7.43044"><ele>1335.4</ele><time>2026-5-4T16:54:15Z</time></trkpt>
<trkpt lat="46.19469" lon="7.43048"><ele>1335.6</ele><time>2026-5-4T16:54:18Z</time></trkpt>
<trkpt lat="46.19472" lon="7.43052"><ele>1335.8</ele><time>2026-5-4T16:54:21Z</time></trkpt>
<trkpt lat="46.19473" lon="7.43054"><ele>1336.2</ele><time>2026-5-4T16:54:24Z</time></trkpt>
<trkpt lat="46.19473" lon="7.43054"><ele>1336.6</ele><time>2026-5-4T16:54:27Z</time></trkpt>
<trkpt lat="46.19473" lon="7.43054"><ele>1336.4</ele><time>2026-5-4T16:54:30Z</time></trkpt>
<trkpt lat="46.19473" lon="7.43054"><ele>1336.4</ele><time>2026-5-4T16:54:33Z</time></trkpt>
<trkpt lat="46.19473" lon="7.43054"><ele>1336.6</ele><time>2026-5-4T16:54:36Z</time></trkpt>
<trkpt lat="46.19473" lon="7.43054"><ele>1336.6</ele><time>2026-5-4T16:54:39Z</time></trkpt>
<trkpt lat="46.19473" lon="7.43054"><ele>1336.6</ele><time>2026-5-4T16:54:42Z</time></trkpt>
<trkpt lat="46.19473" lon="7.43054"><ele>1336.6</ele><time>2026-5-4T16:54:45Z</time></trkpt>
<trkpt lat="46.19473" lon="7.43054"><ele>1336.6</ele><time>2026-5-4T16:54:48Z</time></trkpt>
<trkpt lat="46.19472" lon="7.43057"><ele>1336.6</ele><time>2026-5-4T16:54:51Z</time></trkpt>
<trkpt lat="46.19471" lon="7.43058"><ele>1336.6</ele><time>2026-5-4T16:54:54Z</time></trkpt>
<trkpt lat="46.19465" lon="7.43062"><ele>1336.6</ele><time>2026-5-4T16:54:57Z</time></trkpt>
<trkpt lat="46.19464" lon="7.43065"><ele>1336.8</ele><time>2026-5-4T16:55:0Z</time></trkpt>
<trkpt lat="46.19463" lon="7.43071"><ele>1337.4</ele><time>2026-5-4T16:55:3Z</time></trkpt>
<trkpt lat="46.19463" lon="7.43075"><ele>1337.8</ele><time>2026-5-4T16:55:6Z</time></trkpt>
<trkpt lat="46.19463" lon="7.4309"><ele>1338.8</ele><time>2026-5-4T16:55:9Z</time></trkpt>
<trkpt lat="46.19462" lon="7.43106"><ele>1340</ele><time>2026-5-4T16:55:12Z</time></trkpt>
<trkpt lat="46.19462" lon="7.43113"><ele>1340.4</ele><time>2026-5-4T16:55:15Z</time></trkpt>
<trkpt lat="46.19464" lon="7.43126"><ele>1341</ele><time>2026-5-4T16:55:18Z</time></trkpt>
<trkpt lat="46.19468" lon="7.43138"><ele>1341.8</ele><time>2026-5-4T16:55:21Z</time></trkpt>
<trkpt lat="46.19471" lon="7.43144"><ele>1342</ele><time>2026-5-4T16:55:24Z</time></trkpt>
<trkpt lat="46.19477" lon="7.43152"><ele>1342.4</ele><time>2026-5-4T16:55:27Z</time></trkpt>
<trkpt lat="46.19481" lon="7.4316"><ele>1343</ele><time>2026-5-4T16:55:30Z</time></trkpt>
<trkpt lat="46.19482" lon="7.43166"><ele>1343.4</ele><time>2026-5-4T16:55:33Z</time></trkpt>
<trkpt lat="46.19484" lon="7.43177"><ele>1344.2</ele><time>2026-5-4T16:55:36Z</time></trkpt>
<trkpt lat="46.19488" lon="7.43191"><ele>1344.6</ele><time>2026-5-4T16:55:39Z</time></trkpt>
<trkpt lat="46.19493" lon="7.43214"><ele>1345.2</ele><time>2026-5-4T16:55:42Z</time></trkpt>
<trkpt lat="46.19495" lon="7.43225"><ele>1345.6</ele><time>2026-5-4T16:55:45Z</time></trkpt>
<trkpt lat="46.19499" lon="7.43251"><ele>1346.2</ele><time>2026-5-4T16:55:48Z</time></trkpt>
<trkpt lat="46.195" lon="7.43273"><ele>1347.2</ele><time>2026-5-4T16:55:51Z</time></trkpt>
<trkpt lat="46.195" lon="7.43276"><ele>1347.4</ele><time>2026-5-4T16:55:54Z</time></trkpt>
<trkpt lat="46.19501" lon="7.43303"><ele>1348</ele><time>2026-5-4T16:55:57Z</time></trkpt>
<trkpt lat="46.19497" lon="7.43328"><ele>1348</ele><time>2026-5-4T16:56:0Z</time></trkpt>
<trkpt lat="46.1949" lon="7.43355"><ele>1347.6</ele><time>2026-5-4T16:56:3Z</time></trkpt>
<trkpt lat="46.19488" lon="7.4336"><ele>1347.4</ele><time>2026-5-4T16:56:6Z</time></trkpt>
<trkpt lat="46.19475" lon="7.43413"><ele>1348</ele><time>2026-5-4T16:56:9Z</time></trkpt>
<trkpt lat="46.19472" lon="7.43427"><ele>1348.4</ele><time>2026-5-4T16:56:12Z</time></trkpt>
<trkpt lat="46.19464" lon="7.43448"><ele>1348.8</ele><time>2026-5-4T16:56:15Z</time></trkpt>
<trkpt lat="46.19452" lon="7.43479"><ele>1349.2</ele><time>2026-5-4T16:56:18Z</time></trkpt>
<trkpt lat="46.19445" lon="7.43493"><ele>1349.4</ele><time>2026-5-4T16:56:21Z</time></trkpt>
<trkpt lat="46.19438" lon="7.43507"><ele>1350</ele><time>2026-5-4T16:56:24Z</time></trkpt>
<trkpt lat="46.1943" lon="7.43533"><ele>1350</ele><time>2026-5-4T16:56:27Z</time></trkpt>
<trkpt lat="46.19428" lon="7.43544"><ele>1350.6</ele><time>2026-5-4T16:56:30Z</time></trkpt>
<trkpt lat="46.19429" lon="7.43553"><ele>1351.8</ele><time>2026-5-4T16:56:33Z</time></trkpt>
<trkpt lat="46.1943" lon="7.43556"><ele>1352.2</ele><time>2026-5-4T16:56:36Z</time></trkpt>
<trkpt lat="46.19432" lon="7.43561"><ele>1352.8</ele><time>2026-5-4T16:56:39Z</time></trkpt>
<trkpt lat="46.19432" lon="7.43562"><ele>1352.8</ele><time>2026-5-4T16:56:42Z</time></trkpt>
<trkpt lat="46.19433" lon="7.43566"><ele>1353.6</ele><time>2026-5-4T16:56:45Z</time></trkpt>
<trkpt lat="46.19434" lon="7.43569"><ele>1354</ele><time>2026-5-4T16:56:48Z</time></trkpt>
<trkpt lat="46.19437" lon="7.43578"><ele>1355</ele><time>2026-5-4T16:56:51Z</time></trkpt>
<trkpt lat="46.19437" lon="7.43579"><ele>1355</ele><time>2026-5-4T16:56:54Z</time></trkpt>
<trkpt lat="46.19438" lon="7.43585"><ele>1355.6</ele><time>2026-5-4T16:56:57Z</time></trkpt>
<trkpt lat="46.19438" lon="7.43588"><ele>1356.2</ele><time>2026-5-4T16:57:0Z</time></trkpt>
<trkpt lat="46.19439" lon="7.43588"><ele>1356.6</ele><time>2026-5-4T16:57:3Z</time></trkpt>
<trkpt lat="46.1944" lon="7.43589"><ele>1356.6</ele><time>2026-5-4T16:57:6Z</time></trkpt>
<trkpt lat="46.19441" lon="7.43594"><ele>1357.2</ele><time>2026-5-4T16:57:9Z</time></trkpt>
<trkpt lat="46.19442" lon="7.43602"><ele>1358.4</ele><time>2026-5-4T16:57:12Z</time></trkpt>
<trkpt lat="46.19442" lon="7.43606"><ele>1359</ele><time>2026-5-4T16:57:15Z</time></trkpt>
<trkpt lat="46.19443" lon="7.4361"><ele>1359.6</ele><time>2026-5-4T16:57:18Z</time></trkpt>
<trkpt lat="46.19442" lon="7.43615"><ele>1360</ele><time>2026-5-4T16:57:21Z</time></trkpt>
<trkpt lat="46.19442" lon="7.43623"><ele>1360.6</ele><time>2026-5-4T16:57:24Z</time></trkpt>
<trkpt lat="46.19442" lon="7.43625"><ele>1360.8</ele><time>2026-5-4T16:57:27Z</time></trkpt>
<trkpt lat="46.1944" lon="7.43638"><ele>1361.4</ele><time>2026-5-4T16:57:30Z</time></trkpt>
<trkpt lat="46.1944" lon="7.43641"><ele>1361.8</ele><time>2026-5-4T16:57:33Z</time></trkpt>
<trkpt lat="46.1944" lon="7.43646"><ele>1362.2</ele><time>2026-5-4T16:57:36Z</time></trkpt>
<trkpt lat="46.1944" lon="7.43648"><ele>1362.2</ele><time>2026-5-4T16:57:39Z</time></trkpt>
<trkpt lat="46.1944" lon="7.43654"><ele>1362.8</ele><time>2026-5-4T16:57:42Z</time></trkpt>
<trkpt lat="46.1944" lon="7.43663"><ele>1363.8</ele><time>2026-5-4T16:57:45Z</time></trkpt>
<trkpt lat="46.1944" lon="7.43666"><ele>1364</ele><time>2026-5-4T16:57:48Z</time></trkpt>
<trkpt lat="46.1944" lon="7.43675"><ele>1365</ele><time>2026-5-4T16:57:51Z</time></trkpt>
<trkpt lat="46.19441" lon="7.43681"><ele>1365.6</ele><time>2026-5-4T16:57:54Z</time></trkpt>
<trkpt lat="46.19441" lon="7.43685"><ele>1366</ele><time>2026-5-4T16:57:57Z</time></trkpt>
<trkpt lat="46.19442" lon="7.43693"><ele>1366.8</ele><time>2026-5-4T16:58:0Z</time></trkpt>
<trkpt lat="46.19442" lon="7.43696"><ele>1367.2</ele><time>2026-5-4T16:58:3Z</time></trkpt>
<trkpt lat="46.19444" lon="7.43702"><ele>1368.2</ele><time>2026-5-4T16:58:6Z</time></trkpt>
<trkpt lat="46.19444" lon="7.43704"><ele>1368.2</ele><time>2026-5-4T16:58:9Z</time></trkpt>
<trkpt lat="46.19444" lon="7.43707"><ele>1368.6</ele><time>2026-5-4T16:58:12Z</time></trkpt>
<trkpt lat="46.19446" lon="7.43712"><ele>1369.4</ele><time>2026-5-4T16:58:15Z</time></trkpt>
<trkpt lat="46.19447" lon="7.43716"><ele>1369.8</ele><time>2026-5-4T16:58:18Z</time></trkpt>
<trkpt lat="46.19449" lon="7.43722"><ele>1370.4</ele><time>2026-5-4T16:58:21Z</time></trkpt>
<trkpt lat="46.1945" lon="7.43725"><ele>1370.6</ele><time>2026-5-4T16:58:24Z</time></trkpt>
<trkpt lat="46.19453" lon="7.43734"><ele>1371.4</ele><time>2026-5-4T16:58:27Z</time></trkpt>
<trkpt lat="46.19453" lon="7.43735"><ele>1371.6</ele><time>2026-5-4T16:58:30Z</time></trkpt>
<trkpt lat="46.19454" lon="7.43742"><ele>1372</ele><time>2026-5-4T16:58:33Z</time></trkpt>
<trkpt lat="46.19454" lon="7.4375"><ele>1372.6</ele><time>2026-5-4T16:58:36Z</time></trkpt>
<trkpt lat="46.19454" lon="7.43752"><ele>1372.8</ele><time>2026-5-4T16:58:39Z</time></trkpt>
<trkpt lat="46.19454" lon="7.43759"><ele>1373.8</ele><time>2026-5-4T16:58:42Z</time></trkpt>
<trkpt lat="46.19454" lon="7.43762"><ele>1374</ele><time>2026-5-4T16:58:45Z</time></trkpt>
<trkpt lat="46.19454" lon="7.43771"><ele>1374.8</ele><time>2026-5-4T16:58:48Z</time></trkpt>
<trkpt lat="46.19452" lon="7.43782"><ele>1375.8</ele><time>2026-5-4T16:58:51Z</time></trkpt>
<trkpt lat="46.19452" lon="7.43784"><ele>1376</ele><time>2026-5-4T16:58:54Z</time></trkpt>
<trkpt lat="46.1945" lon="7.43792"><ele>1376.8</ele><time>2026-5-4T16:58:57Z</time></trkpt>
<trkpt lat="46.1945" lon="7.43794"><ele>1377.2</ele><time>2026-5-4T16:59:0Z</time></trkpt>
<trkpt lat="46.19448" lon="7.43801"><ele>1378</ele><time>2026-5-4T16:59:3Z</time></trkpt>
<trkpt lat="46.19448" lon="7.43808"><ele>1378.8</ele><time>2026-5-4T16:59:6Z</time></trkpt>
<trkpt lat="46.19447" lon="7.43812"><ele>1379</ele><time>2026-5-4T16:59:9Z</time></trkpt>
<trkpt lat="46.19445" lon="7.43822"><ele>1380</ele><time>2026-5-4T16:59:12Z</time></trkpt>
<trkpt lat="46.19445" lon="7.43823"><ele>1380.2</ele><time>2026-5-4T16:59:15Z</time></trkpt>
<trkpt lat="46.19444" lon="7.43833"><ele>1381.2</ele><time>2026-5-4T16:59:18Z</time></trkpt>
<trkpt lat="46.19444" lon="7.43834"><ele>1381.2</ele><time>2026-5-4T16:59:21Z</time></trkpt>
<trkpt lat="46.19444" lon="7.43836"><ele>1381.2</ele><time>2026-5-4T16:59:24Z</time></trkpt>
<trkpt lat="46.19441" lon="7.43847"><ele>1382.4</ele><time>2026-5-4T16:59:27Z</time></trkpt>
<trkpt lat="46.19436" lon="7.43857"><ele>1383.2</ele><time>2026-5-4T16:59:30Z</time></trkpt>
<trkpt lat="46.19435" lon="7.43861"><ele>1383.4</ele><time>2026-5-4T16:59:33Z</time></trkpt>
<trkpt lat="46.19434" lon="7.43866"><ele>1383.8</ele><time>2026-5-4T16:59:36Z</time></trkpt>
<trkpt lat="46.19432" lon="7.4387"><ele>1384.4</ele><time>2026-5-4T16:59:39Z</time></trkpt>
<trkpt lat="46.19431" lon="7.43875"><ele>1385.2</ele><time>2026-5-4T16:59:42Z</time></trkpt>
<trkpt lat="46.19429" lon="7.43878"><ele>1385.4</ele><time>2026-5-4T16:59:45Z</time></trkpt>
<trkpt lat="46.19427" lon="7.43887"><ele>1386.4</ele><time>2026-5-4T16:59:48Z</time></trkpt>
<trkpt lat="46.19427" lon="7.4389"><ele>1386.6</ele><time>2026-5-4T16:59:51Z</time></trkpt>
<trkpt lat="46.19426" lon="7.43901"><ele>1387.4</ele><time>2026-5-4T16:59:54Z</time></trkpt>
<trkpt lat="46.19425" lon="7.43902"><ele>1387.6</ele><time>2026-5-4T16:59:57Z</time></trkpt>
<trkpt lat="46.19424" lon="7.4391"><ele>1388.2</ele><time>2026-5-4T17:0:0Z</time></trkpt>
<trkpt lat="46.19424" lon="7.43915"><ele>1388.6</ele><time>2026-5-4T17:0:3Z</time></trkpt>
<trkpt lat="46.19424" lon="7.43924"><ele>1389.4</ele><time>2026-5-4T17:0:6Z</time></trkpt>
<trkpt lat="46.19425" lon="7.43931"><ele>1389.8</ele><time>2026-5-4T17:0:9Z</time></trkpt>
<trkpt lat="46.19426" lon="7.43944"><ele>1391</ele><time>2026-5-4T17:0:12Z</time></trkpt>
<trkpt lat="46.19428" lon="7.43957"><ele>1392</ele><time>2026-5-4T17:0:15Z</time></trkpt>
<trkpt lat="46.19429" lon="7.43963"><ele>1392.6</ele><time>2026-5-4T17:0:18Z</time></trkpt>
<trkpt lat="46.19429" lon="7.43969"><ele>1393.2</ele><time>2026-5-4T17:0:21Z</time></trkpt>
<trkpt lat="46.19431" lon="7.43979"><ele>1394</ele><time>2026-5-4T17:0:24Z</time></trkpt>
<trkpt lat="46.19432" lon="7.43983"><ele>1394.2</ele><time>2026-5-4T17:0:27Z</time></trkpt>
<trkpt lat="46.19432" lon="7.43995"><ele>1395</ele><time>2026-5-4T17:0:30Z</time></trkpt>
<trkpt lat="46.19432" lon="7.43997"><ele>1395.2</ele><time>2026-5-4T17:0:33Z</time></trkpt>
<trkpt lat="46.19433" lon="7.44008"><ele>1396.4</ele><time>2026-5-4T17:0:36Z</time></trkpt>
<trkpt lat="46.19433" lon="7.44014"><ele>1396.8</ele><time>2026-5-4T17:0:39Z</time></trkpt>
<trkpt lat="46.19433" lon="7.4402"><ele>1397.4</ele><time>2026-5-4T17:0:42Z</time></trkpt>
<trkpt lat="46.19433" lon="7.44033"><ele>1398</ele><time>2026-5-4T17:0:45Z</time></trkpt>
<trkpt lat="46.19433" lon="7.44037"><ele>1398.4</ele><time>2026-5-4T17:0:48Z</time></trkpt>
<trkpt lat="46.19433" lon="7.44051"><ele>1399.2</ele><time>2026-5-4T17:0:51Z</time></trkpt>
<trkpt lat="46.19433" lon="7.44056"><ele>1399.6</ele><time>2026-5-4T17:0:54Z</time></trkpt>
<trkpt lat="46.19435" lon="7.44066"><ele>1400.6</ele><time>2026-5-4T17:0:57Z</time></trkpt>
<trkpt lat="46.19439" lon="7.44069"><ele>1401</ele><time>2026-5-4T17:1:0Z</time></trkpt>
<trkpt lat="46.19441" lon="7.44067"><ele>1401</ele><time>2026-5-4T17:1:3Z</time></trkpt>
<trkpt lat="46.19443" lon="7.44056"><ele>1401.8</ele><time>2026-5-4T17:1:6Z</time></trkpt>
<trkpt lat="46.19443" lon="7.44054"><ele>1402</ele><time>2026-5-4T17:1:9Z</time></trkpt>
<trkpt lat="46.19446" lon="7.44038"><ele>1402.8</ele><time>2026-5-4T17:1:12Z</time></trkpt>
<trkpt lat="46.19449" lon="7.44021"><ele>1404</ele><time>2026-5-4T17:1:15Z</time></trkpt>
<trkpt lat="46.1945" lon="7.44017"><ele>1404.2</ele><time>2026-5-4T17:1:18Z</time></trkpt>
<trkpt lat="46.19453" lon="7.44006"><ele>1405</ele><time>2026-5-4T17:1:21Z</time></trkpt>
<trkpt lat="46.19453" lon="7.44005"><ele>1405</ele><time>2026-5-4T17:1:24Z</time></trkpt>
<trkpt lat="46.19455" lon="7.43998"><ele>1404.8</ele><time>2026-5-4T17:1:27Z</time></trkpt>
<trkpt lat="46.19458" lon="7.43991"><ele>1405.4</ele><time>2026-5-4T17:1:30Z</time></trkpt>
<trkpt lat="46.1946" lon="7.43981"><ele>1405.8</ele><time>2026-5-4T17:1:33Z</time></trkpt>
<trkpt lat="46.19461" lon="7.4398"><ele>1406</ele><time>2026-5-4T17:1:36Z</time></trkpt>
<trkpt lat="46.19464" lon="7.43973"><ele>1406.8</ele><time>2026-5-4T17:1:39Z</time></trkpt>
<trkpt lat="46.19468" lon="7.43966"><ele>1407</ele><time>2026-5-4T17:1:42Z</time></trkpt>
<trkpt lat="46.19469" lon="7.43964"><ele>1407.2</ele><time>2026-5-4T17:1:45Z</time></trkpt>
<trkpt lat="46.19472" lon="7.43959"><ele>1407.8</ele><time>2026-5-4T17:1:48Z</time></trkpt>
<trkpt lat="46.19475" lon="7.43955"><ele>1408.2</ele><time>2026-5-4T17:1:51Z</time></trkpt>
<trkpt lat="46.19478" lon="7.43951"><ele>1408.8</ele><time>2026-5-4T17:1:54Z</time></trkpt>
<trkpt lat="46.19482" lon="7.43942"><ele>1409</ele><time>2026-5-4T17:1:57Z</time></trkpt>
<trkpt lat="46.19483" lon="7.4394"><ele>1409.4</ele><time>2026-5-4T17:2:0Z</time></trkpt>
<trkpt lat="46.19486" lon="7.43936"><ele>1410</ele><time>2026-5-4T17:2:3Z</time></trkpt>
<trkpt lat="46.19487" lon="7.43934"><ele>1410.2</ele><time>2026-5-4T17:2:6Z</time></trkpt>
<trkpt lat="46.19491" lon="7.43928"><ele>1410.4</ele><time>2026-5-4T17:2:9Z</time></trkpt>
<trkpt lat="46.19491" lon="7.43927"><ele>1410.4</ele><time>2026-5-4T17:2:12Z</time></trkpt>
<trkpt lat="46.19498" lon="7.43917"><ele>1411.2</ele><time>2026-5-4T17:2:15Z</time></trkpt>
<trkpt lat="46.19499" lon="7.43916"><ele>1411.2</ele><time>2026-5-4T17:2:18Z</time></trkpt>
<trkpt lat="46.195" lon="7.43915"><ele>1411.4</ele><time>2026-5-4T17:2:21Z</time></trkpt>
<trkpt lat="46.19503" lon="7.4391"><ele>1412.2</ele><time>2026-5-4T17:2:24Z</time></trkpt>
<trkpt lat="46.19507" lon="7.43905"><ele>1412.6</ele><time>2026-5-4T17:2:27Z</time></trkpt>
<trkpt lat="46.19512" lon="7.43897"><ele>1413.2</ele><time>2026-5-4T17:2:30Z</time></trkpt>
<trkpt lat="46.19514" lon="7.43894"><ele>1413.6</ele><time>2026-5-4T17:2:33Z</time></trkpt>
<trkpt lat="46.19518" lon="7.43888"><ele>1414.2</ele><time>2026-5-4T17:2:36Z</time></trkpt>
<trkpt lat="46.19521" lon="7.43883"><ele>1414.8</ele><time>2026-5-4T17:2:39Z</time></trkpt>
<trkpt lat="46.19527" lon="7.43872"><ele>1415.8</ele><time>2026-5-4T17:2:42Z</time></trkpt>
<trkpt lat="46.19528" lon="7.4387"><ele>1415.8</ele><time>2026-5-4T17:2:45Z</time></trkpt>
<trkpt lat="46.19532" lon="7.43868"><ele>1416.2</ele><time>2026-5-4T17:2:48Z</time></trkpt>
<trkpt lat="46.19533" lon="7.43871"><ele>1416.4</ele><time>2026-5-4T17:2:51Z</time></trkpt>
<trkpt lat="46.1953" lon="7.43877"><ele>1417</ele><time>2026-5-4T17:2:54Z</time></trkpt>
<trkpt lat="46.1953" lon="7.43878"><ele>1417</ele><time>2026-5-4T17:2:57Z</time></trkpt>
<trkpt lat="46.19524" lon="7.43889"><ele>1418</ele><time>2026-5-4T17:3:0Z</time></trkpt>
<trkpt lat="46.19519" lon="7.43898"><ele>1418.8</ele><time>2026-5-4T17:3:3Z</time></trkpt>
<trkpt lat="46.19518" lon="7.43901"><ele>1419</ele><time>2026-5-4T17:3:6Z</time></trkpt>
<trkpt lat="46.19518" lon="7.43902"><ele>1419.2</ele><time>2026-5-4T17:3:9Z</time></trkpt>
<trkpt lat="46.19517" lon="7.43906"><ele>1419.4</ele><time>2026-5-4T17:3:12Z</time></trkpt>
<trkpt lat="46.19516" lon="7.43913"><ele>1420.2</ele><time>2026-5-4T17:3:15Z</time></trkpt>
<trkpt lat="46.19515" lon="7.43917"><ele>1420.4</ele><time>2026-5-4T17:3:18Z</time></trkpt>
<trkpt lat="46.19514" lon="7.43925"><ele>1421.2</ele><time>2026-5-4T17:3:21Z</time></trkpt>
<trkpt lat="46.19512" lon="7.43933"><ele>1422</ele><time>2026-5-4T17:3:24Z</time></trkpt>
<trkpt lat="46.19512" lon="7.43935"><ele>1422.2</ele><time>2026-5-4T17:3:27Z</time></trkpt>
<trkpt lat="46.19512" lon="7.43943"><ele>1423</ele><time>2026-5-4T17:3:30Z</time></trkpt>
<trkpt lat="46.19511" lon="7.43947"><ele>1423.4</ele><time>2026-5-4T17:3:33Z</time></trkpt>
<trkpt lat="46.19511" lon="7.43954"><ele>1424.2</ele><time>2026-5-4T17:3:36Z</time></trkpt>
<trkpt lat="46.19511" lon="7.43957"><ele>1424.4</ele><time>2026-5-4T17:3:39Z</time></trkpt>
<trkpt lat="46.19512" lon="7.43967"><ele>1425.4</ele><time>2026-5-4T17:3:42Z</time></trkpt>
<trkpt lat="46.19512" lon="7.4397"><ele>1425.6</ele><time>2026-5-4T17:3:45Z</time></trkpt>
<trkpt lat="46.19512" lon="7.43977"><ele>1426.4</ele><time>2026-5-4T17:3:48Z</time></trkpt>
<trkpt lat="46.19512" lon="7.4398"><ele>1426.6</ele><time>2026-5-4T17:3:51Z</time></trkpt>
<trkpt lat="46.19513" lon="7.43985"><ele>1427.4</ele><time>2026-5-4T17:3:54Z</time></trkpt>
<trkpt lat="46.19513" lon="7.43987"><ele>1427.6</ele><time>2026-5-4T17:3:57Z</time></trkpt>
<trkpt lat="46.19513" lon="7.43989"><ele>1427.8</ele><time>2026-5-4T17:4:0Z</time></trkpt>
<trkpt lat="46.19513" lon="7.43992"><ele>1428.2</ele><time>2026-5-4T17:4:3Z</time></trkpt>
<trkpt lat="46.19513" lon="7.43998"><ele>1429</ele><time>2026-5-4T17:4:6Z</time></trkpt>
<trkpt lat="46.19513" lon="7.44"><ele>1429</ele><time>2026-5-4T17:4:9Z</time></trkpt>
<trkpt lat="46.19513" lon="7.44006"><ele>1429.8</ele><time>2026-5-4T17:4:12Z</time></trkpt>
<trkpt lat="46.19513" lon="7.44008"><ele>1430</ele><time>2026-5-4T17:4:15Z</time></trkpt>
<trkpt lat="46.19515" lon="7.44013"><ele>1430.6</ele><time>2026-5-4T17:4:18Z</time></trkpt>
<trkpt lat="46.19516" lon="7.44017"><ele>1431.2</ele><time>2026-5-4T17:4:21Z</time></trkpt>
<trkpt lat="46.19517" lon="7.44021"><ele>1431.6</ele><time>2026-5-4T17:4:24Z</time></trkpt>
<trkpt lat="46.19518" lon="7.44028"><ele>1432.2</ele><time>2026-5-4T17:4:27Z</time></trkpt>
<trkpt lat="46.19519" lon="7.44031"><ele>1432.4</ele><time>2026-5-4T17:4:30Z</time></trkpt>
<trkpt lat="46.1952" lon="7.4404"><ele>1433.2</ele><time>2026-5-4T17:4:33Z</time></trkpt>
<trkpt lat="46.19521" lon="7.44042"><ele>1433.6</ele><time>2026-5-4T17:4:36Z</time></trkpt>
<trkpt lat="46.19521" lon="7.44048"><ele>1434</ele><time>2026-5-4T17:4:39Z</time></trkpt>
<trkpt lat="46.19522" lon="7.44049"><ele>1434.2</ele><time>2026-5-4T17:4:42Z</time></trkpt>
<trkpt lat="46.19523" lon="7.44055"><ele>1434.8</ele><time>2026-5-4T17:4:45Z</time></trkpt>
<trkpt lat="46.19523" lon="7.44058"><ele>1435</ele><time>2026-5-4T17:4:48Z</time></trkpt>
<trkpt lat="46.19524" lon="7.44059"><ele>1435.2</ele><time>2026-5-4T17:4:51Z</time></trkpt>
<trkpt lat="46.19526" lon="7.44063"><ele>1435.6</ele><time>2026-5-4T17:4:54Z</time></trkpt>
<trkpt lat="46.19527" lon="7.44069"><ele>1436.4</ele><time>2026-5-4T17:4:57Z</time></trkpt>
<trkpt lat="46.19528" lon="7.44076"><ele>1437</ele><time>2026-5-4T17:5:0Z</time></trkpt>
<trkpt lat="46.19528" lon="7.44079"><ele>1437.4</ele><time>2026-5-4T17:5:3Z</time></trkpt>
<trkpt lat="46.19529" lon="7.44084"><ele>1438</ele><time>2026-5-4T17:5:6Z</time></trkpt>
<trkpt lat="46.1953" lon="7.44088"><ele>1438.4</ele><time>2026-5-4T17:5:9Z</time></trkpt>
<trkpt lat="46.19532" lon="7.44098"><ele>1439.6</ele><time>2026-5-4T17:5:12Z</time></trkpt>
<trkpt lat="46.19532" lon="7.441"><ele>1439.8</ele><time>2026-5-4T17:5:15Z</time></trkpt>
<trkpt lat="46.19533" lon="7.44109"><ele>1440.6</ele><time>2026-5-4T17:5:18Z</time></trkpt>
<trkpt lat="46.19534" lon="7.44117"><ele>1441.4</ele><time>2026-5-4T17:5:21Z</time></trkpt>
<trkpt lat="46.19534" lon="7.44119"><ele>1441.6</ele><time>2026-5-4T17:5:24Z</time></trkpt>
<trkpt lat="46.19535" lon="7.44128"><ele>1442.6</ele><time>2026-5-4T17:5:27Z</time></trkpt>
<trkpt lat="46.19536" lon="7.44135"><ele>1443.4</ele><time>2026-5-4T17:5:30Z</time></trkpt>
<trkpt lat="46.19536" lon="7.44137"><ele>1443.6</ele><time>2026-5-4T17:5:33Z</time></trkpt>
<trkpt lat="46.19537" lon="7.44144"><ele>1444.6</ele><time>2026-5-4T17:5:36Z</time></trkpt>
<trkpt lat="46.19538" lon="7.44147"><ele>1444.8</ele><time>2026-5-4T17:5:39Z</time></trkpt>
<trkpt lat="46.19538" lon="7.44152"><ele>1445.6</ele><time>2026-5-4T17:5:42Z</time></trkpt>
<trkpt lat="46.19539" lon="7.44156"><ele>1446</ele><time>2026-5-4T17:5:45Z</time></trkpt>
<trkpt lat="46.1954" lon="7.4416"><ele>1446.2</ele><time>2026-5-4T17:5:48Z</time></trkpt>
<trkpt lat="46.19541" lon="7.44167"><ele>1447</ele><time>2026-5-4T17:5:51Z</time></trkpt>
<trkpt lat="46.19541" lon="7.44168"><ele>1447.2</ele><time>2026-5-4T17:5:54Z</time></trkpt>
<trkpt lat="46.19543" lon="7.44176"><ele>1448</ele><time>2026-5-4T17:5:57Z</time></trkpt>
<trkpt lat="46.19544" lon="7.44179"><ele>1448.2</ele><time>2026-5-4T17:6:0Z</time></trkpt>
<trkpt lat="46.19545" lon="7.44185"><ele>1449.2</ele><time>2026-5-4T17:6:3Z</time></trkpt>
<trkpt lat="46.19546" lon="7.44187"><ele>1449.4</ele><time>2026-5-4T17:6:6Z</time></trkpt>
<trkpt lat="46.19547" lon="7.44194"><ele>1450.2</ele><time>2026-5-4T17:6:9Z</time></trkpt>
<trkpt lat="46.19547" lon="7.44196"><ele>1450.6</ele><time>2026-5-4T17:6:12Z</time></trkpt>
<trkpt lat="46.19548" lon="7.44203"><ele>1451.2</ele><time>2026-5-4T17:6:15Z</time></trkpt>
<trkpt lat="46.19548" lon="7.44204"><ele>1451.4</ele><time>2026-5-4T17:6:18Z</time></trkpt>
<trkpt lat="46.19549" lon="7.44207"><ele>1451.6</ele><time>2026-5-4T17:6:21Z</time></trkpt>
<trkpt lat="46.19552" lon="7.44209"><ele>1452.2</ele><time>2026-5-4T17:6:24Z</time></trkpt>
<trkpt lat="46.19552" lon="7.44211"><ele>1452.4</ele><time>2026-5-4T17:6:27Z</time></trkpt>
<trkpt lat="46.19553" lon="7.44216"><ele>1452.8</ele><time>2026-5-4T17:6:30Z</time></trkpt>
<trkpt lat="46.19554" lon="7.44221"><ele>1453.4</ele><time>2026-5-4T17:6:33Z</time></trkpt>
<trkpt lat="46.19555" lon="7.44224"><ele>1453.8</ele><time>2026-5-4T17:6:36Z</time></trkpt>
<trkpt lat="46.19557" lon="7.44233"><ele>1454.6</ele><time>2026-5-4T17:6:39Z</time></trkpt>
<trkpt lat="46.19557" lon="7.44235"><ele>1454.8</ele><time>2026-5-4T17:6:42Z</time></trkpt>
<trkpt lat="46.19559" lon="7.44241"><ele>1455.2</ele><time>2026-5-4T17:6:45Z</time></trkpt>
<trkpt lat="46.19561" lon="7.44244"><ele>1455.8</ele><time>2026-5-4T17:6:48Z</time></trkpt>
<trkpt lat="46.19563" lon="7.44249"><ele>1456.4</ele><time>2026-5-4T17:6:51Z</time></trkpt>
<trkpt lat="46.19563" lon="7.44251"><ele>1456.4</ele><time>2026-5-4T17:6:54Z</time></trkpt>
<trkpt lat="46.19564" lon="7.44255"><ele>1456.8</ele><time>2026-5-4T17:6:57Z</time></trkpt>
<trkpt lat="46.19565" lon="7.44256"><ele>1457</ele><time>2026-5-4T17:7:0Z</time></trkpt>
<trkpt lat="46.19566" lon="7.44262"><ele>1458</ele><time>2026-5-4T17:7:3Z</time></trkpt>
<trkpt lat="46.19567" lon="7.44264"><ele>1458</ele><time>2026-5-4T17:7:6Z</time></trkpt>
<trkpt lat="46.19569" lon="7.44272"><ele>1458.6</ele><time>2026-5-4T17:7:9Z</time></trkpt>
<trkpt lat="46.1957" lon="7.44274"><ele>1459</ele><time>2026-5-4T17:7:12Z</time></trkpt>
<trkpt lat="46.19572" lon="7.44282"><ele>1459.4</ele><time>2026-5-4T17:7:15Z</time></trkpt>
<trkpt lat="46.19574" lon="7.44288"><ele>1460</ele><time>2026-5-4T17:7:18Z</time></trkpt>
<trkpt lat="46.19575" lon="7.44289"><ele>1460.4</ele><time>2026-5-4T17:7:21Z</time></trkpt>
<trkpt lat="46.19576" lon="7.44297"><ele>1461</ele><time>2026-5-4T17:7:24Z</time></trkpt>
<trkpt lat="46.19576" lon="7.44298"><ele>1461.2</ele><time>2026-5-4T17:7:27Z</time></trkpt>
<trkpt lat="46.19578" lon="7.44304"><ele>1461.6</ele><time>2026-5-4T17:7:30Z</time></trkpt>
<trkpt lat="46.19579" lon="7.44311"><ele>1462.2</ele><time>2026-5-4T17:7:33Z</time></trkpt>
<trkpt lat="46.1958" lon="7.44312"><ele>1462.4</ele><time>2026-5-4T17:7:36Z</time></trkpt>
<trkpt lat="46.19581" lon="7.44318"><ele>1463.2</ele><time>2026-5-4T17:7:39Z</time></trkpt>
<trkpt lat="46.19581" lon="7.44321"><ele>1463.4</ele><time>2026-5-4T17:7:42Z</time></trkpt>
<trkpt lat="46.19582" lon="7.44324"><ele>1463.8</ele><time>2026-5-4T17:7:45Z</time></trkpt>
<trkpt lat="46.19583" lon="7.44331"><ele>1464.6</ele><time>2026-5-4T17:7:48Z</time></trkpt>
<trkpt lat="46.19583" lon="7.44334"><ele>1464.8</ele><time>2026-5-4T17:7:51Z</time></trkpt>
<trkpt lat="46.19584" lon="7.44338"><ele>1465.6</ele><time>2026-5-4T17:7:54Z</time></trkpt>
<trkpt lat="46.19584" lon="7.44341"><ele>1465.8</ele><time>2026-5-4T17:7:57Z</time></trkpt>
<trkpt lat="46.19585" lon="7.44348"><ele>1466.6</ele><time>2026-5-4T17:8:0Z</time></trkpt>
<trkpt lat="46.19586" lon="7.44355"><ele>1467.6</ele><time>2026-5-4T17:8:3Z</time></trkpt>
<trkpt lat="46.19586" lon="7.44356"><ele>1467.6</ele><time>2026-5-4T17:8:6Z</time></trkpt>
<trkpt lat="46.19587" lon="7.44361"><ele>1468.2</ele><time>2026-5-4T17:8:9Z</time></trkpt>
<trkpt lat="46.19588" lon="7.44364"><ele>1468.6</ele><time>2026-5-4T17:8:12Z</time></trkpt>
<trkpt lat="46.19588" lon="7.44367"><ele>1468.8</ele><time>2026-5-4T17:8:15Z</time></trkpt>
<trkpt lat="46.19588" lon="7.44367"><ele>1469</ele><time>2026-5-4T17:8:18Z</time></trkpt>
<trkpt lat="46.19591" lon="7.44375"><ele>1469.8</ele><time>2026-5-4T17:8:21Z</time></trkpt>
<trkpt lat="46.19591" lon="7.44376"><ele>1469.8</ele><time>2026-5-4T17:8:24Z</time></trkpt>
<trkpt lat="46.19592" lon="7.44384"><ele>1470.6</ele><time>2026-5-4T17:8:27Z</time></trkpt>
<trkpt lat="46.19593" lon="7.44386"><ele>1471</ele><time>2026-5-4T17:8:30Z</time></trkpt>
<trkpt lat="46.19595" lon="7.44391"><ele>1471.6</ele><time>2026-5-4T17:8:33Z</time></trkpt>
<trkpt lat="46.19596" lon="7.44395"><ele>1472</ele><time>2026-5-4T17:8:36Z</time></trkpt>
<trkpt lat="46.19597" lon="7.44398"><ele>1472.4</ele><time>2026-5-4T17:8:39Z</time></trkpt>
<trkpt lat="46.19599" lon="7.44404"><ele>1473</ele><time>2026-5-4T17:8:42Z</time></trkpt>
<trkpt lat="46.19599" lon="7.44406"><ele>1473.4</ele><time>2026-5-4T17:8:45Z</time></trkpt>
<trkpt lat="46.19603" lon="7.44412"><ele>1474.2</ele><time>2026-5-4T17:8:48Z</time></trkpt>
<trkpt lat="46.19604" lon="7.44413"><ele>1474.4</ele><time>2026-5-4T17:8:51Z</time></trkpt>
<trkpt lat="46.19607" lon="7.44419"><ele>1475.2</ele><time>2026-5-4T17:8:54Z</time></trkpt>
<trkpt lat="46.19608" lon="7.4442"><ele>1475.4</ele><time>2026-5-4T17:8:57Z</time></trkpt>
<trkpt lat="46.19611" lon="7.44426"><ele>1476.2</ele><time>2026-5-4T17:9:0Z</time></trkpt>
<trkpt lat="46.19611" lon="7.44427"><ele>1476.4</ele><time>2026-5-4T17:9:3Z</time></trkpt>
<trkpt lat="46.19613" lon="7.44433"><ele>1477</ele><time>2026-5-4T17:9:6Z</time></trkpt>
<trkpt lat="46.19614" lon="7.44436"><ele>1477.4</ele><time>2026-5-4T17:9:9Z</time></trkpt>
<trkpt lat="46.19615" lon="7.4444"><ele>1477.8</ele><time>2026-5-4T17:9:12Z</time></trkpt>
<trkpt lat="46.19617" lon="7.44445"><ele>1478.4</ele><time>2026-5-4T17:9:15Z</time></trkpt>
<trkpt lat="46.19617" lon="7.44446"><ele>1478.4</ele><time>2026-5-4T17:9:18Z</time></trkpt>
<trkpt lat="46.19619" lon="7.44453"><ele>1479.2</ele><time>2026-5-4T17:9:21Z</time></trkpt>
<trkpt lat="46.1962" lon="7.44455"><ele>1479.6</ele><time>2026-5-4T17:9:24Z</time></trkpt>
<trkpt lat="46.19622" lon="7.44459"><ele>1480</ele><time>2026-5-4T17:9:27Z</time></trkpt>
<trkpt lat="46.19624" lon="7.44465"><ele>1480.6</ele><time>2026-5-4T17:9:30Z</time></trkpt>
<trkpt lat="46.19625" lon="7.44467"><ele>1480.8</ele><time>2026-5-4T17:9:33Z</time></trkpt>
<trkpt lat="46.19628" lon="7.44473"><ele>1481.6</ele><time>2026-5-4T17:9:36Z</time></trkpt>
<trkpt lat="46.19628" lon="7.44474"><ele>1481.6</ele><time>2026-5-4T17:9:39Z</time></trkpt>
<trkpt lat="46.1963" lon="7.44477"><ele>1482</ele><time>2026-5-4T17:9:42Z</time></trkpt>
<trkpt lat="46.19632" lon="7.44482"><ele>1482.8</ele><time>2026-5-4T17:9:45Z</time></trkpt>
<trkpt lat="46.19635" lon="7.44487"><ele>1483.4</ele><time>2026-5-4T17:9:48Z</time></trkpt>
<trkpt lat="46.19637" lon="7.4449"><ele>1483.8</ele><time>2026-5-4T17:9:51Z</time></trkpt>
<trkpt lat="46.19638" lon="7.44491"><ele>1484.2</ele><time>2026-5-4T17:9:54Z</time></trkpt>
<trkpt lat="46.19641" lon="7.44498"><ele>1485</ele><time>2026-5-4T17:9:57Z</time></trkpt>
<trkpt lat="46.19643" lon="7.44504"><ele>1485.6</ele><time>2026-5-4T17:10:0Z</time></trkpt>
<trkpt lat="46.19646" lon="7.44507"><ele>1486</ele><time>2026-5-4T17:10:3Z</time></trkpt>
<trkpt lat="46.19646" lon="7.44509"><ele>1486.2</ele><time>2026-5-4T17:10:6Z</time></trkpt>
<trkpt lat="46.19649" lon="7.44515"><ele>1487.2</ele><time>2026-5-4T17:10:9Z</time></trkpt>
<trkpt lat="46.19651" lon="7.4452"><ele>1487.6</ele><time>2026-5-4T17:10:12Z</time></trkpt>
<trkpt lat="46.19652" lon="7.44522"><ele>1487.8</ele><time>2026-5-4T17:10:15Z</time></trkpt>
<trkpt lat="46.19654" lon="7.44525"><ele>1488.2</ele><time>2026-5-4T17:10:18Z</time></trkpt>
<trkpt lat="46.19655" lon="7.44528"><ele>1488.6</ele><time>2026-5-4T17:10:21Z</time></trkpt>
<trkpt lat="46.19656" lon="7.44532"><ele>1489.2</ele><time>2026-5-4T17:10:24Z</time></trkpt>
<trkpt lat="46.19657" lon="7.44532"><ele>1489.4</ele><time>2026-5-4T17:10:27Z</time></trkpt>
<trkpt lat="46.19658" lon="7.44537"><ele>1489.8</ele><time>2026-5-4T17:10:30Z</time></trkpt>
<trkpt lat="46.1966" lon="7.44541"><ele>1490.4</ele><time>2026-5-4T17:10:33Z</time></trkpt>
<trkpt lat="46.1966" lon="7.44542"><ele>1490.6</ele><time>2026-5-4T17:10:36Z</time></trkpt>
<trkpt lat="46.19661" lon="7.44545"><ele>1491</ele><time>2026-5-4T17:10:39Z</time></trkpt>
<trkpt lat="46.19661" lon="7.44548"><ele>1491.4</ele><time>2026-5-4T17:10:42Z</time></trkpt>
<trkpt lat="46.19661" lon="7.44549"><ele>1491.6</ele><time>2026-5-4T17:10:45Z</time></trkpt>
<trkpt lat="46.19663" lon="7.44555"><ele>1492</ele><time>2026-5-4T17:10:48Z</time></trkpt>
<trkpt lat="46.19663" lon="7.44558"><ele>1492.6</ele><time>2026-5-4T17:10:51Z</time></trkpt>
<trkpt lat="46.19664" lon="7.44561"><ele>1492.8</ele><time>2026-5-4T17:10:54Z</time></trkpt>
<trkpt lat="46.19665" lon="7.44567"><ele>1493.6</ele><time>2026-5-4T17:10:57Z</time></trkpt>
<trkpt lat="46.19666" lon="7.4457"><ele>1494</ele><time>2026-5-4T17:11:0Z</time></trkpt>
<trkpt lat="46.19668" lon="7.44577"><ele>1494.6</ele><time>2026-5-4T17:11:3Z</time></trkpt>
<trkpt lat="46.19669" lon="7.44584"><ele>1495.6</ele><time>2026-5-4T17:11:6Z</time></trkpt>
<trkpt lat="46.19669" lon="7.44585"><ele>1495.8</ele><time>2026-5-4T17:11:9Z</time></trkpt>
<trkpt lat="46.19672" lon="7.44592"><ele>1496.2</ele><time>2026-5-4T17:11:12Z</time></trkpt>
<trkpt lat="46.19673" lon="7.44595"><ele>1496.6</ele><time>2026-5-4T17:11:15Z</time></trkpt>
<trkpt lat="46.19673" lon="7.44597"><ele>1496.8</ele><time>2026-5-4T17:11:18Z</time></trkpt>
<trkpt lat="46.19673" lon="7.44599"><ele>1497</ele><time>2026-5-4T17:11:21Z</time></trkpt>
<trkpt lat="46.19674" lon="7.44604"><ele>1497.6</ele><time>2026-5-4T17:11:24Z</time></trkpt>
<trkpt lat="46.19674" lon="7.44605"><ele>1497.6</ele><time>2026-5-4T17:11:27Z</time></trkpt>
<trkpt lat="46.19675" lon="7.44609"><ele>1498</ele><time>2026-5-4T17:11:30Z</time></trkpt>
<trkpt lat="46.19675" lon="7.44613"><ele>1498.4</ele><time>2026-5-4T17:11:33Z</time></trkpt>
<trkpt lat="46.19676" lon="7.44617"><ele>1499</ele><time>2026-5-4T17:11:36Z</time></trkpt>
<trkpt lat="46.19676" lon="7.4462"><ele>1499.2</ele><time>2026-5-4T17:11:39Z</time></trkpt>
<trkpt lat="46.19676" lon="7.44621"><ele>1499.4</ele><time>2026-5-4T17:11:42Z</time></trkpt>
<trkpt lat="46.19677" lon="7.44625"><ele>1500</ele><time>2026-5-4T17:11:45Z</time></trkpt>
<trkpt lat="46.19677" lon="7.44628"><ele>1500.6</ele><time>2026-5-4T17:11:48Z</time></trkpt>
<trkpt lat="46.19677" lon="7.44635"><ele>1501</ele><time>2026-5-4T17:11:51Z</time></trkpt>
<trkpt lat="46.19677" lon="7.44636"><ele>1501.2</ele><time>2026-5-4T17:11:54Z</time></trkpt>
<trkpt lat="46.19678" lon="7.4464"><ele>1501.8</ele><time>2026-5-4T17:11:57Z</time></trkpt>
<trkpt lat="46.19677" lon="7.44644"><ele>1502</ele><time>2026-5-4T17:12:0Z</time></trkpt>
<trkpt lat="46.19677" lon="7.44647"><ele>1502.2</ele><time>2026-5-4T17:12:3Z</time></trkpt>
<trkpt lat="46.19676" lon="7.44657"><ele>1503</ele><time>2026-5-4T17:12:6Z</time></trkpt>
<trkpt lat="46.19676" lon="7.44659"><ele>1503.2</ele><time>2026-5-4T17:12:9Z</time></trkpt>
<trkpt lat="46.19676" lon="7.44667"><ele>1504</ele><time>2026-5-4T17:12:12Z</time></trkpt>
<trkpt lat="46.19676" lon="7.44671"><ele>1504.2</ele><time>2026-5-4T17:12:15Z</time></trkpt>
<trkpt lat="46.19676" lon="7.44675"><ele>1504.6</ele><time>2026-5-4T17:12:18Z</time></trkpt>
<trkpt lat="46.19675" lon="7.44679"><ele>1505.2</ele><time>2026-5-4T17:12:21Z</time></trkpt>
<trkpt lat="46.19675" lon="7.44687"><ele>1505.6</ele><time>2026-5-4T17:12:24Z</time></trkpt>
<trkpt lat="46.19673" lon="7.44693"><ele>1506.4</ele><time>2026-5-4T17:12:27Z</time></trkpt>
<trkpt lat="46.19673" lon="7.44695"><ele>1506.8</ele><time>2026-5-4T17:12:30Z</time></trkpt>
<trkpt lat="46.19672" lon="7.44699"><ele>1507</ele><time>2026-5-4T17:12:33Z</time></trkpt>
<trkpt lat="46.19671" lon="7.44702"><ele>1507.2</ele><time>2026-5-4T17:12:36Z</time></trkpt>
<trkpt lat="46.19671" lon="7.44703"><ele>1507.4</ele><time>2026-5-4T17:12:39Z</time></trkpt>
<trkpt lat="46.1967" lon="7.44707"><ele>1508.2</ele><time>2026-5-4T17:12:42Z</time></trkpt>
<trkpt lat="46.19669" lon="7.44711"><ele>1508.4</ele><time>2026-5-4T17:12:45Z</time></trkpt>
<trkpt lat="46.19669" lon="7.44714"><ele>1508.8</ele><time>2026-5-4T17:12:48Z</time></trkpt>
<trkpt lat="46.19668" lon="7.44722"><ele>1509.4</ele><time>2026-5-4T17:12:51Z</time></trkpt>
<trkpt lat="46.19667" lon="7.44722"><ele>1509.4</ele><time>2026-5-4T17:12:54Z</time></trkpt>
<trkpt lat="46.19668" lon="7.44729"><ele>1510</ele><time>2026-5-4T17:12:57Z</time></trkpt>
<trkpt lat="46.19668" lon="7.44733"><ele>1510.4</ele><time>2026-5-4T17:13:0Z</time></trkpt>
<trkpt lat="46.19668" lon="7.44734"><ele>1510.6</ele><time>2026-5-4T17:13:3Z</time></trkpt>
<trkpt lat="46.19668" lon="7.44736"><ele>1510.8</ele><time>2026-5-4T17:13:6Z</time></trkpt>
<trkpt lat="46.19668" lon="7.44743"><ele>1511.6</ele><time>2026-5-4T17:13:9Z</time></trkpt>
<trkpt lat="46.19668" lon="7.44744"><ele>1511.6</ele><time>2026-5-4T17:13:12Z</time></trkpt>
<trkpt lat="46.19667" lon="7.44748"><ele>1512</ele><time>2026-5-4T17:13:15Z</time></trkpt>
<trkpt lat="46.19668" lon="7.44754"><ele>1512.4</ele><time>2026-5-4T17:13:18Z</time></trkpt>
<trkpt lat="46.19668" lon="7.44756"><ele>1512.4</ele><time>2026-5-4T17:13:21Z</time></trkpt>
<trkpt lat="46.19668" lon="7.44759"><ele>1512.8</ele><time>2026-5-4T17:13:24Z</time></trkpt>
<trkpt lat="46.19666" lon="7.44763"><ele>1513.4</ele><time>2026-5-4T17:13:27Z</time></trkpt>
<trkpt lat="46.19666" lon="7.44766"><ele>1513.8</ele><time>2026-5-4T17:13:30Z</time></trkpt>
<trkpt lat="46.19667" lon="7.4477"><ele>1514.2</ele><time>2026-5-4T17:13:33Z</time></trkpt>
<trkpt lat="46.19667" lon="7.44774"><ele>1514.8</ele><time>2026-5-4T17:13:36Z</time></trkpt>
<trkpt lat="46.19667" lon="7.44775"><ele>1515</ele><time>2026-5-4T17:13:39Z</time></trkpt>
<trkpt lat="46.19667" lon="7.44776"><ele>1515</ele><time>2026-5-4T17:13:42Z</time></trkpt>
<trkpt lat="46.19666" lon="7.44781"><ele>1515.6</ele><time>2026-5-4T17:13:45Z</time></trkpt>
<trkpt lat="46.19666" lon="7.44784"><ele>1516</ele><time>2026-5-4T17:13:48Z</time></trkpt>
<trkpt lat="46.19665" lon="7.44788"><ele>1517</ele><time>2026-5-4T17:13:51Z</time></trkpt>
<trkpt lat="46.19665" lon="7.4479"><ele>1517.2</ele><time>2026-5-4T17:13:54Z</time></trkpt>
<trkpt lat="46.19666" lon="7.44795"><ele>1517.8</ele><time>2026-5-4T17:13:57Z</time></trkpt>
<trkpt lat="46.19665" lon="7.44797"><ele>1518</ele><time>2026-5-4T17:14:0Z</time></trkpt>
<trkpt lat="46.19665" lon="7.448"><ele>1518.4</ele><time>2026-5-4T17:14:3Z</time></trkpt>
<trkpt lat="46.19663" lon="7.44808"><ele>1519</ele><time>2026-5-4T17:14:6Z</time></trkpt>
<trkpt lat="46.19661" lon="7.44812"><ele>1519.4</ele><time>2026-5-4T17:14:9Z</time></trkpt>
<trkpt lat="46.19661" lon="7.44813"><ele>1519.4</ele><time>2026-5-4T17:14:12Z</time></trkpt>
<trkpt lat="46.19658" lon="7.44816"><ele>1519.8</ele><time>2026-5-4T17:14:15Z</time></trkpt>
<trkpt lat="46.19657" lon="7.4482"><ele>1520.2</ele><time>2026-5-4T17:14:18Z</time></trkpt>
<trkpt lat="46.19656" lon="7.44821"><ele>1520.4</ele><time>2026-5-4T17:14:21Z</time></trkpt>
<trkpt lat="46.19654" lon="7.44824"><ele>1520.8</ele><time>2026-5-4T17:14:24Z</time></trkpt>
<trkpt lat="46.19652" lon="7.44827"><ele>1521.4</ele><time>2026-5-4T17:14:27Z</time></trkpt>
<trkpt lat="46.1965" lon="7.44829"><ele>1521.8</ele><time>2026-5-4T17:14:30Z</time></trkpt>
<trkpt lat="46.19647" lon="7.44834"><ele>1522.6</ele><time>2026-5-4T17:14:33Z</time></trkpt>
<trkpt lat="46.19647" lon="7.44835"><ele>1523</ele><time>2026-5-4T17:14:36Z</time></trkpt>
<trkpt lat="46.19647" lon="7.44837"><ele>1523.4</ele><time>2026-5-4T17:14:39Z</time></trkpt>
<trkpt lat="46.19646" lon="7.44838"><ele>1523.8</ele><time>2026-5-4T17:14:42Z</time></trkpt>
<trkpt lat="46.19646" lon="7.4484"><ele>1523.8</ele><time>2026-5-4T17:14:45Z</time></trkpt>
<trkpt lat="46.19644" lon="7.44843"><ele>1524.4</ele><time>2026-5-4T17:14:48Z</time></trkpt>
<trkpt lat="46.19644" lon="7.44844"><ele>1524.6</ele><time>2026-5-4T17:14:51Z</time></trkpt>
<trkpt lat="46.19643" lon="7.44845"><ele>1524.8</ele><time>2026-5-4T17:14:54Z</time></trkpt>
<trkpt lat="46.19641" lon="7.44849"><ele>1525.6</ele><time>2026-5-4T17:14:57Z</time></trkpt>
<trkpt lat="46.1964" lon="7.4485"><ele>1526</ele><time>2026-5-4T17:15:0Z</time></trkpt>
<trkpt lat="46.19638" lon="7.44852"><ele>1526.6</ele><time>2026-5-4T17:15:3Z</time></trkpt>
<trkpt lat="46.19637" lon="7.44854"><ele>1527</ele><time>2026-5-4T17:15:6Z</time></trkpt>
<trkpt lat="46.19636" lon="7.44857"><ele>1527.4</ele><time>2026-5-4T17:15:9Z</time></trkpt>
<trkpt lat="46.19635" lon="7.44858"><ele>1527.6</ele><time>2026-5-4T17:15:12Z</time></trkpt>
<trkpt lat="46.19634" lon="7.44859"><ele>1528</ele><time>2026-5-4T17:15:15Z</time></trkpt>
<trkpt lat="46.19632" lon="7.44862"><ele>1528.6</ele><time>2026-5-4T17:15:18Z</time></trkpt>
<trkpt lat="46.19632" lon="7.44864"><ele>1528.8</ele><time>2026-5-4T17:15:21Z</time></trkpt>
<trkpt lat="46.19631" lon="7.44868"><ele>1529.2</ele><time>2026-5-4T17:15:24Z</time></trkpt>
<trkpt lat="46.19629" lon="7.44871"><ele>1530</ele><time>2026-5-4T17:15:27Z</time></trkpt>
<trkpt lat="46.19627" lon="7.44873"><ele>1530.2</ele><time>2026-5-4T17:15:30Z</time></trkpt>
<trkpt lat="46.19625" lon="7.44874"><ele>1530.6</ele><time>2026-5-4T17:15:33Z</time></trkpt>
<trkpt lat="46.19621" lon="7.44876"><ele>1531.4</ele><time>2026-5-4T17:15:36Z</time></trkpt>
<trkpt lat="46.19618" lon="7.4488"><ele>1532</ele><time>2026-5-4T17:15:39Z</time></trkpt>
<trkpt lat="46.19617" lon="7.44881"><ele>1532.4</ele><time>2026-5-4T17:15:42Z</time></trkpt>
<trkpt lat="46.19616" lon="7.44882"><ele>1532.6</ele><time>2026-5-4T17:15:45Z</time></trkpt>
<trkpt lat="46.19613" lon="7.44883"><ele>1533.4</ele><time>2026-5-4T17:15:48Z</time></trkpt>
<trkpt lat="46.19611" lon="7.44884"><ele>1533.4</ele><time>2026-5-4T17:15:51Z</time></trkpt>
<trkpt lat="46.19608" lon="7.44886"><ele>1533.8</ele><time>2026-5-4T17:15:54Z</time></trkpt>
<trkpt lat="46.19604" lon="7.44886"><ele>1534.2</ele><time>2026-5-4T17:15:57Z</time></trkpt>
<trkpt lat="46.19603" lon="7.44886"><ele>1534.6</ele><time>2026-5-4T17:16:0Z</time></trkpt>
<trkpt lat="46.19598" lon="7.44884"><ele>1535.2</ele><time>2026-5-4T17:16:3Z</time></trkpt>
<trkpt lat="46.19596" lon="7.44884"><ele>1535.6</ele><time>2026-5-4T17:16:6Z</time></trkpt>
<trkpt lat="46.19595" lon="7.44885"><ele>1535.6</ele><time>2026-5-4T17:16:9Z</time></trkpt>
<trkpt lat="46.19595" lon="7.44886"><ele>1535.8</ele><time>2026-5-4T17:16:12Z</time></trkpt>
<trkpt lat="46.19593" lon="7.44886"><ele>1536.2</ele><time>2026-5-4T17:16:15Z</time></trkpt>
<trkpt lat="46.19591" lon="7.44886"><ele>1536.8</ele><time>2026-5-4T17:16:18Z</time></trkpt>
<trkpt lat="46.19586" lon="7.44887"><ele>1537.6</ele><time>2026-5-4T17:16:21Z</time></trkpt>
<trkpt lat="46.19585" lon="7.44888"><ele>1538</ele><time>2026-5-4T17:16:24Z</time></trkpt>
<trkpt lat="46.19583" lon="7.44889"><ele>1538.6</ele><time>2026-5-4T17:16:27Z</time></trkpt>
<trkpt lat="46.19581" lon="7.4489"><ele>1539</ele><time>2026-5-4T17:16:30Z</time></trkpt>
<trkpt lat="46.1958" lon="7.4489"><ele>1539.2</ele><time>2026-5-4T17:16:33Z</time></trkpt>
<trkpt lat="46.19579" lon="7.44891"><ele>1539.6</ele><time>2026-5-4T17:16:36Z</time></trkpt>
<trkpt lat="46.19577" lon="7.44894"><ele>1540</ele><time>2026-5-4T17:16:39Z</time></trkpt>
<trkpt lat="46.19575" lon="7.44896"><ele>1540.4</ele><time>2026-5-4T17:16:42Z</time></trkpt>
<trkpt lat="46.19573" lon="7.44899"><ele>1541</ele><time>2026-5-4T17:16:45Z</time></trkpt>
<trkpt lat="46.19572" lon="7.449"><ele>1541.4</ele><time>2026-5-4T17:16:48Z</time></trkpt>
<trkpt lat="46.19569" lon="7.44904"><ele>1542</ele><time>2026-5-4T17:16:51Z</time></trkpt>
<trkpt lat="46.19569" lon="7.44905"><ele>1542.2</ele><time>2026-5-4T17:16:54Z</time></trkpt>
<trkpt lat="46.19568" lon="7.44908"><ele>1542.8</ele><time>2026-5-4T17:16:57Z</time></trkpt>
<trkpt lat="46.19566" lon="7.44909"><ele>1543.2</ele><time>2026-5-4T17:17:0Z</time></trkpt>
<trkpt lat="46.19562" lon="7.44916"><ele>1544.2</ele><time>2026-5-4T17:17:3Z</time></trkpt>
<trkpt lat="46.1956" lon="7.44921"><ele>1545.4</ele><time>2026-5-4T17:17:6Z</time></trkpt>
<trkpt lat="46.19559" lon="7.44926"><ele>1546</ele><time>2026-5-4T17:17:9Z</time></trkpt>
<trkpt lat="46.19557" lon="7.4493"><ele>1546.4</ele><time>2026-5-4T17:17:12Z</time></trkpt>
<trkpt lat="46.19557" lon="7.44932"><ele>1546.6</ele><time>2026-5-4T17:17:15Z</time></trkpt>
<trkpt lat="46.19557" lon="7.44935"><ele>1547</ele><time>2026-5-4T17:17:18Z</time></trkpt>
<trkpt lat="46.19557" lon="7.44938"><ele>1547.4</ele><time>2026-5-4T17:17:21Z</time></trkpt>
<trkpt lat="46.19557" lon="7.44939"><ele>1547.6</ele><time>2026-5-4T17:17:24Z</time></trkpt>
<trkpt lat="46.19556" lon="7.44942"><ele>1548</ele><time>2026-5-4T17:17:27Z</time></trkpt>
<trkpt lat="46.19555" lon="7.44947"><ele>1548.6</ele><time>2026-5-4T17:17:30Z</time></trkpt>
<trkpt lat="46.19554" lon="7.44949"><ele>1548.6</ele><time>2026-5-4T17:17:33Z</time></trkpt>
<trkpt lat="46.19553" lon="7.44954"><ele>1549.4</ele><time>2026-5-4T17:17:36Z</time></trkpt>
<trkpt lat="46.19552" lon="7.44956"><ele>1549.6</ele><time>2026-5-4T17:17:39Z</time></trkpt>
<trkpt lat="46.19551" lon="7.4496"><ele>1550</ele><time>2026-5-4T17:17:42Z</time></trkpt>
<trkpt lat="46.1955" lon="7.44965"><ele>1550.6</ele><time>2026-5-4T17:17:45Z</time></trkpt>
<trkpt lat="46.1955" lon="7.44966"><ele>1550.8</ele><time>2026-5-4T17:17:48Z</time></trkpt>
<trkpt lat="46.19548" lon="7.44973"><ele>1551.6</ele><time>2026-5-4T17:17:51Z</time></trkpt>
<trkpt lat="46.19548" lon="7.44974"><ele>1551.8</ele><time>2026-5-4T17:17:54Z</time></trkpt>
<trkpt lat="46.19545" lon="7.4498"><ele>1552.4</ele><time>2026-5-4T17:17:57Z</time></trkpt>
<trkpt lat="46.19545" lon="7.44983"><ele>1552.8</ele><time>2026-5-4T17:18:0Z</time></trkpt>
<trkpt lat="46.19544" lon="7.44985"><ele>1553.2</ele><time>2026-5-4T17:18:3Z</time></trkpt>
<trkpt lat="46.19544" lon="7.44987"><ele>1553.2</ele><time>2026-5-4T17:18:6Z</time></trkpt>
<trkpt lat="46.19543" lon="7.44991"><ele>1553.8</ele><time>2026-5-4T17:18:9Z</time></trkpt>
<trkpt lat="46.19542" lon="7.44992"><ele>1553.8</ele><time>2026-5-4T17:18:12Z</time></trkpt>
<trkpt lat="46.19541" lon="7.44994"><ele>1554.2</ele><time>2026-5-4T17:18:15Z</time></trkpt>
<trkpt lat="46.1954" lon="7.44994"><ele>1554.4</ele><time>2026-5-4T17:18:18Z</time></trkpt>
<trkpt lat="46.19538" lon="7.44998"><ele>1555</ele><time>2026-5-4T17:18:21Z</time></trkpt>
<trkpt lat="46.19538" lon="7.44999"><ele>1555</ele><time>2026-5-4T17:18:24Z</time></trkpt>
<trkpt lat="46.19537" lon="7.45003"><ele>1555.6</ele><time>2026-5-4T17:18:27Z</time></trkpt>
<trkpt lat="46.19537" lon="7.45005"><ele>1555.6</ele><time>2026-5-4T17:18:30Z</time></trkpt>
<trkpt lat="46.19536" lon="7.45008"><ele>1556</ele><time>2026-5-4T17:18:33Z</time></trkpt>
<trkpt lat="46.19536" lon="7.45012"><ele>1556.6</ele><time>2026-5-4T17:18:36Z</time></trkpt>
<trkpt lat="46.19535" lon="7.45016"><ele>1557</ele><time>2026-5-4T17:18:39Z</time></trkpt>
<trkpt lat="46.19535" lon="7.4502"><ele>1557.4</ele><time>2026-5-4T17:18:42Z</time></trkpt>
<trkpt lat="46.19536" lon="7.45025"><ele>1558</ele><time>2026-5-4T17:18:45Z</time></trkpt>
<trkpt lat="46.19536" lon="7.45026"><ele>1558.2</ele><time>2026-5-4T17:18:48Z</time></trkpt>
<trkpt lat="46.19535" lon="7.45032"><ele>1558.8</ele><time>2026-5-4T17:18:51Z</time></trkpt>
<trkpt lat="46.19535" lon="7.45035"><ele>1559</ele><time>2026-5-4T17:18:54Z</time></trkpt>
<trkpt lat="46.19534" lon="7.45038"><ele>1559.4</ele><time>2026-5-4T17:18:57Z</time></trkpt>
<trkpt lat="46.19533" lon="7.45045"><ele>1560</ele><time>2026-5-4T17:19:0Z</time></trkpt>
<trkpt lat="46.19532" lon="7.45048"><ele>1560.4</ele><time>2026-5-4T17:19:3Z</time></trkpt>
<trkpt lat="46.19531" lon="7.4505"><ele>1560.8</ele><time>2026-5-4T17:19:6Z</time></trkpt>
<trkpt lat="46.19531" lon="7.45054"><ele>1561.2</ele><time>2026-5-4T17:19:9Z</time></trkpt>
<trkpt lat="46.19531" lon="7.45055"><ele>1561.4</ele><time>2026-5-4T17:19:12Z</time></trkpt>
<trkpt lat="46.1953" lon="7.45061"><ele>1562.2</ele><time>2026-5-4T17:19:15Z</time></trkpt>
<trkpt lat="46.1953" lon="7.45062"><ele>1562.4</ele><time>2026-5-4T17:19:18Z</time></trkpt>
<trkpt lat="46.19529" lon="7.45068"><ele>1563.2</ele><time>2026-5-4T17:19:21Z</time></trkpt>
<trkpt lat="46.19528" lon="7.4507"><ele>1563.2</ele><time>2026-5-4T17:19:24Z</time></trkpt>
<trkpt lat="46.19528" lon="7.45075"><ele>1563.8</ele><time>2026-5-4T17:19:27Z</time></trkpt>
<trkpt lat="46.19527" lon="7.4508"><ele>1564.4</ele><time>2026-5-4T17:19:30Z</time></trkpt>
<trkpt lat="46.19527" lon="7.45083"><ele>1564.8</ele><time>2026-5-4T17:19:33Z</time></trkpt>
<trkpt lat="46.19526" lon="7.45088"><ele>1565.4</ele><time>2026-5-4T17:19:36Z</time></trkpt>
<trkpt lat="46.19526" lon="7.4509"><ele>1565.6</ele><time>2026-5-4T17:19:39Z</time></trkpt>
<trkpt lat="46.19525" lon="7.45097"><ele>1566.2</ele><time>2026-5-4T17:19:42Z</time></trkpt>
<trkpt lat="46.19525" lon="7.45099"><ele>1566.4</ele><time>2026-5-4T17:19:45Z</time></trkpt>
<trkpt lat="46.19525" lon="7.45104"><ele>1567</ele><time>2026-5-4T17:19:48Z</time></trkpt>
<trkpt lat="46.19524" lon="7.45108"><ele>1567.6</ele><time>2026-5-4T17:19:51Z</time></trkpt>
<trkpt lat="46.19524" lon="7.45111"><ele>1568</ele><time>2026-5-4T17:19:54Z</time></trkpt>
<trkpt lat="46.19523" lon="7.45115"><ele>1568.6</ele><time>2026-5-4T17:19:57Z</time></trkpt>
<trkpt lat="46.19522" lon="7.45118"><ele>1568.8</ele><time>2026-5-4T17:20:0Z</time></trkpt>
<trkpt lat="46.19521" lon="7.45123"><ele>1569.4</ele><time>2026-5-4T17:20:3Z</time></trkpt>
<trkpt lat="46.19521" lon="7.45126"><ele>1569.8</ele><time>2026-5-4T17:20:6Z</time></trkpt>
<trkpt lat="46.19521" lon="7.45129"><ele>1570.4</ele><time>2026-5-4T17:20:9Z</time></trkpt>
<trkpt lat="46.1952" lon="7.45135"><ele>1570.8</ele><time>2026-5-4T17:20:12Z</time></trkpt>
<trkpt lat="46.19519" lon="7.45136"><ele>1571</ele><time>2026-5-4T17:20:15Z</time></trkpt>
<trkpt lat="46.19519" lon="7.45143"><ele>1571.8</ele><time>2026-5-4T17:20:18Z</time></trkpt>
<trkpt lat="46.19518" lon="7.45151"><ele>1572.8</ele><time>2026-5-4T17:20:21Z</time></trkpt>
<trkpt lat="46.19518" lon="7.45151"><ele>1573</ele><time>2026-5-4T17:20:24Z</time></trkpt>
<trkpt lat="46.19519" lon="7.45155"><ele>1573.8</ele><time>2026-5-4T17:20:27Z</time></trkpt>
<trkpt lat="46.19519" lon="7.45158"><ele>1574</ele><time>2026-5-4T17:20:30Z</time></trkpt>
<trkpt lat="46.19519" lon="7.4516"><ele>1574.4</ele><time>2026-5-4T17:20:33Z</time></trkpt>
<trkpt lat="46.1952" lon="7.45165"><ele>1574.8</ele><time>2026-5-4T17:20:36Z</time></trkpt>
<trkpt lat="46.19522" lon="7.45172"><ele>1575.2</ele><time>2026-5-4T17:20:39Z</time></trkpt>
<trkpt lat="46.19522" lon="7.45173"><ele>1575.2</ele><time>2026-5-4T17:20:42Z</time></trkpt>
<trkpt lat="46.19524" lon="7.45176"><ele>1575.6</ele><time>2026-5-4T17:20:45Z</time></trkpt>
<trkpt lat="46.19525" lon="7.45182"><ele>1576.2</ele><time>2026-5-4T17:20:48Z</time></trkpt>
<trkpt lat="46.19525" lon="7.45184"><ele>1576.4</ele><time>2026-5-4T17:20:51Z</time></trkpt>
<trkpt lat="46.19526" lon="7.45192"><ele>1577</ele><time>2026-5-4T17:20:54Z</time></trkpt>
<trkpt lat="46.19526" lon="7.45195"><ele>1577.2</ele><time>2026-5-4T17:20:57Z</time></trkpt>
<trkpt lat="46.19526" lon="7.45202"><ele>1578.4</ele><time>2026-5-4T17:21:0Z</time></trkpt>
<trkpt lat="46.19526" lon="7.45203"><ele>1578.6</ele><time>2026-5-4T17:21:3Z</time></trkpt>
<trkpt lat="46.19526" lon="7.45209"><ele>1579</ele><time>2026-5-4T17:21:6Z</time></trkpt>
<trkpt lat="46.19526" lon="7.45214"><ele>1579.4</ele><time>2026-5-4T17:21:9Z</time></trkpt>
<trkpt lat="46.19526" lon="7.45222"><ele>1580</ele><time>2026-5-4T17:21:12Z</time></trkpt>
<trkpt lat="46.19526" lon="7.45224"><ele>1580.2</ele><time>2026-5-4T17:21:15Z</time></trkpt>
<trkpt lat="46.19527" lon="7.45226"><ele>1580.4</ele><time>2026-5-4T17:21:18Z</time></trkpt>
<trkpt lat="46.19527" lon="7.45227"><ele>1580.6</ele><time>2026-5-4T17:21:21Z</time></trkpt>
<trkpt lat="46.19529" lon="7.45235"><ele>1581.2</ele><time>2026-5-4T17:21:24Z</time></trkpt>
<trkpt lat="46.19529" lon="7.45237"><ele>1581.6</ele><time>2026-5-4T17:21:27Z</time></trkpt>
<trkpt lat="46.1953" lon="7.45242"><ele>1582.4</ele><time>2026-5-4T17:21:30Z</time></trkpt>
<trkpt lat="46.19531" lon="7.45245"><ele>1582.6</ele><time>2026-5-4T17:21:33Z</time></trkpt>
<trkpt lat="46.19531" lon="7.4525"><ele>1583.6</ele><time>2026-5-4T17:21:36Z</time></trkpt>
<trkpt lat="46.19531" lon="7.45252"><ele>1583.6</ele><time>2026-5-4T17:21:39Z</time></trkpt>
<trkpt lat="46.19531" lon="7.45254"><ele>1583.8</ele><time>2026-5-4T17:21:42Z</time></trkpt>
<trkpt lat="46.19532" lon="7.45257"><ele>1584.2</ele><time>2026-5-4T17:21:45Z</time></trkpt>
<trkpt lat="46.19532" lon="7.45262"><ele>1584.6</ele><time>2026-5-4T17:21:48Z</time></trkpt>
<trkpt lat="46.19532" lon="7.45264"><ele>1584.8</ele><time>2026-5-4T17:21:51Z</time></trkpt>
<trkpt lat="46.19533" lon="7.4527"><ele>1585.6</ele><time>2026-5-4T17:21:54Z</time></trkpt>
<trkpt lat="46.19533" lon="7.45271"><ele>1585.6</ele><time>2026-5-4T17:21:57Z</time></trkpt>
<trkpt lat="46.19534" lon="7.45279"><ele>1586.2</ele><time>2026-5-4T17:22:0Z</time></trkpt>
<trkpt lat="46.19535" lon="7.45282"><ele>1586.8</ele><time>2026-5-4T17:22:3Z</time></trkpt>
<trkpt lat="46.19536" lon="7.45285"><ele>1587.2</ele><time>2026-5-4T17:22:6Z</time></trkpt>
<trkpt lat="46.19536" lon="7.45289"><ele>1587.4</ele><time>2026-5-4T17:22:9Z</time></trkpt>
<trkpt lat="46.19536" lon="7.4529"><ele>1587.6</ele><time>2026-5-4T17:22:12Z</time></trkpt>
<trkpt lat="46.19536" lon="7.45291"><ele>1587.8</ele><time>2026-5-4T17:22:15Z</time></trkpt>
<trkpt lat="46.19536" lon="7.45293"><ele>1587.8</ele><time>2026-5-4T17:22:18Z</time></trkpt>
<trkpt lat="46.19538" lon="7.45297"><ele>1588.4</ele><time>2026-5-4T17:22:21Z</time></trkpt>
<trkpt lat="46.19539" lon="7.45302"><ele>1589</ele><time>2026-5-4T17:22:24Z</time></trkpt>
<trkpt lat="46.19541" lon="7.45306"><ele>1589.6</ele><time>2026-5-4T17:22:27Z</time></trkpt>
<trkpt lat="46.19542" lon="7.4531"><ele>1590.2</ele><time>2026-5-4T17:22:30Z</time></trkpt>
<trkpt lat="46.19543" lon="7.45314"><ele>1590.4</ele><time>2026-5-4T17:22:33Z</time></trkpt>
<trkpt lat="46.19544" lon="7.45322"><ele>1591</ele><time>2026-5-4T17:22:36Z</time></trkpt>
<trkpt lat="46.19545" lon="7.45325"><ele>1591.2</ele><time>2026-5-4T17:22:39Z</time></trkpt>
<trkpt lat="46.19547" lon="7.45328"><ele>1591.8</ele><time>2026-5-4T17:22:42Z</time></trkpt>
<trkpt lat="46.19547" lon="7.45331"><ele>1592.2</ele><time>2026-5-4T17:22:45Z</time></trkpt>
<trkpt lat="46.19549" lon="7.45336"><ele>1592.6</ele><time>2026-5-4T17:22:48Z</time></trkpt>
<trkpt lat="46.1955" lon="7.45339"><ele>1593.2</ele><time>2026-5-4T17:22:51Z</time></trkpt>
<trkpt lat="46.19551" lon="7.45342"><ele>1593.4</ele><time>2026-5-4T17:22:54Z</time></trkpt>
<trkpt lat="46.19552" lon="7.45347"><ele>1594.2</ele><time>2026-5-4T17:22:57Z</time></trkpt>
<trkpt lat="46.19553" lon="7.45349"><ele>1594.4</ele><time>2026-5-4T17:23:0Z</time></trkpt>
<trkpt lat="46.19553" lon="7.45354"><ele>1594.8</ele><time>2026-5-4T17:23:3Z</time></trkpt>
<trkpt lat="46.19554" lon="7.45359"><ele>1595.4</ele><time>2026-5-4T17:23:6Z</time></trkpt>
<trkpt lat="46.19554" lon="7.4536"><ele>1595.4</ele><time>2026-5-4T17:23:9Z</time></trkpt>
<trkpt lat="46.19555" lon="7.45361"><ele>1595.6</ele><time>2026-5-4T17:23:12Z</time></trkpt>
<trkpt lat="46.19555" lon="7.45364"><ele>1596</ele><time>2026-5-4T17:23:15Z</time></trkpt>
<trkpt lat="46.19555" lon="7.45368"><ele>1596.4</ele><time>2026-5-4T17:23:18Z</time></trkpt>
<trkpt lat="46.19556" lon="7.45371"><ele>1596.6</ele><time>2026-5-4T17:23:21Z</time></trkpt>
<trkpt lat="46.19557" lon="7.45373"><ele>1597</ele><time>2026-5-4T17:23:24Z</time></trkpt>
<trkpt lat="46.19558" lon="7.45378"><ele>1597.4</ele><time>2026-5-4T17:23:27Z</time></trkpt>
<trkpt lat="46.19559" lon="7.45379"><ele>1597.4</ele><time>2026-5-4T17:23:30Z</time></trkpt>
<trkpt lat="46.19561" lon="7.45384"><ele>1598.4</ele><time>2026-5-4T17:23:33Z</time></trkpt>
<trkpt lat="46.19561" lon="7.45387"><ele>1598.4</ele><time>2026-5-4T17:23:36Z</time></trkpt>
<trkpt lat="46.19562" lon="7.45388"><ele>1598.6</ele><time>2026-5-4T17:23:39Z</time></trkpt>
<trkpt lat="46.19563" lon="7.45389"><ele>1598.6</ele><time>2026-5-4T17:23:42Z</time></trkpt>
<trkpt lat="46.19563" lon="7.45395"><ele>1599.2</ele><time>2026-5-4T17:23:45Z</time></trkpt>
<trkpt lat="46.19564" lon="7.45396"><ele>1599.4</ele><time>2026-5-4T17:23:48Z</time></trkpt>
<trkpt lat="46.19564" lon="7.45399"><ele>1599.6</ele><time>2026-5-4T17:23:51Z</time></trkpt>
<trkpt lat="46.19565" lon="7.45403"><ele>1600</ele><time>2026-5-4T17:23:54Z</time></trkpt>
<trkpt lat="46.19566" lon="7.45408"><ele>1600.2</ele><time>2026-5-4T17:23:57Z</time></trkpt>
<trkpt lat="46.19567" lon="7.45412"><ele>1600.6</ele><time>2026-5-4T17:24:0Z</time></trkpt>
<trkpt lat="46.19567" lon="7.45417"><ele>1601.2</ele><time>2026-5-4T17:24:3Z</time></trkpt>
<trkpt lat="46.19567" lon="7.45422"><ele>1601.4</ele><time>2026-5-4T17:24:6Z</time></trkpt>
<trkpt lat="46.19568" lon="7.45424"><ele>1601.8</ele><time>2026-5-4T17:24:9Z</time></trkpt>
<trkpt lat="46.19569" lon="7.45429"><ele>1602.4</ele><time>2026-5-4T17:24:12Z</time></trkpt>
<trkpt lat="46.1957" lon="7.45436"><ele>1602.8</ele><time>2026-5-4T17:24:15Z</time></trkpt>
<trkpt lat="46.19572" lon="7.4544"><ele>1603.2</ele><time>2026-5-4T17:24:18Z</time></trkpt>
<trkpt lat="46.19574" lon="7.45448"><ele>1603.8</ele><time>2026-5-4T17:24:21Z</time></trkpt>
<trkpt lat="46.19574" lon="7.4545"><ele>1604</ele><time>2026-5-4T17:24:24Z</time></trkpt>
<trkpt lat="46.19575" lon="7.45459"><ele>1604.8</ele><time>2026-5-4T17:24:27Z</time></trkpt>
<trkpt lat="46.19576" lon="7.45462"><ele>1605</ele><time>2026-5-4T17:24:30Z</time></trkpt>
<trkpt lat="46.19576" lon="7.45464"><ele>1605.4</ele><time>2026-5-4T17:24:33Z</time></trkpt>
<trkpt lat="46.19579" lon="7.4547"><ele>1605.6</ele><time>2026-5-4T17:24:36Z</time></trkpt>
<trkpt lat="46.19581" lon="7.45475"><ele>1606</ele><time>2026-5-4T17:24:39Z</time></trkpt>
<trkpt lat="46.19581" lon="7.45476"><ele>1606.2</ele><time>2026-5-4T17:24:42Z</time></trkpt>
<trkpt lat="46.19583" lon="7.45481"><ele>1606.8</ele><time>2026-5-4T17:24:45Z</time></trkpt>
<trkpt lat="46.19584" lon="7.45485"><ele>1607.2</ele><time>2026-5-4T17:24:48Z</time></trkpt>
<trkpt lat="46.19585" lon="7.45489"><ele>1607.4</ele><time>2026-5-4T17:24:51Z</time></trkpt>
<trkpt lat="46.19587" lon="7.45494"><ele>1608</ele><time>2026-5-4T17:24:54Z</time></trkpt>
<trkpt lat="46.19587" lon="7.45496"><ele>1608.2</ele><time>2026-5-4T17:24:57Z</time></trkpt>
<trkpt lat="46.19589" lon="7.45506"><ele>1609</ele><time>2026-5-4T17:25:0Z</time></trkpt>
<trkpt lat="46.19589" lon="7.4551"><ele>1609.2</ele><time>2026-5-4T17:25:3Z</time></trkpt>
<trkpt lat="46.1959" lon="7.45516"><ele>1609.4</ele><time>2026-5-4T17:25:6Z</time></trkpt>
<trkpt lat="46.19589" lon="7.45518"><ele>1609.6</ele><time>2026-5-4T17:25:9Z</time></trkpt>
<trkpt lat="46.19589" lon="7.45522"><ele>1609.8</ele><time>2026-5-4T17:25:12Z</time></trkpt>
<trkpt lat="46.1959" lon="7.45531"><ele>1610.2</ele><time>2026-5-4T17:25:15Z</time></trkpt>
<trkpt lat="46.1959" lon="7.45542"><ele>1611</ele><time>2026-5-4T17:25:18Z</time></trkpt>
<trkpt lat="46.19589" lon="7.45547"><ele>1611.4</ele><time>2026-5-4T17:25:21Z</time></trkpt>
<trkpt lat="46.19589" lon="7.4555"><ele>1611.6</ele><time>2026-5-4T17:25:24Z</time></trkpt>
<trkpt lat="46.19588" lon="7.45562"><ele>1612.4</ele><time>2026-5-4T17:25:27Z</time></trkpt>
<trkpt lat="46.19587" lon="7.45568"><ele>1613</ele><time>2026-5-4T17:25:30Z</time></trkpt>
<trkpt lat="46.19587" lon="7.45573"><ele>1613.6</ele><time>2026-5-4T17:25:33Z</time></trkpt>
<trkpt lat="46.19587" lon="7.45576"><ele>1613.8</ele><time>2026-5-4T17:25:36Z</time></trkpt>
<trkpt lat="46.19586" lon="7.45583"><ele>1614.6</ele><time>2026-5-4T17:25:39Z</time></trkpt>
<trkpt lat="46.19586" lon="7.45584"><ele>1614.6</ele><time>2026-5-4T17:25:42Z</time></trkpt>
<trkpt lat="46.19586" lon="7.45589"><ele>1615.2</ele><time>2026-5-4T17:25:45Z</time></trkpt>
<trkpt lat="46.19586" lon="7.45594"><ele>1615.8</ele><time>2026-5-4T17:25:48Z</time></trkpt>
<trkpt lat="46.19586" lon="7.45597"><ele>1616.2</ele><time>2026-5-4T17:25:51Z</time></trkpt>
<trkpt lat="46.19585" lon="7.45601"><ele>1616.8</ele><time>2026-5-4T17:25:54Z</time></trkpt>
<trkpt lat="46.19583" lon="7.45603"><ele>1617.2</ele><time>2026-5-4T17:25:57Z</time></trkpt>
<trkpt lat="46.19582" lon="7.4561"><ele>1617.8</ele><time>2026-5-4T17:26:0Z</time></trkpt>
<trkpt lat="46.19582" lon="7.45613"><ele>1618</ele><time>2026-5-4T17:26:3Z</time></trkpt>
<trkpt lat="46.19581" lon="7.45617"><ele>1618.6</ele><time>2026-5-4T17:26:6Z</time></trkpt>
<trkpt lat="46.19582" lon="7.45622"><ele>1619.2</ele><time>2026-5-4T17:26:9Z</time></trkpt>
<trkpt lat="46.19583" lon="7.45626"><ele>1619.6</ele><time>2026-5-4T17:26:12Z</time></trkpt>
<trkpt lat="46.19583" lon="7.4563"><ele>1620.2</ele><time>2026-5-4T17:26:15Z</time></trkpt>
<trkpt lat="46.19585" lon="7.45635"><ele>1621</ele><time>2026-5-4T17:26:18Z</time></trkpt>
<trkpt lat="46.19586" lon="7.45637"><ele>1621.4</ele><time>2026-5-4T17:26:21Z</time></trkpt>
<trkpt lat="46.19586" lon="7.4564"><ele>1622</ele><time>2026-5-4T17:26:24Z</time></trkpt>
<trkpt lat="46.19587" lon="7.4564"><ele>1622</ele><time>2026-5-4T17:26:27Z</time></trkpt>
<trkpt lat="46.19588" lon="7.45644"><ele>1622.4</ele><time>2026-5-4T17:26:30Z</time></trkpt>
<trkpt lat="46.19589" lon="7.45645"><ele>1622.4</ele><time>2026-5-4T17:26:33Z</time></trkpt>
<trkpt lat="46.1959" lon="7.45649"><ele>1623</ele><time>2026-5-4T17:26:36Z</time></trkpt>
<trkpt lat="46.1959" lon="7.45651"><ele>1623.2</ele><time>2026-5-4T17:26:39Z</time></trkpt>
<trkpt lat="46.19591" lon="7.45655"><ele>1623.6</ele><time>2026-5-4T17:26:42Z</time></trkpt>
<trkpt lat="46.19592" lon="7.45657"><ele>1623.8</ele><time>2026-5-4T17:26:45Z</time></trkpt>
<trkpt lat="46.19594" lon="7.45665"><ele>1624.4</ele><time>2026-5-4T17:26:48Z</time></trkpt>
<trkpt lat="46.19594" lon="7.45668"><ele>1624.6</ele><time>2026-5-4T17:26:51Z</time></trkpt>
<trkpt lat="46.19595" lon="7.45673"><ele>1625.2</ele><time>2026-5-4T17:26:54Z</time></trkpt>
<trkpt lat="46.19595" lon="7.45677"><ele>1625.6</ele><time>2026-5-4T17:26:57Z</time></trkpt>
<trkpt lat="46.19596" lon="7.45682"><ele>1626.2</ele><time>2026-5-4T17:27:0Z</time></trkpt>
<trkpt lat="46.19597" lon="7.45686"><ele>1626.6</ele><time>2026-5-4T17:27:3Z</time></trkpt>
<trkpt lat="46.19597" lon="7.45688"><ele>1627</ele><time>2026-5-4T17:27:6Z</time></trkpt>
<trkpt lat="46.19597" lon="7.4569"><ele>1627</ele><time>2026-5-4T17:27:9Z</time></trkpt>
<trkpt lat="46.19597" lon="7.45692"><ele>1627.4</ele><time>2026-5-4T17:27:12Z</time></trkpt>
<trkpt lat="46.19597" lon="7.45695"><ele>1627.6</ele><time>2026-5-4T17:27:15Z</time></trkpt>
<trkpt lat="46.19598" lon="7.45696"><ele>1627.8</ele><time>2026-5-4T17:27:18Z</time></trkpt>
<trkpt lat="46.19598" lon="7.45702"><ele>1628.4</ele><time>2026-5-4T17:27:21Z</time></trkpt>
<trkpt lat="46.19599" lon="7.45704"><ele>1628.8</ele><time>2026-5-4T17:27:24Z</time></trkpt>
<trkpt lat="46.196" lon="7.45708"><ele>1629.4</ele><time>2026-5-4T17:27:27Z</time></trkpt>
<trkpt lat="46.19601" lon="7.4571"><ele>1629.8</ele><time>2026-5-4T17:27:30Z</time></trkpt>
<trkpt lat="46.19602" lon="7.45715"><ele>1630.6</ele><time>2026-5-4T17:27:33Z</time></trkpt>
<trkpt lat="46.19603" lon="7.45717"><ele>1631</ele><time>2026-5-4T17:27:36Z</time></trkpt>
<trkpt lat="46.19605" lon="7.4572"><ele>1631.6</ele><time>2026-5-4T17:27:39Z</time></trkpt>
<trkpt lat="46.19605" lon="7.45722"><ele>1632</ele><time>2026-5-4T17:27:42Z</time></trkpt>
<trkpt lat="46.19606" lon="7.45725"><ele>1632.2</ele><time>2026-5-4T17:27:45Z</time></trkpt>
<trkpt lat="46.1961" lon="7.45732"><ele>1633</ele><time>2026-5-4T17:27:48Z</time></trkpt>
<trkpt lat="46.19611" lon="7.45733"><ele>1633</ele><time>2026-5-4T17:27:51Z</time></trkpt>
<trkpt lat="46.19614" lon="7.45741"><ele>1634</ele><time>2026-5-4T17:27:54Z</time></trkpt>
<trkpt lat="46.19615" lon="7.45743"><ele>1634.2</ele><time>2026-5-4T17:27:57Z</time></trkpt>
<trkpt lat="46.19617" lon="7.45747"><ele>1634.8</ele><time>2026-5-4T17:28:0Z</time></trkpt>
<trkpt lat="46.19618" lon="7.45749"><ele>1635.2</ele><time>2026-5-4T17:28:3Z</time></trkpt>
<trkpt lat="46.1962" lon="7.45752"><ele>1635.4</ele><time>2026-5-4T17:28:6Z</time></trkpt>
<trkpt lat="46.1962" lon="7.45753"><ele>1635.6</ele><time>2026-5-4T17:28:9Z</time></trkpt>
<trkpt lat="46.19622" lon="7.45754"><ele>1636.2</ele><time>2026-5-4T17:28:12Z</time></trkpt>
<trkpt lat="46.19623" lon="7.45757"><ele>1636.4</ele><time>2026-5-4T17:28:15Z</time></trkpt>
<trkpt lat="46.19623" lon="7.45759"><ele>1636.6</ele><time>2026-5-4T17:28:18Z</time></trkpt>
<trkpt lat="46.19621" lon="7.45762"><ele>1636.8</ele><time>2026-5-4T17:28:21Z</time></trkpt>
<trkpt lat="46.19621" lon="7.45771"><ele>1637.2</ele><time>2026-5-4T17:28:24Z</time></trkpt>
<trkpt lat="46.19621" lon="7.45772"><ele>1637.4</ele><time>2026-5-4T17:28:27Z</time></trkpt>
<trkpt lat="46.19623" lon="7.45782"><ele>1638</ele><time>2026-5-4T17:28:30Z</time></trkpt>
<trkpt lat="46.19624" lon="7.45786"><ele>1638.2</ele><time>2026-5-4T17:28:33Z</time></trkpt>
<trkpt lat="46.19624" lon="7.4579"><ele>1638.4</ele><time>2026-5-4T17:28:36Z</time></trkpt>
<trkpt lat="46.19626" lon="7.45802"><ele>1639.2</ele><time>2026-5-4T17:28:39Z</time></trkpt>
<trkpt lat="46.19626" lon="7.45804"><ele>1639.4</ele><time>2026-5-4T17:28:42Z</time></trkpt>
<trkpt lat="46.19631" lon="7.45811"><ele>1640</ele><time>2026-5-4T17:28:45Z</time></trkpt>
<trkpt lat="46.19633" lon="7.45812"><ele>1640.2</ele><time>2026-5-4T17:28:48Z</time></trkpt>
<trkpt lat="46.19636" lon="7.45812"><ele>1640.4</ele><time>2026-5-4T17:28:51Z</time></trkpt>
<trkpt lat="46.19637" lon="7.45811"><ele>1640.6</ele><time>2026-5-4T17:28:54Z</time></trkpt>
<trkpt lat="46.19638" lon="7.45799"><ele>1641.4</ele><time>2026-5-4T17:28:57Z</time></trkpt>
<trkpt lat="46.19638" lon="7.45797"><ele>1641.4</ele><time>2026-5-4T17:29:0Z</time></trkpt>
<trkpt lat="46.19637" lon="7.45789"><ele>1641.8</ele><time>2026-5-4T17:29:3Z</time></trkpt>
<trkpt lat="46.19636" lon="7.45781"><ele>1642.2</ele><time>2026-5-4T17:29:6Z</time></trkpt>
<trkpt lat="46.19636" lon="7.45777"><ele>1642.6</ele><time>2026-5-4T17:29:9Z</time></trkpt>
<trkpt lat="46.19636" lon="7.4577"><ele>1643.4</ele><time>2026-5-4T17:29:12Z</time></trkpt>
<trkpt lat="46.19635" lon="7.45765"><ele>1643.6</ele><time>2026-5-4T17:29:15Z</time></trkpt>
<trkpt lat="46.19635" lon="7.45761"><ele>1644</ele><time>2026-5-4T17:29:18Z</time></trkpt>
<trkpt lat="46.19635" lon="7.45753"><ele>1644.6</ele><time>2026-5-4T17:29:21Z</time></trkpt>
<trkpt lat="46.19635" lon="7.45752"><ele>1644.8</ele><time>2026-5-4T17:29:24Z</time></trkpt>
<trkpt lat="46.19635" lon="7.45746"><ele>1645.6</ele><time>2026-5-4T17:29:27Z</time></trkpt>
<trkpt lat="46.19635" lon="7.45741"><ele>1645.8</ele><time>2026-5-4T17:29:30Z</time></trkpt>
<trkpt lat="46.19635" lon="7.45739"><ele>1646</ele><time>2026-5-4T17:29:33Z</time></trkpt>
<trkpt lat="46.19635" lon="7.45738"><ele>1646</ele><time>2026-5-4T17:29:36Z</time></trkpt>
<trkpt lat="46.19636" lon="7.45733"><ele>1646.4</ele><time>2026-5-4T17:29:39Z</time></trkpt>
<trkpt lat="46.19636" lon="7.45727"><ele>1647</ele><time>2026-5-4T17:29:42Z</time></trkpt>
<trkpt lat="46.19636" lon="7.45726"><ele>1647</ele><time>2026-5-4T17:29:45Z</time></trkpt>
<trkpt lat="46.19637" lon="7.45725"><ele>1647.2</ele><time>2026-5-4T17:29:48Z</time></trkpt>
<trkpt lat="46.19639" lon="7.45722"><ele>1647.4</ele><time>2026-5-4T17:29:51Z</time></trkpt>
<trkpt lat="46.1964" lon="7.45714"><ele>1647.8</ele><time>2026-5-4T17:29:54Z</time></trkpt>
<trkpt lat="46.19641" lon="7.45712"><ele>1648</ele><time>2026-5-4T17:29:57Z</time></trkpt>
<trkpt lat="46.19642" lon="7.45709"><ele>1648.4</ele><time>2026-5-4T17:30:0Z</time></trkpt>
<trkpt lat="46.19642" lon="7.45702"><ele>1649</ele><time>2026-5-4T17:30:3Z</time></trkpt>
<trkpt lat="46.19642" lon="7.45701"><ele>1649.2</ele><time>2026-5-4T17:30:6Z</time></trkpt>
<trkpt lat="46.19643" lon="7.45696"><ele>1649.8</ele><time>2026-5-4T17:30:9Z</time></trkpt>
<trkpt lat="46.19643" lon="7.45692"><ele>1650.2</ele><time>2026-5-4T17:30:12Z</time></trkpt>
<trkpt lat="46.19644" lon="7.45689"><ele>1650.6</ele><time>2026-5-4T17:30:15Z</time></trkpt>
<trkpt lat="46.19645" lon="7.45687"><ele>1650.8</ele><time>2026-5-4T17:30:18Z</time></trkpt>
<trkpt lat="46.19647" lon="7.45686"><ele>1651.2</ele><time>2026-5-4T17:30:21Z</time></trkpt>
<trkpt lat="46.19649" lon="7.45683"><ele>1651.2</ele><time>2026-5-4T17:30:24Z</time></trkpt>
<trkpt lat="46.1965" lon="7.4568"><ele>1651.8</ele><time>2026-5-4T17:30:27Z</time></trkpt>
<trkpt lat="46.19652" lon="7.45674"><ele>1652.2</ele><time>2026-5-4T17:30:30Z</time></trkpt>
<trkpt lat="46.19653" lon="7.45673"><ele>1652.4</ele><time>2026-5-4T17:30:33Z</time></trkpt>
<trkpt lat="46.19654" lon="7.4567"><ele>1652.8</ele><time>2026-5-4T17:30:36Z</time></trkpt>
<trkpt lat="46.19654" lon="7.45669"><ele>1652.8</ele><time>2026-5-4T17:30:39Z</time></trkpt>
<trkpt lat="46.19657" lon="7.45663"><ele>1653.4</ele><time>2026-5-4T17:30:42Z</time></trkpt>
<trkpt lat="46.19657" lon="7.45662"><ele>1653.4</ele><time>2026-5-4T17:30:45Z</time></trkpt>
<trkpt lat="46.19662" lon="7.45657"><ele>1654.2</ele><time>2026-5-4T17:30:48Z</time></trkpt>
<trkpt lat="46.19664" lon="7.45655"><ele>1654.6</ele><time>2026-5-4T17:30:51Z</time></trkpt>
<trkpt lat="46.19664" lon="7.45652"><ele>1654.8</ele><time>2026-5-4T17:30:54Z</time></trkpt>
<trkpt lat="46.19667" lon="7.45644"><ele>1655.6</ele><time>2026-5-4T17:30:57Z</time></trkpt>
<trkpt lat="46.19667" lon="7.45642"><ele>1655.6</ele><time>2026-5-4T17:31:0Z</time></trkpt>
<trkpt lat="46.19668" lon="7.4564"><ele>1655.8</ele><time>2026-5-4T17:31:3Z</time></trkpt>
<trkpt lat="46.19668" lon="7.45639"><ele>1656</ele><time>2026-5-4T17:31:6Z</time></trkpt>
<trkpt lat="46.1967" lon="7.45633"><ele>1656.6</ele><time>2026-5-4T17:31:9Z</time></trkpt>
<trkpt lat="46.1967" lon="7.45628"><ele>1657.2</ele><time>2026-5-4T17:31:12Z</time></trkpt>
<trkpt lat="46.1967" lon="7.45622"><ele>1657.8</ele><time>2026-5-4T17:31:15Z</time></trkpt>
<trkpt lat="46.19671" lon="7.45613"><ele>1658.8</ele><time>2026-5-4T17:31:18Z</time></trkpt>
<trkpt lat="46.19672" lon="7.45611"><ele>1659.2</ele><time>2026-5-4T17:31:21Z</time></trkpt>
<trkpt lat="46.19673" lon="7.45606"><ele>1660</ele><time>2026-5-4T17:31:24Z</time></trkpt>
<trkpt lat="46.19673" lon="7.45604"><ele>1660.2</ele><time>2026-5-4T17:31:27Z</time></trkpt>
<trkpt lat="46.19674" lon="7.45597"><ele>1661</ele><time>2026-5-4T17:31:30Z</time></trkpt>
<trkpt lat="46.19674" lon="7.45589"><ele>1661.6</ele><time>2026-5-4T17:31:33Z</time></trkpt>
<trkpt lat="46.19673" lon="7.45585"><ele>1662</ele><time>2026-5-4T17:31:36Z</time></trkpt>
<trkpt lat="46.19674" lon="7.45581"><ele>1662.4</ele><time>2026-5-4T17:31:39Z</time></trkpt>
<trkpt lat="46.19673" lon="7.45577"><ele>1663</ele><time>2026-5-4T17:31:42Z</time></trkpt>
<trkpt lat="46.19674" lon="7.45575"><ele>1663.2</ele><time>2026-5-4T17:31:45Z</time></trkpt>
<trkpt lat="46.19674" lon="7.45566"><ele>1664</ele><time>2026-5-4T17:31:48Z</time></trkpt>
<trkpt lat="46.19674" lon="7.45565"><ele>1664.2</ele><time>2026-5-4T17:31:51Z</time></trkpt>
<trkpt lat="46.19673" lon="7.45558"><ele>1664.6</ele><time>2026-5-4T17:31:54Z</time></trkpt>
<trkpt lat="46.19671" lon="7.45552"><ele>1665.2</ele><time>2026-5-4T17:31:57Z</time></trkpt>
<trkpt lat="46.19669" lon="7.45545"><ele>1666</ele><time>2026-5-4T17:32:0Z</time></trkpt>
<trkpt lat="46.19669" lon="7.45542"><ele>1666.2</ele><time>2026-5-4T17:32:3Z</time></trkpt>
<trkpt lat="46.19668" lon="7.45539"><ele>1666.6</ele><time>2026-5-4T17:32:6Z</time></trkpt>
<trkpt lat="46.19666" lon="7.45532"><ele>1667.4</ele><time>2026-5-4T17:32:9Z</time></trkpt>
<trkpt lat="46.19664" lon="7.45526"><ele>1667.8</ele><time>2026-5-4T17:32:12Z</time></trkpt>
<trkpt lat="46.19664" lon="7.45522"><ele>1668.4</ele><time>2026-5-4T17:32:15Z</time></trkpt>
<trkpt lat="46.19664" lon="7.45521"><ele>1668.4</ele><time>2026-5-4T17:32:18Z</time></trkpt>
<trkpt lat="46.19663" lon="7.45513"><ele>1669.2</ele><time>2026-5-4T17:32:21Z</time></trkpt>
<trkpt lat="46.19663" lon="7.45512"><ele>1669.4</ele><time>2026-5-4T17:32:24Z</time></trkpt>
<trkpt lat="46.19662" lon="7.45506"><ele>1670</ele><time>2026-5-4T17:32:27Z</time></trkpt>
<trkpt lat="46.19661" lon="7.45501"><ele>1670.4</ele><time>2026-5-4T17:32:30Z</time></trkpt>
<trkpt lat="46.19661" lon="7.455"><ele>1670.6</ele><time>2026-5-4T17:32:33Z</time></trkpt>
<trkpt lat="46.1966" lon="7.45493"><ele>1671.2</ele><time>2026-5-4T17:32:36Z</time></trkpt>
<trkpt lat="46.19661" lon="7.45489"><ele>1671.6</ele><time>2026-5-4T17:32:39Z</time></trkpt>
<trkpt lat="46.19661" lon="7.45486"><ele>1671.8</ele><time>2026-5-4T17:32:42Z</time></trkpt>
<trkpt lat="46.19662" lon="7.45478"><ele>1672.4</ele><time>2026-5-4T17:32:45Z</time></trkpt>
<trkpt lat="46.19663" lon="7.45476"><ele>1672.6</ele><time>2026-5-4T17:32:48Z</time></trkpt>
<trkpt lat="46.19663" lon="7.45475"><ele>1672.8</ele><time>2026-5-4T17:32:51Z</time></trkpt>
<trkpt lat="46.19665" lon="7.4547"><ele>1673.2</ele><time>2026-5-4T17:32:54Z</time></trkpt>
<trkpt lat="46.19666" lon="7.45466"><ele>1673.4</ele><time>2026-5-4T17:32:57Z</time></trkpt>
<trkpt lat="46.19667" lon="7.4546"><ele>1673.6</ele><time>2026-5-4T17:33:0Z</time></trkpt>
<trkpt lat="46.19667" lon="7.45453"><ele>1674</ele><time>2026-5-4T17:33:3Z</time></trkpt>
<trkpt lat="46.19668" lon="7.45446"><ele>1674.4</ele><time>2026-5-4T17:33:6Z</time></trkpt>
<trkpt lat="46.19668" lon="7.45444"><ele>1674.8</ele><time>2026-5-4T17:33:9Z</time></trkpt>
<trkpt lat="46.1967" lon="7.45441"><ele>1675.2</ele><time>2026-5-4T17:33:12Z</time></trkpt>
<trkpt lat="46.19671" lon="7.45435"><ele>1676</ele><time>2026-5-4T17:33:15Z</time></trkpt>
<trkpt lat="46.19672" lon="7.45434"><ele>1676</ele><time>2026-5-4T17:33:18Z</time></trkpt>
<trkpt lat="46.19674" lon="7.45426"><ele>1676.6</ele><time>2026-5-4T17:33:21Z</time></trkpt>
<trkpt lat="46.19675" lon="7.45421"><ele>1677</ele><time>2026-5-4T17:33:24Z</time></trkpt>
<trkpt lat="46.19677" lon="7.45417"><ele>1677.6</ele><time>2026-5-4T17:33:27Z</time></trkpt>
<trkpt lat="46.19679" lon="7.45414"><ele>1678</ele><time>2026-5-4T17:33:30Z</time></trkpt>
<trkpt lat="46.1968" lon="7.45411"><ele>1678.2</ele><time>2026-5-4T17:33:33Z</time></trkpt>
<trkpt lat="46.19682" lon="7.45405"><ele>1679.2</ele><time>2026-5-4T17:33:36Z</time></trkpt>
<trkpt lat="46.19683" lon="7.45403"><ele>1679.2</ele><time>2026-5-4T17:33:39Z</time></trkpt>
<trkpt lat="46.19685" lon="7.45397"><ele>1680.2</ele><time>2026-5-4T17:33:42Z</time></trkpt>
<trkpt lat="46.19685" lon="7.45395"><ele>1680.2</ele><time>2026-5-4T17:33:45Z</time></trkpt>
<trkpt lat="46.19687" lon="7.45389"><ele>1680.8</ele><time>2026-5-4T17:33:48Z</time></trkpt>
<trkpt lat="46.19689" lon="7.45384"><ele>1681.2</ele><time>2026-5-4T17:33:51Z</time></trkpt>
<trkpt lat="46.19689" lon="7.4538"><ele>1681.6</ele><time>2026-5-4T17:33:54Z</time></trkpt>
<trkpt lat="46.19692" lon="7.45375"><ele>1682.4</ele><time>2026-5-4T17:33:57Z</time></trkpt>
<trkpt lat="46.19692" lon="7.45374"><ele>1682.6</ele><time>2026-5-4T17:34:0Z</time></trkpt>
<trkpt lat="46.19694" lon="7.4537"><ele>1683.2</ele><time>2026-5-4T17:34:3Z</time></trkpt>
<trkpt lat="46.19695" lon="7.45368"><ele>1683.4</ele><time>2026-5-4T17:34:6Z</time></trkpt>
<trkpt lat="46.19696" lon="7.45364"><ele>1683.8</ele><time>2026-5-4T17:34:9Z</time></trkpt>
<trkpt lat="46.197" lon="7.45358"><ele>1684.4</ele><time>2026-5-4T17:34:12Z</time></trkpt>
<trkpt lat="46.197" lon="7.45357"><ele>1684.6</ele><time>2026-5-4T17:34:15Z</time></trkpt>
<trkpt lat="46.19703" lon="7.45352"><ele>1685.2</ele><time>2026-5-4T17:34:18Z</time></trkpt>
<trkpt lat="46.19704" lon="7.4535"><ele>1685.4</ele><time>2026-5-4T17:34:21Z</time></trkpt>
<trkpt lat="46.19706" lon="7.45349"><ele>1685.4</ele><time>2026-5-4T17:34:24Z</time></trkpt>
<trkpt lat="46.19707" lon="7.45346"><ele>1685.8</ele><time>2026-5-4T17:34:27Z</time></trkpt>
<trkpt lat="46.19708" lon="7.45342"><ele>1686.2</ele><time>2026-5-4T17:34:30Z</time></trkpt>
<trkpt lat="46.19709" lon="7.45339"><ele>1686.6</ele><time>2026-5-4T17:34:33Z</time></trkpt>
<trkpt lat="46.19712" lon="7.45334"><ele>1687.2</ele><time>2026-5-4T17:34:36Z</time></trkpt>
<trkpt lat="46.19713" lon="7.45332"><ele>1687.6</ele><time>2026-5-4T17:34:39Z</time></trkpt>
<trkpt lat="46.19714" lon="7.45328"><ele>1688</ele><time>2026-5-4T17:34:42Z</time></trkpt>
<trkpt lat="46.19717" lon="7.45322"><ele>1688.8</ele><time>2026-5-4T17:34:45Z</time></trkpt>
<trkpt lat="46.19717" lon="7.45321"><ele>1689</ele><time>2026-5-4T17:34:48Z</time></trkpt>
<trkpt lat="46.19719" lon="7.45318"><ele>1689.2</ele><time>2026-5-4T17:34:51Z</time></trkpt>
<trkpt lat="46.1972" lon="7.45314"><ele>1689.6</ele><time>2026-5-4T17:34:54Z</time></trkpt>
<trkpt lat="46.1972" lon="7.45312"><ele>1689.8</ele><time>2026-5-4T17:34:57Z</time></trkpt>
<trkpt lat="46.1972" lon="7.45311"><ele>1690</ele><time>2026-5-4T17:35:0Z</time></trkpt>
<trkpt lat="46.19724" lon="7.45306"><ele>1690.8</ele><time>2026-5-4T17:35:3Z</time></trkpt>
<trkpt lat="46.19724" lon="7.45304"><ele>1690.8</ele><time>2026-5-4T17:35:6Z</time></trkpt>
<trkpt lat="46.19727" lon="7.45299"><ele>1691.8</ele><time>2026-5-4T17:35:9Z</time></trkpt>
<trkpt lat="46.19728" lon="7.45297"><ele>1692</ele><time>2026-5-4T17:35:12Z</time></trkpt>
<trkpt lat="46.1973" lon="7.45293"><ele>1692.6</ele><time>2026-5-4T17:35:15Z</time></trkpt>
<trkpt lat="46.19731" lon="7.45289"><ele>1693.2</ele><time>2026-5-4T17:35:18Z</time></trkpt>
<trkpt lat="46.19733" lon="7.45286"><ele>1693.4</ele><time>2026-5-4T17:35:21Z</time></trkpt>
<trkpt lat="46.19734" lon="7.4528"><ele>1694.2</ele><time>2026-5-4T17:35:24Z</time></trkpt>
<trkpt lat="46.19735" lon="7.45279"><ele>1694.4</ele><time>2026-5-4T17:35:27Z</time></trkpt>
<trkpt lat="46.19739" lon="7.45274"><ele>1695</ele><time>2026-5-4T17:35:30Z</time></trkpt>
<trkpt lat="46.1974" lon="7.45273"><ele>1695.2</ele><time>2026-5-4T17:35:33Z</time></trkpt>
<trkpt lat="46.19744" lon="7.4527"><ele>1696</ele><time>2026-5-4T17:35:36Z</time></trkpt>
<trkpt lat="46.19746" lon="7.45267"><ele>1696.4</ele><time>2026-5-4T17:35:39Z</time></trkpt>
<trkpt lat="46.19749" lon="7.45266"><ele>1696.8</ele><time>2026-5-4T17:35:42Z</time></trkpt>
<trkpt lat="46.19752" lon="7.45262"><ele>1697.2</ele><time>2026-5-4T17:35:45Z</time></trkpt>
<trkpt lat="46.19752" lon="7.45261"><ele>1697.4</ele><time>2026-5-4T17:35:48Z</time></trkpt>
<trkpt lat="46.19757" lon="7.45255"><ele>1698</ele><time>2026-5-4T17:35:51Z</time></trkpt>
<trkpt lat="46.19759" lon="7.45253"><ele>1698.4</ele><time>2026-5-4T17:35:54Z</time></trkpt>
<trkpt lat="46.19761" lon="7.4525"><ele>1698.8</ele><time>2026-5-4T17:35:57Z</time></trkpt>
<trkpt lat="46.19765" lon="7.45243"><ele>1699.4</ele><time>2026-5-4T17:36:0Z</time></trkpt>
<trkpt lat="46.19766" lon="7.45242"><ele>1699.6</ele><time>2026-5-4T17:36:3Z</time></trkpt>
<trkpt lat="46.19771" lon="7.45236"><ele>1700.2</ele><time>2026-5-4T17:36:6Z</time></trkpt>
<trkpt lat="46.19773" lon="7.45235"><ele>1700.4</ele><time>2026-5-4T17:36:9Z</time></trkpt>
<trkpt lat="46.19774" lon="7.45233"><ele>1700.4</ele><time>2026-5-4T17:36:12Z</time></trkpt>
<trkpt lat="46.19775" lon="7.45231"><ele>1700.6</ele><time>2026-5-4T17:36:15Z</time></trkpt>
<trkpt lat="46.19776" lon="7.45229"><ele>1701</ele><time>2026-5-4T17:36:18Z</time></trkpt>
<trkpt lat="46.19779" lon="7.45226"><ele>1701.6</ele><time>2026-5-4T17:36:21Z</time></trkpt>
<trkpt lat="46.1978" lon="7.45223"><ele>1701.8</ele><time>2026-5-4T17:36:24Z</time></trkpt>
<trkpt lat="46.19782" lon="7.45217"><ele>1702.6</ele><time>2026-5-4T17:36:27Z</time></trkpt>
<trkpt lat="46.19783" lon="7.45217"><ele>1702.6</ele><time>2026-5-4T17:36:30Z</time></trkpt>
<trkpt lat="46.19784" lon="7.45214"><ele>1703</ele><time>2026-5-4T17:36:33Z</time></trkpt>
<trkpt lat="46.19785" lon="7.45212"><ele>1703.2</ele><time>2026-5-4T17:36:36Z</time></trkpt>
<trkpt lat="46.19789" lon="7.45207"><ele>1703.6</ele><time>2026-5-4T17:36:39Z</time></trkpt>
<trkpt lat="46.19789" lon="7.45206"><ele>1703.8</ele><time>2026-5-4T17:36:42Z</time></trkpt>
<trkpt lat="46.1979" lon="7.45203"><ele>1704</ele><time>2026-5-4T17:36:45Z</time></trkpt>
<trkpt lat="46.19791" lon="7.45201"><ele>1704</ele><time>2026-5-4T17:36:48Z</time></trkpt>
<trkpt lat="46.19793" lon="7.45196"><ele>1704.8</ele><time>2026-5-4T17:36:51Z</time></trkpt>
<trkpt lat="46.19796" lon="7.45192"><ele>1705.4</ele><time>2026-5-4T17:36:54Z</time></trkpt>
<trkpt lat="46.19798" lon="7.45187"><ele>1705.8</ele><time>2026-5-4T17:36:57Z</time></trkpt>
<trkpt lat="46.19803" lon="7.4518"><ele>1706.8</ele><time>2026-5-4T17:37:0Z</time></trkpt>
<trkpt lat="46.19803" lon="7.45179"><ele>1706.8</ele><time>2026-5-4T17:37:3Z</time></trkpt>
<trkpt lat="46.19805" lon="7.45173"><ele>1707.6</ele><time>2026-5-4T17:37:6Z</time></trkpt>
<trkpt lat="46.19807" lon="7.45171"><ele>1708</ele><time>2026-5-4T17:37:9Z</time></trkpt>
<trkpt lat="46.19808" lon="7.45168"><ele>1708.2</ele><time>2026-5-4T17:37:12Z</time></trkpt>
<trkpt lat="46.1981" lon="7.45168"><ele>1708.6</ele><time>2026-5-4T17:37:15Z</time></trkpt>
<trkpt lat="46.19811" lon="7.45167"><ele>1708.6</ele><time>2026-5-4T17:37:18Z</time></trkpt>
<trkpt lat="46.19811" lon="7.45164"><ele>1708.8</ele><time>2026-5-4T17:37:21Z</time></trkpt>
<trkpt lat="46.19811" lon="7.45164"><ele>1708.8</ele><time>2026-5-4T17:37:24Z</time></trkpt>
<trkpt lat="46.19812" lon="7.45163"><ele>1709</ele><time>2026-5-4T17:37:27Z</time></trkpt>
<trkpt lat="46.19815" lon="7.45159"><ele>1709.6</ele><time>2026-5-4T17:37:30Z</time></trkpt>
<trkpt lat="46.19818" lon="7.45152"><ele>1710</ele><time>2026-5-4T17:37:33Z</time></trkpt>
<trkpt lat="46.19818" lon="7.45151"><ele>1710.2</ele><time>2026-5-4T17:37:36Z</time></trkpt>
<trkpt lat="46.19822" lon="7.45139"><ele>1711</ele><time>2026-5-4T17:37:39Z</time></trkpt>
<trkpt lat="46.19824" lon="7.45134"><ele>1711.6</ele><time>2026-5-4T17:37:42Z</time></trkpt>
<trkpt lat="46.19826" lon="7.4513"><ele>1712.2</ele><time>2026-5-4T17:37:45Z</time></trkpt>
<trkpt lat="46.19826" lon="7.45129"><ele>1712.2</ele><time>2026-5-4T17:37:48Z</time></trkpt>
<trkpt lat="46.19828" lon="7.45124"><ele>1713</ele><time>2026-5-4T17:37:51Z</time></trkpt>
<trkpt lat="46.19829" lon="7.4512"><ele>1713.2</ele><time>2026-5-4T17:37:54Z</time></trkpt>
<trkpt lat="46.19831" lon="7.45118"><ele>1713.4</ele><time>2026-5-4T17:37:57Z</time></trkpt>
<trkpt lat="46.19835" lon="7.45112"><ele>1714.2</ele><time>2026-5-4T17:38:0Z</time></trkpt>
<trkpt lat="46.19836" lon="7.45112"><ele>1714.2</ele><time>2026-5-4T17:38:3Z</time></trkpt>
<trkpt lat="46.19839" lon="7.45109"><ele>1714.6</ele><time>2026-5-4T17:38:6Z</time></trkpt>
<trkpt lat="46.1984" lon="7.45108"><ele>1714.8</ele><time>2026-5-4T17:38:9Z</time></trkpt>
<trkpt lat="46.19842" lon="7.45107"><ele>1715</ele><time>2026-5-4T17:38:12Z</time></trkpt>
<trkpt lat="46.19843" lon="7.45105"><ele>1715</ele><time>2026-5-4T17:38:15Z</time></trkpt>
<trkpt lat="46.19844" lon="7.45103"><ele>1715.4</ele><time>2026-5-4T17:38:18Z</time></trkpt>
<trkpt lat="46.19845" lon="7.451"><ele>1715.8</ele><time>2026-5-4T17:38:21Z</time></trkpt>
<trkpt lat="46.19847" lon="7.45095"><ele>1716.4</ele><time>2026-5-4T17:38:24Z</time></trkpt>
<trkpt lat="46.19848" lon="7.45092"><ele>1716.8</ele><time>2026-5-4T17:38:27Z</time></trkpt>
<trkpt lat="46.19851" lon="7.45088"><ele>1717.4</ele><time>2026-5-4T17:38:30Z</time></trkpt>
<trkpt lat="46.19851" lon="7.45087"><ele>1717.6</ele><time>2026-5-4T17:38:33Z</time></trkpt>
<trkpt lat="46.19854" lon="7.45082"><ele>1718.2</ele><time>2026-5-4T17:38:36Z</time></trkpt>
<trkpt lat="46.19855" lon="7.45082"><ele>1718.4</ele><time>2026-5-4T17:38:39Z</time></trkpt>
<trkpt lat="46.19856" lon="7.45082"><ele>1718.4</ele><time>2026-5-4T17:38:42Z</time></trkpt>
<trkpt lat="46.19857" lon="7.45082"><ele>1718.6</ele><time>2026-5-4T17:38:45Z</time></trkpt>
<trkpt lat="46.19861" lon="7.45075"><ele>1719.4</ele><time>2026-5-4T17:38:48Z</time></trkpt>
<trkpt lat="46.19861" lon="7.45074"><ele>1719.6</ele><time>2026-5-4T17:38:51Z</time></trkpt>
<trkpt lat="46.19865" lon="7.45071"><ele>1720.2</ele><time>2026-5-4T17:38:54Z</time></trkpt>
<trkpt lat="46.19867" lon="7.45066"><ele>1720.6</ele><time>2026-5-4T17:38:57Z</time></trkpt>
<trkpt lat="46.1987" lon="7.4506"><ele>1721</ele><time>2026-5-4T17:39:0Z</time></trkpt>
<trkpt lat="46.19871" lon="7.45057"><ele>1721.4</ele><time>2026-5-4T17:39:3Z</time></trkpt>
<trkpt lat="46.19873" lon="7.45056"><ele>1721.6</ele><time>2026-5-4T17:39:6Z</time></trkpt>
<trkpt lat="46.19873" lon="7.45055"><ele>1721.8</ele><time>2026-5-4T17:39:9Z</time></trkpt>
<trkpt lat="46.19874" lon="7.45053"><ele>1722.2</ele><time>2026-5-4T17:39:12Z</time></trkpt>
<trkpt lat="46.19876" lon="7.4505"><ele>1722.4</ele><time>2026-5-4T17:39:15Z</time></trkpt>
<trkpt lat="46.19878" lon="7.45047"><ele>1722.8</ele><time>2026-5-4T17:39:18Z</time></trkpt>
<trkpt lat="46.19879" lon="7.45045"><ele>1723</ele><time>2026-5-4T17:39:21Z</time></trkpt>
<trkpt lat="46.19884" lon="7.45039"><ele>1723.8</ele><time>2026-5-4T17:39:24Z</time></trkpt>
<trkpt lat="46.19888" lon="7.45036"><ele>1724.2</ele><time>2026-5-4T17:39:27Z</time></trkpt>
<trkpt lat="46.1989" lon="7.45035"><ele>1724.4</ele><time>2026-5-4T17:39:30Z</time></trkpt>
<trkpt lat="46.19891" lon="7.45033"><ele>1724.8</ele><time>2026-5-4T17:39:33Z</time></trkpt>
<trkpt lat="46.19893" lon="7.4503"><ele>1725.2</ele><time>2026-5-4T17:39:36Z</time></trkpt>
<trkpt lat="46.19898" lon="7.45027"><ele>1726</ele><time>2026-5-4T17:39:39Z</time></trkpt>
<trkpt lat="46.19899" lon="7.45026"><ele>1726</ele><time>2026-5-4T17:39:42Z</time></trkpt>
<trkpt lat="46.19903" lon="7.45025"><ele>1726.6</ele><time>2026-5-4T17:39:45Z</time></trkpt>
<trkpt lat="46.19907" lon="7.45022"><ele>1727</ele><time>2026-5-4T17:39:48Z</time></trkpt>
<trkpt lat="46.19908" lon="7.45022"><ele>1727.2</ele><time>2026-5-4T17:39:51Z</time></trkpt>
<trkpt lat="46.19913" lon="7.4502"><ele>1728</ele><time>2026-5-4T17:39:54Z</time></trkpt>
<trkpt lat="46.19915" lon="7.45019"><ele>1728.2</ele><time>2026-5-4T17:39:57Z</time></trkpt>
<trkpt lat="46.19919" lon="7.4502"><ele>1729</ele><time>2026-5-4T17:40:0Z</time></trkpt>
<trkpt lat="46.1992" lon="7.4502"><ele>1729.2</ele><time>2026-5-4T17:40:3Z</time></trkpt>
<trkpt lat="46.19924" lon="7.45018"><ele>1729.8</ele><time>2026-5-4T17:40:6Z</time></trkpt>
<trkpt lat="46.19928" lon="7.45017"><ele>1730.2</ele><time>2026-5-4T17:40:9Z</time></trkpt>
<trkpt lat="46.1993" lon="7.45016"><ele>1730.4</ele><time>2026-5-4T17:40:12Z</time></trkpt>
<trkpt lat="46.19935" lon="7.45014"><ele>1731.2</ele><time>2026-5-4T17:40:15Z</time></trkpt>
<trkpt lat="46.19936" lon="7.45014"><ele>1731.4</ele><time>2026-5-4T17:40:18Z</time></trkpt>
<trkpt lat="46.1994" lon="7.45012"><ele>1731.8</ele><time>2026-5-4T17:40:21Z</time></trkpt>
<trkpt lat="46.19941" lon="7.45012"><ele>1732</ele><time>2026-5-4T17:40:24Z</time></trkpt>
<trkpt lat="46.19942" lon="7.45011"><ele>1732.2</ele><time>2026-5-4T17:40:27Z</time></trkpt>
<trkpt lat="46.19943" lon="7.4501"><ele>1732.4</ele><time>2026-5-4T17:40:30Z</time></trkpt>
<trkpt lat="46.19945" lon="7.4501"><ele>1732.8</ele><time>2026-5-4T17:40:33Z</time></trkpt>
<trkpt lat="46.19951" lon="7.45007"><ele>1733.2</ele><time>2026-5-4T17:40:36Z</time></trkpt>
<trkpt lat="46.19952" lon="7.45005"><ele>1733.4</ele><time>2026-5-4T17:40:39Z</time></trkpt>
<trkpt lat="46.19957" lon="7.45002"><ele>1734.2</ele><time>2026-5-4T17:40:42Z</time></trkpt>
<trkpt lat="46.19958" lon="7.45"><ele>1734.4</ele><time>2026-5-4T17:40:45Z</time></trkpt>
<trkpt lat="46.19959" lon="7.44999"><ele>1734.4</ele><time>2026-5-4T17:40:48Z</time></trkpt>
<trkpt lat="46.19961" lon="7.44994"><ele>1735</ele><time>2026-5-4T17:40:51Z</time></trkpt>
<trkpt lat="46.19964" lon="7.44991"><ele>1735.6</ele><time>2026-5-4T17:40:54Z</time></trkpt>
<trkpt lat="46.19965" lon="7.44991"><ele>1735.6</ele><time>2026-5-4T17:40:57Z</time></trkpt>
<trkpt lat="46.19965" lon="7.4499"><ele>1735.8</ele><time>2026-5-4T17:41:0Z</time></trkpt>
<trkpt lat="46.19967" lon="7.44987"><ele>1736.2</ele><time>2026-5-4T17:41:3Z</time></trkpt>
<trkpt lat="46.19969" lon="7.44986"><ele>1736.6</ele><time>2026-5-4T17:41:6Z</time></trkpt>
<trkpt lat="46.19971" lon="7.44986"><ele>1736.8</ele><time>2026-5-4T17:41:9Z</time></trkpt>
<trkpt lat="46.19974" lon="7.44989"><ele>1737.2</ele><time>2026-5-4T17:41:12Z</time></trkpt>
<trkpt lat="46.19976" lon="7.44989"><ele>1737.4</ele><time>2026-5-4T17:41:15Z</time></trkpt>
<trkpt lat="46.19979" lon="7.44987"><ele>1737.6</ele><time>2026-5-4T17:41:18Z</time></trkpt>
<trkpt lat="46.1998" lon="7.44985"><ele>1738</ele><time>2026-5-4T17:41:21Z</time></trkpt>
<trkpt lat="46.19985" lon="7.44983"><ele>1738.8</ele><time>2026-5-4T17:41:24Z</time></trkpt>
<trkpt lat="46.19987" lon="7.44981"><ele>1739</ele><time>2026-5-4T17:41:27Z</time></trkpt>
<trkpt lat="46.19992" lon="7.44977"><ele>1739.8</ele><time>2026-5-4T17:41:30Z</time></trkpt>
<trkpt lat="46.19993" lon="7.44974"><ele>1740</ele><time>2026-5-4T17:41:33Z</time></trkpt>
<trkpt lat="46.19995" lon="7.44972"><ele>1740.2</ele><time>2026-5-4T17:41:36Z</time></trkpt>
<trkpt lat="46.19999" lon="7.44968"><ele>1740.4</ele><time>2026-5-4T17:41:39Z</time></trkpt>
<trkpt lat="46.20006" lon="7.44957"><ele>1739.8</ele><time>2026-5-4T17:41:42Z</time></trkpt>
<trkpt lat="46.20013" lon="7.44944"><ele>1739</ele><time>2026-5-4T17:41:45Z</time></trkpt>
<trkpt lat="46.20016" lon="7.44939"><ele>1738.8</ele><time>2026-5-4T17:41:48Z</time></trkpt>
<trkpt lat="46.20017" lon="7.44933"><ele>1738.4</ele><time>2026-5-4T17:41:51Z</time></trkpt>
<trkpt lat="46.20018" lon="7.44927"><ele>1738</ele><time>2026-5-4T17:41:54Z</time></trkpt>
<trkpt lat="46.2002" lon="7.44921"><ele>1737.4</ele><time>2026-5-4T17:41:57Z</time></trkpt>
<trkpt lat="46.20022" lon="7.44906"><ele>1736.2</ele><time>2026-5-4T17:42:0Z</time></trkpt>
<trkpt lat="46.20021" lon="7.44888"><ele>1735.2</ele><time>2026-5-4T17:42:3Z</time></trkpt>
<trkpt lat="46.2002" lon="7.44869"><ele>1734</ele><time>2026-5-4T17:42:6Z</time></trkpt>
<trkpt lat="46.20018" lon="7.4486"><ele>1733.4</ele><time>2026-5-4T17:42:9Z</time></trkpt>
<trkpt lat="46.20017" lon="7.44851"><ele>1732.4</ele><time>2026-5-4T17:42:12Z</time></trkpt>
<trkpt lat="46.20014" lon="7.44834"><ele>1731</ele><time>2026-5-4T17:42:15Z</time></trkpt>
<trkpt lat="46.20011" lon="7.44826"><ele>1730.2</ele><time>2026-5-4T17:42:18Z</time></trkpt>
<trkpt lat="46.20008" lon="7.4482"><ele>1729.6</ele><time>2026-5-4T17:42:21Z</time></trkpt>
<trkpt lat="46.20002" lon="7.44808"><ele>1728.2</ele><time>2026-5-4T17:42:24Z</time></trkpt>
<trkpt lat="46.2" lon="7.44801"><ele>1727.8</ele><time>2026-5-4T17:42:27Z</time></trkpt>
<trkpt lat="46.19998" lon="7.44788"><ele>1727</ele><time>2026-5-4T17:42:30Z</time></trkpt>
<trkpt lat="46.19999" lon="7.44773"><ele>1725.8</ele><time>2026-5-4T17:42:33Z</time></trkpt>
<trkpt lat="46.20002" lon="7.44756"><ele>1724.6</ele><time>2026-5-4T17:42:36Z</time></trkpt>
<trkpt lat="46.20005" lon="7.44748"><ele>1724</ele><time>2026-5-4T17:42:39Z</time></trkpt>
<trkpt lat="46.20008" lon="7.4474"><ele>1723.2</ele><time>2026-5-4T17:42:42Z</time></trkpt>
<trkpt lat="46.20011" lon="7.44732"><ele>1722.6</ele><time>2026-5-4T17:42:45Z</time></trkpt>
<trkpt lat="46.20014" lon="7.44723"><ele>1721.8</ele><time>2026-5-4T17:42:48Z</time></trkpt>
<trkpt lat="46.20018" lon="7.44705"><ele>1720.4</ele><time>2026-5-4T17:42:51Z</time></trkpt>
<trkpt lat="46.20023" lon="7.44685"><ele>1718.6</ele><time>2026-5-4T17:42:54Z</time></trkpt>
<trkpt lat="46.20027" lon="7.44665"><ele>1717</ele><time>2026-5-4T17:42:57Z</time></trkpt>
<trkpt lat="46.2003" lon="7.44646"><ele>1715.6</ele><time>2026-5-4T17:43:0Z</time></trkpt>
<trkpt lat="46.20031" lon="7.44636"><ele>1714.8</ele><time>2026-5-4T17:43:3Z</time></trkpt>
<trkpt lat="46.20031" lon="7.44625"><ele>1713.8</ele><time>2026-5-4T17:43:6Z</time></trkpt>
<trkpt lat="46.20032" lon="7.44604"><ele>1712</ele><time>2026-5-4T17:43:9Z</time></trkpt>
<trkpt lat="46.20033" lon="7.44585"><ele>1710</ele><time>2026-5-4T17:43:12Z</time></trkpt>
<trkpt lat="46.20037" lon="7.44566"><ele>1708.2</ele><time>2026-5-4T17:43:15Z</time></trkpt>
<trkpt lat="46.20042" lon="7.44546"><ele>1706.6</ele><time>2026-5-4T17:43:18Z</time></trkpt>
<trkpt lat="46.20049" lon="7.44527"><ele>1704.6</ele><time>2026-5-4T17:43:21Z</time></trkpt>
<trkpt lat="46.20053" lon="7.44518"><ele>1703.8</ele><time>2026-5-4T17:43:24Z</time></trkpt>
<trkpt lat="46.20058" lon="7.44508"><ele>1703</ele><time>2026-5-4T17:43:27Z</time></trkpt>
<trkpt lat="46.20063" lon="7.445"><ele>1702</ele><time>2026-5-4T17:43:30Z</time></trkpt>
<trkpt lat="46.20069" lon="7.44492"><ele>1701.4</ele><time>2026-5-4T17:43:33Z</time></trkpt>
<trkpt lat="46.20075" lon="7.44484"><ele>1700.2</ele><time>2026-5-4T17:43:36Z</time></trkpt>
<trkpt lat="46.20083" lon="7.44477"><ele>1699.4</ele><time>2026-5-4T17:43:39Z</time></trkpt>
<trkpt lat="46.20089" lon="7.4447"><ele>1698.4</ele><time>2026-5-4T17:43:42Z</time></trkpt>
<trkpt lat="46.20095" lon="7.44462"><ele>1697.2</ele><time>2026-5-4T17:43:45Z</time></trkpt>
<trkpt lat="46.20101" lon="7.44442"><ele>1696</ele><time>2026-5-4T17:43:48Z</time></trkpt>
<trkpt lat="46.20102" lon="7.44432"><ele>1694.6</ele><time>2026-5-4T17:43:51Z</time></trkpt>
<trkpt lat="46.20102" lon="7.44421"><ele>1693.2</ele><time>2026-5-4T17:43:54Z</time></trkpt>
<trkpt lat="46.20103" lon="7.4441"><ele>1691.8</ele><time>2026-5-4T17:43:57Z</time></trkpt>
<trkpt lat="46.20104" lon="7.444"><ele>1690.6</ele><time>2026-5-4T17:44:0Z</time></trkpt>
<trkpt lat="46.20107" lon="7.4439"><ele>1689.8</ele><time>2026-5-4T17:44:3Z</time></trkpt>
<trkpt lat="46.2011" lon="7.44381"><ele>1689</ele><time>2026-5-4T17:44:6Z</time></trkpt>
<trkpt lat="46.20114" lon="7.44371"><ele>1688.2</ele><time>2026-5-4T17:44:9Z</time></trkpt>
<trkpt lat="46.20118" lon="7.44362"><ele>1687.2</ele><time>2026-5-4T17:44:12Z</time></trkpt>
<trkpt lat="46.20126" lon="7.44342"><ele>1685.6</ele><time>2026-5-4T17:44:15Z</time></trkpt>
<trkpt lat="46.20136" lon="7.44321"><ele>1684</ele><time>2026-5-4T17:44:18Z</time></trkpt>
<trkpt lat="46.20145" lon="7.443"><ele>1682</ele><time>2026-5-4T17:44:21Z</time></trkpt>
<trkpt lat="46.20153" lon="7.44281"><ele>1680.2</ele><time>2026-5-4T17:44:24Z</time></trkpt>
<trkpt lat="46.20157" lon="7.44271"><ele>1679</ele><time>2026-5-4T17:44:27Z</time></trkpt>
<trkpt lat="46.20164" lon="7.44255"><ele>1677.2</ele><time>2026-5-4T17:44:30Z</time></trkpt>
<trkpt lat="46.20173" lon="7.44244"><ele>1675.4</ele><time>2026-5-4T17:44:33Z</time></trkpt>
<trkpt lat="46.2018" lon="7.4424"><ele>1674.8</ele><time>2026-5-4T17:44:36Z</time></trkpt>
<trkpt lat="46.20186" lon="7.44238"><ele>1674</ele><time>2026-5-4T17:44:39Z</time></trkpt>
<trkpt lat="46.20199" lon="7.44236"><ele>1672.8</ele><time>2026-5-4T17:44:42Z</time></trkpt>
<trkpt lat="46.20205" lon="7.44235"><ele>1672.2</ele><time>2026-5-4T17:44:45Z</time></trkpt>
<trkpt lat="46.20212" lon="7.44235"><ele>1671.4</ele><time>2026-5-4T17:44:48Z</time></trkpt>
<trkpt lat="46.20218" lon="7.44234"><ele>1670.8</ele><time>2026-5-4T17:44:51Z</time></trkpt>
<trkpt lat="46.20223" lon="7.4423"><ele>1670.2</ele><time>2026-5-4T17:44:54Z</time></trkpt>
<trkpt lat="46.20227" lon="7.44225"><ele>1669.6</ele><time>2026-5-4T17:44:57Z</time></trkpt>
<trkpt lat="46.2023" lon="7.4422"><ele>1669</ele><time>2026-5-4T17:45:0Z</time></trkpt>
<trkpt lat="46.20233" lon="7.44216"><ele>1668.6</ele><time>2026-5-4T17:45:3Z</time></trkpt>
<trkpt lat="46.20236" lon="7.44206"><ele>1668</ele><time>2026-5-4T17:45:6Z</time></trkpt>
<trkpt lat="46.20244" lon="7.44195"><ele>1667</ele><time>2026-5-4T17:45:9Z</time></trkpt>
<trkpt lat="46.20248" lon="7.44193"><ele>1666.8</ele><time>2026-5-4T17:45:12Z</time></trkpt>
<trkpt lat="46.20259" lon="7.44198"><ele>1666.8</ele><time>2026-5-4T17:45:15Z</time></trkpt>
<trkpt lat="46.20277" lon="7.4421"><ele>1666.6</ele><time>2026-5-4T17:45:18Z</time></trkpt>
<trkpt lat="46.20279" lon="7.44212"><ele>1666</ele><time>2026-5-4T17:45:21Z</time></trkpt>
<trkpt lat="46.20279" lon="7.44212"><ele>1666</ele><time>2026-5-4T17:45:24Z</time></trkpt>
<trkpt lat="46.20279" lon="7.44212"><ele>1666</ele><time>2026-5-4T17:45:27Z</time></trkpt>
<trkpt lat="46.20281" lon="7.44211"><ele>1665.8</ele><time>2026-5-4T17:45:30Z</time></trkpt>
<trkpt lat="46.20281" lon="7.44211"><ele>1665.8</ele><time>2026-5-4T17:45:33Z</time></trkpt>
<trkpt lat="46.20281" lon="7.44211"><ele>1665.8</ele><time>2026-5-4T17:45:36Z</time></trkpt>
<trkpt lat="46.20281" lon="7.44211"><ele>1665.8</ele><time>2026-5-4T17:45:39Z</time></trkpt>
<trkpt lat="46.20281" lon="7.44211"><ele>1665.8</ele><time>2026-5-4T17:45:42Z</time></trkpt>
<trkpt lat="46.20281" lon="7.44211"><ele>1666</ele><time>2026-5-4T17:45:45Z</time></trkpt>
<trkpt lat="46.20281" lon="7.44211"><ele>1666</ele><time>2026-5-4T17:45:48Z</time></trkpt>
<trkpt lat="46.20281" lon="7.44211"><ele>1666.2</ele><time>2026-5-4T17:45:51Z</time></trkpt>
<trkpt lat="46.20281" lon="7.44212"><ele>1666.4</ele><time>2026-5-4T17:45:54Z</time></trkpt>
<trkpt lat="46.20282" lon="7.44217"><ele>1666.4</ele><time>2026-5-4T17:45:57Z</time></trkpt>
<trkpt lat="46.20283" lon="7.44219"><ele>1666.2</ele><time>2026-5-4T17:46:0Z</time></trkpt>
<trkpt lat="46.20293" lon="7.44233"><ele>1665.2</ele><time>2026-5-4T17:46:3Z</time></trkpt>
<trkpt lat="46.20301" lon="7.44239"><ele>1664.4</ele><time>2026-5-4T17:46:6Z</time></trkpt>
<trkpt lat="46.20305" lon="7.44241"><ele>1664</ele><time>2026-5-4T17:46:9Z</time></trkpt>
<trkpt lat="46.20315" lon="7.44248"><ele>1663</ele><time>2026-5-4T17:46:12Z</time></trkpt>
<trkpt lat="46.20329" lon="7.44263"><ele>1661.4</ele><time>2026-5-4T17:46:15Z</time></trkpt>
<trkpt lat="46.20338" lon="7.44276"><ele>1659.8</ele><time>2026-5-4T17:46:18Z</time></trkpt>
<trkpt lat="46.20347" lon="7.44289"><ele>1658.4</ele><time>2026-5-4T17:46:21Z</time></trkpt>
<trkpt lat="46.20353" lon="7.44294"><ele>1657.6</ele><time>2026-5-4T17:46:24Z</time></trkpt>
<trkpt lat="46.2036" lon="7.44296"><ele>1657</ele><time>2026-5-4T17:46:27Z</time></trkpt>
<trkpt lat="46.20368" lon="7.443"><ele>1656.2</ele><time>2026-5-4T17:46:30Z</time></trkpt>
<trkpt lat="46.20375" lon="7.44304"><ele>1655.4</ele><time>2026-5-4T17:46:33Z</time></trkpt>
<trkpt lat="46.20382" lon="7.44309"><ele>1654.4</ele><time>2026-5-4T17:46:36Z</time></trkpt>
<trkpt lat="46.20396" lon="7.44324"><ele>1652.6</ele><time>2026-5-4T17:46:39Z</time></trkpt>
<trkpt lat="46.20409" lon="7.44342"><ele>1650.8</ele><time>2026-5-4T17:46:42Z</time></trkpt>
<trkpt lat="46.2042" lon="7.44362"><ele>1649.2</ele><time>2026-5-4T17:46:45Z</time></trkpt>
<trkpt lat="46.20428" lon="7.44379"><ele>1647.6</ele><time>2026-5-4T17:46:48Z</time></trkpt>
<trkpt lat="46.20434" lon="7.44395"><ele>1646.4</ele><time>2026-5-4T17:46:51Z</time></trkpt>
<trkpt lat="46.20441" lon="7.44408"><ele>1645.2</ele><time>2026-5-4T17:46:54Z</time></trkpt>
<trkpt lat="46.20445" lon="7.44414"><ele>1644.6</ele><time>2026-5-4T17:46:57Z</time></trkpt>
<trkpt lat="46.20449" lon="7.44418"><ele>1644</ele><time>2026-5-4T17:47:0Z</time></trkpt>
<trkpt lat="46.20454" lon="7.44422"><ele>1643.4</ele><time>2026-5-4T17:47:3Z</time></trkpt>
<trkpt lat="46.20463" lon="7.44426"><ele>1642.4</ele><time>2026-5-4T17:47:6Z</time></trkpt>
<trkpt lat="46.20468" lon="7.44427"><ele>1642</ele><time>2026-5-4T17:47:9Z</time></trkpt>
<trkpt lat="46.20478" lon="7.44429"><ele>1641.4</ele><time>2026-5-4T17:47:12Z</time></trkpt>
<trkpt lat="46.20489" lon="7.44433"><ele>1640.4</ele><time>2026-5-4T17:47:15Z</time></trkpt>
<trkpt lat="46.20494" lon="7.44437"><ele>1639.8</ele><time>2026-5-4T17:47:18Z</time></trkpt>
<trkpt lat="46.20506" lon="7.44446"><ele>1638.4</ele><time>2026-5-4T17:47:21Z</time></trkpt>
<trkpt lat="46.20518" lon="7.44454"><ele>1637.2</ele><time>2026-5-4T17:47:24Z</time></trkpt>
<trkpt lat="46.20524" lon="7.44456"><ele>1636.8</ele><time>2026-5-4T17:47:27Z</time></trkpt>
<trkpt lat="46.2053" lon="7.44457"><ele>1636.2</ele><time>2026-5-4T17:47:30Z</time></trkpt>
<trkpt lat="46.20536" lon="7.44456"><ele>1635.4</ele><time>2026-5-4T17:47:33Z</time></trkpt>
<trkpt lat="46.20543" lon="7.44456"><ele>1634.8</ele><time>2026-5-4T17:47:36Z</time></trkpt>
<trkpt lat="46.20549" lon="7.44455"><ele>1634.2</ele><time>2026-5-4T17:47:39Z</time></trkpt>
<trkpt lat="46.20556" lon="7.44454"><ele>1633.6</ele><time>2026-5-4T17:47:42Z</time></trkpt>
<trkpt lat="46.2057" lon="7.44451"><ele>1632.4</ele><time>2026-5-4T17:47:45Z</time></trkpt>
<trkpt lat="46.20585" lon="7.44449"><ele>1631</ele><time>2026-5-4T17:47:48Z</time></trkpt>
<trkpt lat="46.20592" lon="7.44448"><ele>1630.2</ele><time>2026-5-4T17:47:51Z</time></trkpt>
<trkpt lat="46.20599" lon="7.44447"><ele>1629.6</ele><time>2026-5-4T17:47:54Z</time></trkpt>
<trkpt lat="46.20612" lon="7.44444"><ele>1628</ele><time>2026-5-4T17:47:57Z</time></trkpt>
<trkpt lat="46.20625" lon="7.44443"><ele>1626.4</ele><time>2026-5-4T17:48:0Z</time></trkpt>
<trkpt lat="46.20637" lon="7.44442"><ele>1625</ele><time>2026-5-4T17:48:3Z</time></trkpt>
<trkpt lat="46.2065" lon="7.44442"><ele>1623.6</ele><time>2026-5-4T17:48:6Z</time></trkpt>
<trkpt lat="46.20656" lon="7.44441"><ele>1623</ele><time>2026-5-4T17:48:9Z</time></trkpt>
<trkpt lat="46.20661" lon="7.44441"><ele>1622.6</ele><time>2026-5-4T17:48:12Z</time></trkpt>
<trkpt lat="46.20673" lon="7.44442"><ele>1621.4</ele><time>2026-5-4T17:48:15Z</time></trkpt>
<trkpt lat="46.20686" lon="7.44445"><ele>1620</ele><time>2026-5-4T17:48:18Z</time></trkpt>
<trkpt lat="46.207" lon="7.44453"><ele>1618.6</ele><time>2026-5-4T17:48:21Z</time></trkpt>
<trkpt lat="46.20706" lon="7.44459"><ele>1617.8</ele><time>2026-5-4T17:48:24Z</time></trkpt>
<trkpt lat="46.20711" lon="7.44465"><ele>1617</ele><time>2026-5-4T17:48:27Z</time></trkpt>
<trkpt lat="46.2072" lon="7.44476"><ele>1615.8</ele><time>2026-5-4T17:48:30Z</time></trkpt>
<trkpt lat="46.20728" lon="7.44477"><ele>1614.6</ele><time>2026-5-4T17:48:33Z</time></trkpt>
<trkpt lat="46.20731" lon="7.44474"><ele>1614</ele><time>2026-5-4T17:48:36Z</time></trkpt>
<trkpt lat="46.20732" lon="7.4447"><ele>1613.6</ele><time>2026-5-4T17:48:39Z</time></trkpt>
<trkpt lat="46.20732" lon="7.44464"><ele>1613.2</ele><time>2026-5-4T17:48:42Z</time></trkpt>
<trkpt lat="46.2073" lon="7.44459"><ele>1612.6</ele><time>2026-5-4T17:48:45Z</time></trkpt>
<trkpt lat="46.20727" lon="7.44454"><ele>1612.2</ele><time>2026-5-4T17:48:48Z</time></trkpt>
<trkpt lat="46.20723" lon="7.44448"><ele>1611.8</ele><time>2026-5-4T17:48:51Z</time></trkpt>
<trkpt lat="46.20716" lon="7.44432"><ele>1610.8</ele><time>2026-5-4T17:48:54Z</time></trkpt>
<trkpt lat="46.20713" lon="7.44425"><ele>1610.6</ele><time>2026-5-4T17:48:57Z</time></trkpt>
<trkpt lat="46.20708" lon="7.44416"><ele>1609</ele><time>2026-5-4T17:49:0Z</time></trkpt>
<trkpt lat="46.20702" lon="7.44408"><ele>1608.2</ele><time>2026-5-4T17:49:3Z</time></trkpt>
<trkpt lat="46.20696" lon="7.44399"><ele>1607.6</ele><time>2026-5-4T17:49:6Z</time></trkpt>
<trkpt lat="46.20689" lon="7.44391"><ele>1606.4</ele><time>2026-5-4T17:49:9Z</time></trkpt>
<trkpt lat="46.20664" lon="7.44368"><ele>1605</ele><time>2026-5-4T17:49:12Z</time></trkpt>
<trkpt lat="46.20654" lon="7.44363"><ele>1603.8</ele><time>2026-5-4T17:49:15Z</time></trkpt>
<trkpt lat="46.20633" lon="7.44349"><ele>1601.8</ele><time>2026-5-4T17:49:18Z</time></trkpt>
<trkpt lat="46.20624" lon="7.4434"><ele>1600.6</ele><time>2026-5-4T17:49:21Z</time></trkpt>
<trkpt lat="46.20615" lon="7.4433"><ele>1599.6</ele><time>2026-5-4T17:49:24Z</time></trkpt>
<trkpt lat="46.20607" lon="7.44318"><ele>1598.4</ele><time>2026-5-4T17:49:27Z</time></trkpt>
<trkpt lat="46.206" lon="7.44306"><ele>1597.4</ele><time>2026-5-4T17:49:30Z</time></trkpt>
<trkpt lat="46.20593" lon="7.44292"><ele>1596.4</ele><time>2026-5-4T17:49:33Z</time></trkpt>
<trkpt lat="46.20588" lon="7.44276"><ele>1595.6</ele><time>2026-5-4T17:49:36Z</time></trkpt>
<trkpt lat="46.20583" lon="7.44259"><ele>1594.6</ele><time>2026-5-4T17:49:39Z</time></trkpt>
<trkpt lat="46.20581" lon="7.44242"><ele>1593.2</ele><time>2026-5-4T17:49:42Z</time></trkpt>
<trkpt lat="46.2058" lon="7.44223"><ele>1591.8</ele><time>2026-5-4T17:49:45Z</time></trkpt>
<trkpt lat="46.20579" lon="7.44205"><ele>1590.6</ele><time>2026-5-4T17:49:48Z</time></trkpt>
<trkpt lat="46.20576" lon="7.44172"><ele>1588.2</ele><time>2026-5-4T17:49:51Z</time></trkpt>
<trkpt lat="46.2057" lon="7.4414"><ele>1585.6</ele><time>2026-5-4T17:49:54Z</time></trkpt>
<trkpt lat="46.20566" lon="7.44124"><ele>1584.6</ele><time>2026-5-4T17:49:57Z</time></trkpt>
<trkpt lat="46.20561" lon="7.44111"><ele>1583.6</ele><time>2026-5-4T17:50:0Z</time></trkpt>
<trkpt lat="46.20553" lon="7.44099"><ele>1582</ele><time>2026-5-4T17:50:3Z</time></trkpt>
<trkpt lat="46.20546" lon="7.44088"><ele>1581.2</ele><time>2026-5-4T17:50:6Z</time></trkpt>
<trkpt lat="46.20537" lon="7.44076"><ele>1580.2</ele><time>2026-5-4T17:50:9Z</time></trkpt>
<trkpt lat="46.20519" lon="7.44056"><ele>1578</ele><time>2026-5-4T17:50:12Z</time></trkpt>
<trkpt lat="46.20509" lon="7.44046"><ele>1576.8</ele><time>2026-5-4T17:50:15Z</time></trkpt>
<trkpt lat="46.20498" lon="7.44036"><ele>1575.2</ele><time>2026-5-4T17:50:18Z</time></trkpt>
<trkpt lat="46.20488" lon="7.44025"><ele>1573.8</ele><time>2026-5-4T17:50:21Z</time></trkpt>
<trkpt lat="46.20469" lon="7.44005"><ele>1572.6</ele><time>2026-5-4T17:50:24Z</time></trkpt>
<trkpt lat="46.20452" lon="7.43989"><ele>1571</ele><time>2026-5-4T17:50:27Z</time></trkpt>
<trkpt lat="46.20445" lon="7.43984"><ele>1570</ele><time>2026-5-4T17:50:30Z</time></trkpt>
<trkpt lat="46.20441" lon="7.43977"><ele>1569.2</ele><time>2026-5-4T17:50:33Z</time></trkpt>
<trkpt lat="46.2044" lon="7.43969"><ele>1568.4</ele><time>2026-5-4T17:50:36Z</time></trkpt>
<trkpt lat="46.20442" lon="7.43962"><ele>1567.6</ele><time>2026-5-4T17:50:39Z</time></trkpt>
<trkpt lat="46.20448" lon="7.4396"><ele>1567.2</ele><time>2026-5-4T17:50:42Z</time></trkpt>
<trkpt lat="46.20458" lon="7.43965"><ele>1566.4</ele><time>2026-5-4T17:50:45Z</time></trkpt>
<trkpt lat="46.20463" lon="7.4397"><ele>1566</ele><time>2026-5-4T17:50:48Z</time></trkpt>
<trkpt lat="46.20474" lon="7.43978"><ele>1565.2</ele><time>2026-5-4T17:50:51Z</time></trkpt>
<trkpt lat="46.2048" lon="7.43981"><ele>1564.8</ele><time>2026-5-4T17:50:54Z</time></trkpt>
<trkpt lat="46.20487" lon="7.43985"><ele>1564.6</ele><time>2026-5-4T17:50:57Z</time></trkpt>
<trkpt lat="46.20507" lon="7.43995"><ele>1563.6</ele><time>2026-5-4T17:51:0Z</time></trkpt>
<trkpt lat="46.20528" lon="7.44008"><ele>1562.2</ele><time>2026-5-4T17:51:3Z</time></trkpt>
<trkpt lat="46.20534" lon="7.44013"><ele>1561.6</ele><time>2026-5-4T17:51:6Z</time></trkpt>
<trkpt lat="46.20541" lon="7.44017"><ele>1560.8</ele><time>2026-5-4T17:51:9Z</time></trkpt>
<trkpt lat="46.20554" lon="7.44025"><ele>1559.6</ele><time>2026-5-4T17:51:12Z</time></trkpt>
<trkpt lat="46.20564" lon="7.4403"><ele>1558.4</ele><time>2026-5-4T17:51:15Z</time></trkpt>
<trkpt lat="46.20573" lon="7.44034"><ele>1557.2</ele><time>2026-5-4T17:51:18Z</time></trkpt>
<trkpt lat="46.20574" lon="7.4403"><ele>1556.4</ele><time>2026-5-4T17:51:21Z</time></trkpt>
<trkpt lat="46.20574" lon="7.44027"><ele>1556</ele><time>2026-5-4T17:51:24Z</time></trkpt>
<trkpt lat="46.20573" lon="7.44023"><ele>1555.6</ele><time>2026-5-4T17:51:27Z</time></trkpt>
<trkpt lat="46.20572" lon="7.4402"><ele>1555</ele><time>2026-5-4T17:51:30Z</time></trkpt>
<trkpt lat="46.20568" lon="7.44013"><ele>1553.2</ele><time>2026-5-4T17:51:33Z</time></trkpt>
<trkpt lat="46.20568" lon="7.44009"><ele>1552.2</ele><time>2026-5-4T17:51:36Z</time></trkpt>
<trkpt lat="46.20567" lon="7.44005"><ele>1551.2</ele><time>2026-5-4T17:51:39Z</time></trkpt>
<trkpt lat="46.20564" lon="7.43997"><ele>1549.4</ele><time>2026-5-4T17:51:42Z</time></trkpt>
<trkpt lat="46.20563" lon="7.43992"><ele>1548</ele><time>2026-5-4T17:51:45Z</time></trkpt>
<trkpt lat="46.20562" lon="7.43989"><ele>1547.4</ele><time>2026-5-4T17:51:48Z</time></trkpt>
<trkpt lat="46.2056" lon="7.43987"><ele>1546.6</ele><time>2026-5-4T17:51:51Z</time></trkpt>
<trkpt lat="46.20559" lon="7.43984"><ele>1546</ele><time>2026-5-4T17:51:54Z</time></trkpt>
<trkpt lat="46.20559" lon="7.43983"><ele>1545.6</ele><time>2026-5-4T17:51:57Z</time></trkpt>
<trkpt lat="46.20559" lon="7.43978"><ele>1544.8</ele><time>2026-5-4T17:52:0Z</time></trkpt>
<trkpt lat="46.20561" lon="7.43978"><ele>1544.4</ele><time>2026-5-4T17:52:3Z</time></trkpt>
<trkpt lat="46.20563" lon="7.43978"><ele>1544</ele><time>2026-5-4T17:52:6Z</time></trkpt>
<trkpt lat="46.20566" lon="7.43975"><ele>1542.8</ele><time>2026-5-4T17:52:9Z</time></trkpt>
<trkpt lat="46.20569" lon="7.43971"><ele>1541.4</ele><time>2026-5-4T17:52:12Z</time></trkpt>
<trkpt lat="46.20571" lon="7.43969"><ele>1540.6</ele><time>2026-5-4T17:52:15Z</time></trkpt>
<trkpt lat="46.20573" lon="7.43967"><ele>1539.8</ele><time>2026-5-4T17:52:18Z</time></trkpt>
<trkpt lat="46.20577" lon="7.43963"><ele>1538</ele><time>2026-5-4T17:52:21Z</time></trkpt>
<trkpt lat="46.20582" lon="7.43962"><ele>1536.4</ele><time>2026-5-4T17:52:24Z</time></trkpt>
<trkpt lat="46.20584" lon="7.43961"><ele>1535.6</ele><time>2026-5-4T17:52:27Z</time></trkpt>
<trkpt lat="46.20587" lon="7.4396"><ele>1534.8</ele><time>2026-5-4T17:52:30Z</time></trkpt>
<trkpt lat="46.20592" lon="7.43958"><ele>1533.4</ele><time>2026-5-4T17:52:33Z</time></trkpt>
<trkpt lat="46.20598" lon="7.43957"><ele>1532.2</ele><time>2026-5-4T17:52:36Z</time></trkpt>
<trkpt lat="46.20604" lon="7.43955"><ele>1530.8</ele><time>2026-5-4T17:52:39Z</time></trkpt>
<trkpt lat="46.2061" lon="7.43954"><ele>1529.2</ele><time>2026-5-4T17:52:42Z</time></trkpt>
<trkpt lat="46.20617" lon="7.43953"><ele>1527.6</ele><time>2026-5-4T17:52:45Z</time></trkpt>
<trkpt lat="46.20619" lon="7.43953"><ele>1527.2</ele><time>2026-5-4T17:52:48Z</time></trkpt>
<trkpt lat="46.20622" lon="7.43953"><ele>1526.2</ele><time>2026-5-4T17:52:51Z</time></trkpt>
<trkpt lat="46.20624" lon="7.43956"><ele>1525.4</ele><time>2026-5-4T17:52:54Z</time></trkpt>
<trkpt lat="46.20624" lon="7.4396"><ele>1525.6</ele><time>2026-5-4T17:52:57Z</time></trkpt>
<trkpt lat="46.20625" lon="7.43962"><ele>1526</ele><time>2026-5-4T17:53:0Z</time></trkpt>
<trkpt lat="46.20631" lon="7.4397"><ele>1526</ele><time>2026-5-4T17:53:3Z</time></trkpt>
<trkpt lat="46.20638" lon="7.43978"><ele>1525.6</ele><time>2026-5-4T17:53:6Z</time></trkpt>
<trkpt lat="46.20642" lon="7.43983"><ele>1525.2</ele><time>2026-5-4T17:53:9Z</time></trkpt>
<trkpt lat="46.20643" lon="7.43989"><ele>1524.8</ele><time>2026-5-4T17:53:12Z</time></trkpt>
<trkpt lat="46.20645" lon="7.43996"><ele>1524.6</ele><time>2026-5-4T17:53:15Z</time></trkpt>
<trkpt lat="46.20645" lon="7.43996"><ele>1524.4</ele><time>2026-5-4T17:53:18Z</time></trkpt>
</trkseg></trk></gpx>